<?xml version="1.0" encoding="UTF-8" standalone="no" ?>
<gpx xmlns="http://www.topografix.com/GPX/1/1" xmlns:xsi="http://www.w3.org/2001/XMLSchema-instance" xsi:schemaLocation="http://www.topografix.com/GPX/1/1 http://www.topografix.com/GPX/1/1/gpx.xsd" version="1.1" creator="VisuGPX - https://www.visugpx.com">
  <metadata>
    <name>sortie du 25/07 76 km</name>
  </metadata>
  <trk>
    <name><![CDATA[sortie du 25/07 76 km]]></name>
    <trkseg>
      <trkpt lat="50.50334" lon="3.46406">
        <ele>21.739694</ele>
        <time>2021-07-22T15:42:52.615Z</time>
      </trkpt>
      <trkpt lat="50.50337" lon="3.46412">
        <ele>21.739694</ele>
        <time>2021-07-22T15:42:57.931Z</time>
      </trkpt>
      <trkpt lat="50.50356" lon="3.46426">
        <ele>21.739694</ele>
        <time>2021-07-22T15:43:21.667Z</time>
      </trkpt>
      <trkpt lat="50.50362" lon="3.46434">
        <ele>21.739694</ele>
        <time>2021-07-22T15:43:30.603Z</time>
      </trkpt>
      <trkpt lat="50.50361" lon="3.46454">
        <ele>21.739694</ele>
        <time>2021-07-22T15:43:44.905Z</time>
      </trkpt>
      <trkpt lat="50.50371" lon="3.46461">
        <ele>21.739694</ele>
        <time>2021-07-22T15:43:46.953Z</time>
      </trkpt>
      <trkpt lat="50.50523" lon="3.46572">
        <ele>23.077882</ele>
        <time>2021-07-22T15:44:18.187Z</time>
      </trkpt>
      <trkpt lat="50.50681" lon="3.46651">
        <ele>24.625449</ele>
        <time>2021-07-22T15:44:50.439Z</time>
      </trkpt>
      <trkpt lat="50.50708" lon="3.46672">
        <ele>24.897138</ele>
        <time>2021-07-22T15:44:55.772Z</time>
      </trkpt>
      <trkpt lat="50.50735" lon="3.46707">
        <ele>25.16319</ele>
        <time>2021-07-22T15:45:01.679Z</time>
      </trkpt>
      <trkpt lat="50.50778" lon="3.46766">
        <ele>25.163288</ele>
        <time>2021-07-22T15:45:10.731Z</time>
      </trkpt>
      <trkpt lat="50.50821" lon="3.46826">
        <ele>25.163386</ele>
        <time>2021-07-22T15:45:19.340Z</time>
      </trkpt>
      <trkpt lat="50.50831" lon="3.4684">
        <ele>25.163409</ele>
        <time>2021-07-22T15:45:21.142Z</time>
      </trkpt>
      <trkpt lat="50.50837" lon="3.46857">
        <ele>25.16343</ele>
        <time>2021-07-22T15:45:22.935Z</time>
      </trkpt>
      <trkpt lat="50.50838" lon="3.46879">
        <ele>25.163454</ele>
        <time>2021-07-22T15:45:24.804Z</time>
      </trkpt>
      <trkpt lat="50.50839" lon="3.46894">
        <ele>25.16347</ele>
        <time>2021-07-22T15:45:26.014Z</time>
      </trkpt>
      <trkpt lat="50.5084" lon="3.46941">
        <ele>25.069105</ele>
        <time>2021-07-22T15:45:29.981Z</time>
      </trkpt>
      <trkpt lat="50.5085" lon="3.46978">
        <ele>24.944949</ele>
        <time>2021-07-22T15:45:33.401Z</time>
      </trkpt>
      <trkpt lat="50.50871" lon="3.47017">
        <ele>24.78808</ele>
        <time>2021-07-22T15:45:37.721Z</time>
      </trkpt>
      <trkpt lat="50.50899" lon="3.47062">
        <ele>24.596234</ele>
        <time>2021-07-22T15:45:43.000Z</time>
      </trkpt>
      <trkpt lat="50.50936" lon="3.47116">
        <ele>24.35111</ele>
        <time>2021-07-22T15:45:49.659Z</time>
      </trkpt>
      <trkpt lat="50.50985" lon="3.47169">
        <ele>24.084814</ele>
        <time>2021-07-22T15:45:57.681Z</time>
      </trkpt>
      <trkpt lat="50.51052" lon="3.47236">
        <ele>23.738145</ele>
        <time>2021-07-22T15:46:08.310Z</time>
      </trkpt>
      <trkpt lat="50.51059" lon="3.47247">
        <ele>23.696694</ele>
        <time>2021-07-22T15:46:09.601Z</time>
      </trkpt>
      <trkpt lat="50.51066" lon="3.47262">
        <ele>23.643969</ele>
        <time>2021-07-22T15:46:11.224Z</time>
      </trkpt>
      <trkpt lat="50.51065" lon="3.47278">
        <ele>23.598665</ele>
        <time>2021-07-22T15:46:12.641Z</time>
      </trkpt>
      <trkpt lat="50.51006" lon="3.47445">
        <ele>23.006849</ele>
        <time>2021-07-22T15:46:28.967Z</time>
      </trkpt>
      <trkpt lat="50.51016" lon="3.47475">
        <ele>22.898856</ele>
        <time>2021-07-22T15:46:31.909Z</time>
      </trkpt>
      <trkpt lat="50.51082" lon="3.4755">
        <ele>22.48342</ele>
        <time>2021-07-22T15:46:42.398Z</time>
      </trkpt>
      <trkpt lat="50.51104" lon="3.47596">
        <ele>22.282568</ele>
        <time>2021-07-22T15:46:47.062Z</time>
      </trkpt>
      <trkpt lat="50.5111" lon="3.47622">
        <ele>22.184687</ele>
        <time>2021-07-22T15:46:49.272Z</time>
      </trkpt>
      <trkpt lat="50.51109" lon="3.47654">
        <ele>22.074636</ele>
        <time>2021-07-22T15:46:51.980Z</time>
      </trkpt>
      <trkpt lat="50.51104" lon="3.47687">
        <ele>21.956404</ele>
        <time>2021-07-22T15:46:54.716Z</time>
      </trkpt>
      <trkpt lat="50.5108" lon="3.47774">
        <ele>21.624022</ele>
        <time>2021-07-22T15:47:02.988Z</time>
      </trkpt>
      <trkpt lat="50.51082" lon="3.47786">
        <ele>21.616653</ele>
        <time>2021-07-22T15:47:03.903Z</time>
      </trkpt>
      <trkpt lat="50.5109" lon="3.47798">
        <ele>21.606775</ele>
        <time>2021-07-22T15:47:05.687Z</time>
      </trkpt>
      <trkpt lat="50.51109" lon="3.47824">
        <ele>21.585156</ele>
        <time>2021-07-22T15:47:09.071Z</time>
      </trkpt>
      <trkpt lat="50.51122" lon="3.47856">
        <ele>21.563948</ele>
        <time>2021-07-22T15:47:12.835Z</time>
      </trkpt>
      <trkpt lat="50.51125" lon="3.47964">
        <ele>21.503826</ele>
        <time>2021-07-22T15:47:22.938Z</time>
      </trkpt>
      <trkpt lat="50.51129" lon="3.48001">
        <ele>21.482926</ele>
        <time>2021-07-22T15:47:26.363Z</time>
      </trkpt>
      <trkpt lat="50.51132" lon="3.48019">
        <ele>21.472633</ele>
        <time>2021-07-22T15:47:28.377Z</time>
      </trkpt>
      <trkpt lat="50.51138" lon="3.48111">
        <ele>21.463305</ele>
        <time>2021-07-22T15:47:37.175Z</time>
      </trkpt>
      <trkpt lat="50.51143" lon="3.48169">
        <ele>21.461208</ele>
        <time>2021-07-22T15:47:42.648Z</time>
      </trkpt>
      <trkpt lat="50.51135" lon="3.48237">
        <ele>21.458731</ele>
        <time>2021-07-22T15:47:49.093Z</time>
      </trkpt>
      <trkpt lat="50.5113" lon="3.48251">
        <ele>21.45818</ele>
        <time>2021-07-22T15:47:50.558Z</time>
      </trkpt>
      <trkpt lat="50.5112" lon="3.48278">
        <ele>21.457038</ele>
        <time>2021-07-22T15:47:53.340Z</time>
      </trkpt>
      <trkpt lat="50.511" lon="3.48334">
        <ele>21.574464</ele>
        <time>2021-07-22T15:47:59.520Z</time>
      </trkpt>
      <trkpt lat="50.51092" lon="3.48355">
        <ele>21.649321</ele>
        <time>2021-07-22T15:48:01.944Z</time>
      </trkpt>
      <trkpt lat="50.51087" lon="3.48377">
        <ele>21.724523</ele>
        <time>2021-07-22T15:48:04.331Z</time>
      </trkpt>
      <trkpt lat="50.51082" lon="3.4846">
        <ele>21.9884</ele>
        <time>2021-07-22T15:48:13.338Z</time>
      </trkpt>
      <trkpt lat="50.5108" lon="3.48506">
        <ele>22.134947</ele>
        <time>2021-07-22T15:48:18.473Z</time>
      </trkpt>
      <trkpt lat="50.51082" lon="3.48534">
        <ele>22.223459</ele>
        <time>2021-07-22T15:48:21.617Z</time>
      </trkpt>
      <trkpt lat="50.51086" lon="3.48593">
        <ele>22.424778</ele>
        <time>2021-07-22T15:48:28.518Z</time>
      </trkpt>
      <trkpt lat="50.51087" lon="3.48604">
        <ele>22.468778</ele>
        <time>2021-07-22T15:48:29.854Z</time>
      </trkpt>
      <trkpt lat="50.51084" lon="3.48625">
        <ele>22.553322</ele>
        <time>2021-07-22T15:48:32.564Z</time>
      </trkpt>
      <trkpt lat="50.51065" lon="3.48691">
        <ele>22.834413</ele>
        <time>2021-07-22T15:48:41.118Z</time>
      </trkpt>
      <trkpt lat="50.5108" lon="3.48708">
        <ele>22.944561</ele>
        <time>2021-07-22T15:48:44.365Z</time>
      </trkpt>
      <trkpt lat="50.51096" lon="3.4873">
        <ele>23.078228</ele>
        <time>2021-07-22T15:48:48.132Z</time>
      </trkpt>
      <trkpt lat="50.51113" lon="3.48814">
        <ele>23.421442</ele>
        <time>2021-07-22T15:48:57.610Z</time>
      </trkpt>
      <trkpt lat="50.51135" lon="3.4885">
        <ele>23.32529</ele>
        <time>2021-07-22T15:49:02.175Z</time>
      </trkpt>
      <trkpt lat="50.5114" lon="3.48867">
        <ele>23.26471</ele>
        <time>2021-07-22T15:49:04.058Z</time>
      </trkpt>
      <trkpt lat="50.51144" lon="3.48878">
        <ele>23.227036</ele>
        <time>2021-07-22T15:49:04.951Z</time>
      </trkpt>
      <trkpt lat="50.5114" lon="3.48908">
        <ele>23.132332</ele>
        <time>2021-07-22T15:49:07.883Z</time>
      </trkpt>
      <trkpt lat="50.51084" lon="3.49038">
        <ele>22.636408</ele>
        <time>2021-07-22T15:49:20.537Z</time>
      </trkpt>
      <trkpt lat="50.5104" lon="3.49284">
        <ele>21.527945</ele>
        <time>2021-07-22T15:49:40.719Z</time>
      </trkpt>
      <trkpt lat="50.51039" lon="3.49338">
        <ele>21.310726</ele>
        <time>2021-07-22T15:49:45.433Z</time>
      </trkpt>
      <trkpt lat="50.51048" lon="3.49357">
        <ele>21.362028</ele>
        <time>2021-07-22T15:49:47.561Z</time>
      </trkpt>
      <trkpt lat="50.51121" lon="3.49492">
        <ele>21.745856</ele>
        <time>2021-07-22T15:50:05.439Z</time>
      </trkpt>
      <trkpt lat="50.51187" lon="3.49526">
        <ele>22.086674</ele>
        <time>2021-07-22T15:50:18.495Z</time>
      </trkpt>
      <trkpt lat="50.51219" lon="3.4955">
        <ele>22.38477</ele>
        <time>2021-07-22T15:50:25.085Z</time>
      </trkpt>
      <trkpt lat="50.51269" lon="3.49574">
        <ele>22.832359</ele>
        <time>2021-07-22T15:50:34.853Z</time>
      </trkpt>
      <trkpt lat="50.51271" lon="3.4958">
        <ele>22.872223</ele>
        <time>2021-07-22T15:50:35.732Z</time>
      </trkpt>
      <trkpt lat="50.51281" lon="3.49649">
        <ele>23.257233</ele>
        <time>2021-07-22T15:50:43.826Z</time>
      </trkpt>
      <trkpt lat="50.51284" lon="3.49655">
        <ele>23.295479</ele>
        <time>2021-07-22T15:50:44.659Z</time>
      </trkpt>
      <trkpt lat="50.5129" lon="3.49667">
        <ele>23.384935</ele>
        <time>2021-07-22T15:50:46.548Z</time>
      </trkpt>
      <trkpt lat="50.51308" lon="3.49699">
        <ele>23.572558</ele>
        <time>2021-07-22T15:50:51.244Z</time>
      </trkpt>
      <trkpt lat="50.51322" lon="3.49739">
        <ele>23.755916</ele>
        <time>2021-07-22T15:50:56.323Z</time>
      </trkpt>
      <trkpt lat="50.51323" lon="3.49797">
        <ele>23.99125</ele>
        <time>2021-07-22T15:51:02.562Z</time>
      </trkpt>
      <trkpt lat="50.51322" lon="3.49943">
        <ele>24.583533</ele>
        <time>2021-07-22T15:51:18.568Z</time>
      </trkpt>
      <trkpt lat="50.51329" lon="3.49959">
        <ele>24.669479</ele>
        <time>2021-07-22T15:51:20.667Z</time>
      </trkpt>
      <trkpt lat="50.51349" lon="3.49997">
        <ele>24.907193</ele>
        <time>2021-07-22T15:51:26.500Z</time>
      </trkpt>
      <trkpt lat="50.51361" lon="3.50011">
        <ele>25.016675</ele>
        <time>2021-07-22T15:51:29.287Z</time>
      </trkpt>
      <trkpt lat="50.51365" lon="3.50016">
        <ele>25.056669</ele>
        <time>2021-07-22T15:51:30.284Z</time>
      </trkpt>
      <trkpt lat="50.51371" lon="3.5002">
        <ele>25.100908</ele>
        <time>2021-07-22T15:51:31.365Z</time>
      </trkpt>
      <trkpt lat="50.51374" lon="3.50022">
        <ele>25.128033</ele>
        <time>2021-07-22T15:51:32.000Z</time>
      </trkpt>
      <trkpt lat="50.51388" lon="3.50031">
        <ele>25.238287</ele>
        <time>2021-07-22T15:51:34.633Z</time>
      </trkpt>
      <trkpt lat="50.51394" lon="3.50042">
        <ele>25.30853</ele>
        <time>2021-07-22T15:51:36.470Z</time>
      </trkpt>
      <trkpt lat="50.51407" lon="3.50075">
        <ele>25.489439</ele>
        <time>2021-07-22T15:51:40.764Z</time>
      </trkpt>
      <trkpt lat="50.51417" lon="3.50101">
        <ele>25.63727</ele>
        <time>2021-07-22T15:51:44.449Z</time>
      </trkpt>
      <trkpt lat="50.51429" lon="3.50135">
        <ele>25.816063</ele>
        <time>2021-07-22T15:51:48.741Z</time>
      </trkpt>
      <trkpt lat="50.51429" lon="3.50165">
        <ele>25.936203</ele>
        <time>2021-07-22T15:51:51.999Z</time>
      </trkpt>
      <trkpt lat="50.51413" lon="3.50213">
        <ele>25.980237</ele>
        <time>2021-07-22T15:51:57.952Z</time>
      </trkpt>
      <trkpt lat="50.514" lon="3.50379">
        <ele>26.116752</ele>
        <time>2021-07-22T15:52:14.459Z</time>
      </trkpt>
      <trkpt lat="50.51383" lon="3.50594">
        <ele>25.596592</ele>
        <time>2021-07-22T15:52:32.685Z</time>
      </trkpt>
      <trkpt lat="50.51385" lon="3.50682">
        <ele>25.286751</ele>
        <time>2021-07-22T15:52:39.992Z</time>
      </trkpt>
      <trkpt lat="50.51382" lon="3.50734">
        <ele>25.092866</ele>
        <time>2021-07-22T15:52:44.314Z</time>
      </trkpt>
      <trkpt lat="50.5137" lon="3.50913">
        <ele>24.35945</ele>
        <time>2021-07-22T15:52:59.053Z</time>
      </trkpt>
      <trkpt lat="50.51347" lon="3.51036">
        <ele>23.855247</ele>
        <time>2021-07-22T15:53:09.637Z</time>
      </trkpt>
      <trkpt lat="50.51339" lon="3.51141">
        <ele>23.460896</ele>
        <time>2021-07-22T15:53:18.400Z</time>
      </trkpt>
      <trkpt lat="50.51326" lon="3.51213">
        <ele>23.184092</ele>
        <time>2021-07-22T15:53:24.531Z</time>
      </trkpt>
      <trkpt lat="50.51244" lon="3.51405">
        <ele>22.770467</ele>
        <time>2021-07-22T15:53:44.413Z</time>
      </trkpt>
      <trkpt lat="50.51239" lon="3.51418">
        <ele>22.752864</ele>
        <time>2021-07-22T15:53:45.842Z</time>
      </trkpt>
      <trkpt lat="50.51226" lon="3.51449">
        <ele>22.71217</ele>
        <time>2021-07-22T15:53:49.341Z</time>
      </trkpt>
      <trkpt lat="50.51214" lon="3.51479">
        <ele>22.67157</ele>
        <time>2021-07-22T15:53:52.856Z</time>
      </trkpt>
      <trkpt lat="50.51205" lon="3.51506">
        <ele>22.671852</ele>
        <time>2021-07-22T15:53:55.897Z</time>
      </trkpt>
      <trkpt lat="50.51201" lon="3.51522">
        <ele>22.728509</ele>
        <time>2021-07-22T15:53:57.683Z</time>
      </trkpt>
      <trkpt lat="50.51197" lon="3.51535">
        <ele>22.776831</ele>
        <time>2021-07-22T15:53:59.341Z</time>
      </trkpt>
      <trkpt lat="50.51135" lon="3.51641">
        <ele>23.244798</ele>
        <time>2021-07-22T15:54:14.614Z</time>
      </trkpt>
      <trkpt lat="50.51124" lon="3.5167">
        <ele>23.352947</ele>
        <time>2021-07-22T15:54:18.341Z</time>
      </trkpt>
      <trkpt lat="50.51114" lon="3.51704">
        <ele>23.478954</ele>
        <time>2021-07-22T15:54:22.692Z</time>
      </trkpt>
      <trkpt lat="50.51104" lon="3.51739">
        <ele>23.595493</ele>
        <time>2021-07-22T15:54:27.073Z</time>
      </trkpt>
      <trkpt lat="50.51094" lon="3.5177">
        <ele>23.674236</ele>
        <time>2021-07-22T15:54:30.738Z</time>
      </trkpt>
      <trkpt lat="50.51093" lon="3.51776">
        <ele>23.690178</ele>
        <time>2021-07-22T15:54:31.504Z</time>
      </trkpt>
      <trkpt lat="50.51092" lon="3.51783">
        <ele>23.706804</ele>
        <time>2021-07-22T15:54:32.307Z</time>
      </trkpt>
      <trkpt lat="50.5109" lon="3.518">
        <ele>23.746056</ele>
        <time>2021-07-22T15:54:34.218Z</time>
      </trkpt>
      <trkpt lat="50.51095" lon="3.51812">
        <ele>23.780383</ele>
        <time>2021-07-22T15:54:36.355Z</time>
      </trkpt>
      <trkpt lat="50.51097" lon="3.51815">
        <ele>23.792842</ele>
        <time>2021-07-22T15:54:37.089Z</time>
      </trkpt>
      <trkpt lat="50.51101" lon="3.5182">
        <ele>23.809023</ele>
        <time>2021-07-22T15:54:38.055Z</time>
      </trkpt>
      <trkpt lat="50.51125" lon="3.51846">
        <ele>23.917709</ele>
        <time>2021-07-22T15:54:44.583Z</time>
      </trkpt>
      <trkpt lat="50.51185" lon="3.51902">
        <ele>24.175293</ele>
        <time>2021-07-22T15:54:59.316Z</time>
      </trkpt>
      <trkpt lat="50.51228" lon="3.51935">
        <ele>24.229159</ele>
        <time>2021-07-22T15:55:08.842Z</time>
      </trkpt>
      <trkpt lat="50.51256" lon="3.51954">
        <ele>24.226378</ele>
        <time>2021-07-22T15:55:14.855Z</time>
      </trkpt>
      <trkpt lat="50.51298" lon="3.51973">
        <ele>24.222329</ele>
        <time>2021-07-22T15:55:23.760Z</time>
      </trkpt>
      <trkpt lat="50.51329" lon="3.51987">
        <ele>24.219379</ele>
        <time>2021-07-22T15:55:30.188Z</time>
      </trkpt>
      <trkpt lat="50.51345" lon="3.51994">
        <ele>24.217831</ele>
        <time>2021-07-22T15:55:33.452Z</time>
      </trkpt>
      <trkpt lat="50.51351" lon="3.51997">
        <ele>24.217269</ele>
        <time>2021-07-22T15:55:34.666Z</time>
      </trkpt>
      <trkpt lat="50.51355" lon="3.51998">
        <ele>24.216883</ele>
        <time>2021-07-22T15:55:35.510Z</time>
      </trkpt>
      <trkpt lat="50.51368" lon="3.51997">
        <ele>24.215717</ele>
        <time>2021-07-22T15:55:38.185Z</time>
      </trkpt>
      <trkpt lat="50.51408" lon="3.52001">
        <ele>24.354672</ele>
        <time>2021-07-22T15:55:46.434Z</time>
      </trkpt>
      <trkpt lat="50.51439" lon="3.52012">
        <ele>24.465734</ele>
        <time>2021-07-22T15:55:53.113Z</time>
      </trkpt>
      <trkpt lat="50.51497" lon="3.52047">
        <ele>24.688053</ele>
        <time>2021-07-22T15:56:06.774Z</time>
      </trkpt>
      <trkpt lat="50.51519" lon="3.5207">
        <ele>24.782009</ele>
        <time>2021-07-22T15:56:12.784Z</time>
      </trkpt>
      <trkpt lat="50.51521" lon="3.52073">
        <ele>24.793232</ele>
        <time>2021-07-22T15:56:13.599Z</time>
      </trkpt>
      <trkpt lat="50.51534" lon="3.52089">
        <ele>24.849764</ele>
        <time>2021-07-22T15:56:17.150Z</time>
      </trkpt>
      <trkpt lat="50.51559" lon="3.52125">
        <ele>25.040259</ele>
        <time>2021-07-22T15:56:24.882Z</time>
      </trkpt>
      <trkpt lat="50.51566" lon="3.52137">
        <ele>25.097995</ele>
        <time>2021-07-22T15:56:27.228Z</time>
      </trkpt>
      <trkpt lat="50.51584" lon="3.52161">
        <ele>25.236272</ele>
        <time>2021-07-22T15:56:32.696Z</time>
      </trkpt>
      <trkpt lat="50.51599" lon="3.52173">
        <ele>25.329483</ele>
        <time>2021-07-22T15:56:36.421Z</time>
      </trkpt>
      <trkpt lat="50.51827" lon="3.52368">
        <ele>26.708203</ele>
        <time>2021-07-22T15:57:34.350Z</time>
      </trkpt>
      <trkpt lat="50.51887" lon="3.52376">
        <ele>27.053808</ele>
        <time>2021-07-22T15:57:47.651Z</time>
      </trkpt>
      <trkpt lat="50.52072" lon="3.52374">
        <ele>28.119027</ele>
        <time>2021-07-22T15:58:29.702Z</time>
      </trkpt>
      <trkpt lat="50.5211" lon="3.52367">
        <ele>28.308358</ele>
        <time>2021-07-22T15:58:38.420Z</time>
      </trkpt>
      <trkpt lat="50.52137" lon="3.52361">
        <ele>28.441363</ele>
        <time>2021-07-22T15:58:44.496Z</time>
      </trkpt>
      <trkpt lat="50.52181" lon="3.52351">
        <ele>28.659704</ele>
        <time>2021-07-22T15:58:54.213Z</time>
      </trkpt>
      <trkpt lat="50.52187" lon="3.52349">
        <ele>28.693033</ele>
        <time>2021-07-22T15:58:55.702Z</time>
      </trkpt>
      <trkpt lat="50.52233" lon="3.52328">
        <ele>28.736007</ele>
        <time>2021-07-22T15:59:05.887Z</time>
      </trkpt>
      <trkpt lat="50.52289" lon="3.52275">
        <ele>28.668337</ele>
        <time>2021-07-22T15:59:18.980Z</time>
      </trkpt>
      <trkpt lat="50.52345" lon="3.52193">
        <ele>28.58898</ele>
        <time>2021-07-22T15:59:33.561Z</time>
      </trkpt>
      <trkpt lat="50.52377" lon="3.52146">
        <ele>28.654228</ele>
        <time>2021-07-22T15:59:41.744Z</time>
      </trkpt>
      <trkpt lat="50.5244" lon="3.52105">
        <ele>28.783332</ele>
        <time>2021-07-22T15:59:55.227Z</time>
      </trkpt>
      <trkpt lat="50.52446" lon="3.52098">
        <ele>28.79712</ele>
        <time>2021-07-22T15:59:56.534Z</time>
      </trkpt>
      <trkpt lat="50.52462" lon="3.52053">
        <ele>28.859665</ele>
        <time>2021-07-22T16:00:03.924Z</time>
      </trkpt>
      <trkpt lat="50.52504" lon="3.51934">
        <ele>29.877518</ele>
        <time>2021-07-22T16:00:25.043Z</time>
      </trkpt>
      <trkpt lat="50.52511" lon="3.51929">
        <ele>30.014225</ele>
        <time>2021-07-22T16:00:26.998Z</time>
      </trkpt>
      <trkpt lat="50.52518" lon="3.51928">
        <ele>30.13715</ele>
        <time>2021-07-22T16:00:29.076Z</time>
      </trkpt>
      <trkpt lat="50.52568" lon="3.51791">
        <ele>31.954229</ele>
        <time>2021-07-22T16:00:58.159Z</time>
      </trkpt>
      <trkpt lat="50.52616" lon="3.51671">
        <ele>33.709197</ele>
        <time>2021-07-22T16:01:25.821Z</time>
      </trkpt>
      <trkpt lat="50.52622" lon="3.51658">
        <ele>33.90276</ele>
        <time>2021-07-22T16:01:29.091Z</time>
      </trkpt>
      <trkpt lat="50.52659" lon="3.51582">
        <ele>35.100187</ele>
        <time>2021-07-22T16:01:45.884Z</time>
      </trkpt>
      <trkpt lat="50.52723" lon="3.51464">
        <ele>35.738736</ele>
        <time>2021-07-22T16:02:08.681Z</time>
      </trkpt>
      <trkpt lat="50.52729" lon="3.51449">
        <ele>35.745325</ele>
        <time>2021-07-22T16:02:10.957Z</time>
      </trkpt>
      <trkpt lat="50.52774" lon="3.51363">
        <ele>35.787272</ele>
        <time>2021-07-22T16:02:24.127Z</time>
      </trkpt>
      <trkpt lat="50.52814" lon="3.51288">
        <ele>35.856854</ele>
        <time>2021-07-22T16:02:35.561Z</time>
      </trkpt>
      <trkpt lat="50.5282" lon="3.51277">
        <ele>35.871562</ele>
        <time>2021-07-22T16:02:37.294Z</time>
      </trkpt>
      <trkpt lat="50.52946" lon="3.51037">
        <ele>36.860109</ele>
        <time>2021-07-22T16:03:20.720Z</time>
      </trkpt>
      <trkpt lat="50.52991" lon="3.50936">
        <ele>37.856702</ele>
        <time>2021-07-22T16:03:41.894Z</time>
      </trkpt>
      <trkpt lat="50.53029" lon="3.50839">
        <ele>38.830024</ele>
        <time>2021-07-22T16:04:01.512Z</time>
      </trkpt>
      <trkpt lat="50.53056" lon="3.50769">
        <ele>39.585878</ele>
        <time>2021-07-22T16:04:15.588Z</time>
      </trkpt>
      <trkpt lat="50.53135" lon="3.50544">
        <ele>41.708173</ele>
        <time>2021-07-22T16:04:56.786Z</time>
      </trkpt>
      <trkpt lat="50.53182" lon="3.50392">
        <ele>42.886985</ele>
        <time>2021-07-22T16:05:23.031Z</time>
      </trkpt>
      <trkpt lat="50.53216" lon="3.50259">
        <ele>43.596568</ele>
        <time>2021-07-22T16:05:44.880Z</time>
      </trkpt>
      <trkpt lat="50.53268" lon="3.50011">
        <ele>44.5925</ele>
        <time>2021-07-22T16:06:22.123Z</time>
      </trkpt>
      <trkpt lat="50.53317" lon="3.49703">
        <ele>45.235579</ele>
        <time>2021-07-22T16:07:05.501Z</time>
      </trkpt>
      <trkpt lat="50.53397" lon="3.49205">
        <ele>45.585216</ele>
        <time>2021-07-22T16:08:13.744Z</time>
      </trkpt>
      <trkpt lat="50.53458" lon="3.48827">
        <ele>44.401227</ele>
        <time>2021-07-22T16:09:00.972Z</time>
      </trkpt>
      <trkpt lat="50.53517" lon="3.48459">
        <ele>41.116032</ele>
        <time>2021-07-22T16:09:40.266Z</time>
      </trkpt>
      <trkpt lat="50.5358" lon="3.48041">
        <ele>38.076343</ele>
        <time>2021-07-22T16:10:26.977Z</time>
      </trkpt>
      <trkpt lat="50.53688" lon="3.47372">
        <ele>35.210065</ele>
        <time>2021-07-22T16:11:47.882Z</time>
      </trkpt>
      <trkpt lat="50.53711" lon="3.4723">
        <ele>34.242123</ele>
        <time>2021-07-22T16:12:03.538Z</time>
      </trkpt>
      <trkpt lat="50.53728" lon="3.47123">
        <ele>33.520562</ele>
        <time>2021-07-22T16:12:15.789Z</time>
      </trkpt>
      <trkpt lat="50.53766" lon="3.47139">
        <ele>33.241743</ele>
        <time>2021-07-22T16:12:22.875Z</time>
      </trkpt>
      <trkpt lat="50.53839" lon="3.47164">
        <ele>32.861461</ele>
        <time>2021-07-22T16:12:36.203Z</time>
      </trkpt>
      <trkpt lat="50.53848" lon="3.47166">
        <ele>32.818096</ele>
        <time>2021-07-22T16:12:37.762Z</time>
      </trkpt>
      <trkpt lat="50.53851" lon="3.47168">
        <ele>32.801887</ele>
        <time>2021-07-22T16:12:38.342Z</time>
      </trkpt>
      <trkpt lat="50.53858" lon="3.47171">
        <ele>32.760854</ele>
        <time>2021-07-22T16:12:39.831Z</time>
      </trkpt>
      <trkpt lat="50.53864" lon="3.47173">
        <ele>32.734045</ele>
        <time>2021-07-22T16:12:40.798Z</time>
      </trkpt>
      <trkpt lat="50.53855" lon="3.47226">
        <ele>32.556783</ele>
        <time>2021-07-22T16:12:47.264Z</time>
      </trkpt>
      <trkpt lat="50.53829" lon="3.47394">
        <ele>32.558449</ele>
        <time>2021-07-22T16:13:10.991Z</time>
      </trkpt>
      <trkpt lat="50.5382" lon="3.47447">
        <ele>32.600926</ele>
        <time>2021-07-22T16:13:17.839Z</time>
      </trkpt>
      <trkpt lat="50.53814" lon="3.47461">
        <ele>32.614779</ele>
        <time>2021-07-22T16:13:20.048Z</time>
      </trkpt>
      <trkpt lat="50.53752" lon="3.47519">
        <ele>32.789625</ele>
        <time>2021-07-22T16:13:34.920Z</time>
      </trkpt>
      <trkpt lat="50.53744" lon="3.47535">
        <ele>32.847176</ele>
        <time>2021-07-22T16:13:37.795Z</time>
      </trkpt>
      <trkpt lat="50.5365" lon="3.48115">
        <ele>35.040519</ele>
        <time>2021-07-22T16:15:03.365Z</time>
      </trkpt>
      <trkpt lat="50.53617" lon="3.48318">
        <ele>36.255478</ele>
        <time>2021-07-22T16:15:36.090Z</time>
      </trkpt>
      <trkpt lat="50.53617" lon="3.4832">
        <ele>36.269616</ele>
        <time>2021-07-22T16:15:36.526Z</time>
      </trkpt>
      <trkpt lat="50.53608" lon="3.48375">
        <ele>36.570295</ele>
        <time>2021-07-22T16:15:45.652Z</time>
      </trkpt>
      <trkpt lat="50.53606" lon="3.48384">
        <ele>36.61978</ele>
        <time>2021-07-22T16:15:47.215Z</time>
      </trkpt>
      <trkpt lat="50.53596" lon="3.48451">
        <ele>36.985307</ele>
        <time>2021-07-22T16:15:58.157Z</time>
      </trkpt>
      <trkpt lat="50.53595" lon="3.48457">
        <ele>37.014302</ele>
        <time>2021-07-22T16:15:59.030Z</time>
      </trkpt>
      <trkpt lat="50.53445" lon="3.4938">
        <ele>39.506323</ele>
        <time>2021-07-22T16:18:09.782Z</time>
      </trkpt>
      <trkpt lat="50.53409" lon="3.49607">
        <ele>41.185184</ele>
        <time>2021-07-22T16:18:44.582Z</time>
      </trkpt>
      <trkpt lat="50.53432" lon="3.49985">
        <ele>46.630463</ele>
        <time>2021-07-22T16:19:58.175Z</time>
      </trkpt>
      <trkpt lat="50.53443" lon="3.49977">
        <ele>46.870781</ele>
        <time>2021-07-22T16:20:02.719Z</time>
      </trkpt>
      <trkpt lat="50.53509" lon="3.49911">
        <ele>48.41738</ele>
        <time>2021-07-22T16:20:26.028Z</time>
      </trkpt>
      <trkpt lat="50.53604" lon="3.49817">
        <ele>49.65703</ele>
        <time>2021-07-22T16:20:54.232Z</time>
      </trkpt>
      <trkpt lat="50.53667" lon="3.49756">
        <ele>49.459523</ele>
        <time>2021-07-22T16:21:07.739Z</time>
      </trkpt>
      <trkpt lat="50.53983" lon="3.4944">
        <ele>45.786882</ele>
        <time>2021-07-22T16:22:12.023Z</time>
      </trkpt>
      <trkpt lat="50.54017" lon="3.49414">
        <ele>45.357441</ele>
        <time>2021-07-22T16:22:18.452Z</time>
      </trkpt>
      <trkpt lat="50.54079" lon="3.49375">
        <ele>44.483961</ele>
        <time>2021-07-22T16:22:29.673Z</time>
      </trkpt>
      <trkpt lat="50.54114" lon="3.49351">
        <ele>43.969709</ele>
        <time>2021-07-22T16:22:36.028Z</time>
      </trkpt>
      <trkpt lat="50.54144" lon="3.49347">
        <ele>43.562234</ele>
        <time>2021-07-22T16:22:41.081Z</time>
      </trkpt>
      <trkpt lat="50.5425" lon="3.49374">
        <ele>42.096826</ele>
        <time>2021-07-22T16:22:58.919Z</time>
      </trkpt>
      <trkpt lat="50.5426" lon="3.49372">
        <ele>41.956206</ele>
        <time>2021-07-22T16:23:00.458Z</time>
      </trkpt>
      <trkpt lat="50.5433" lon="3.49316">
        <ele>40.875789</ele>
        <time>2021-07-22T16:23:13.656Z</time>
      </trkpt>
      <trkpt lat="50.5435" lon="3.49309">
        <ele>40.597087</ele>
        <time>2021-07-22T16:23:17.300Z</time>
      </trkpt>
      <trkpt lat="50.54367" lon="3.49307">
        <ele>40.352503</ele>
        <time>2021-07-22T16:23:20.108Z</time>
      </trkpt>
      <trkpt lat="50.54379" lon="3.49311">
        <ele>40.183651</ele>
        <time>2021-07-22T16:23:22.222Z</time>
      </trkpt>
      <trkpt lat="50.54388" lon="3.49319">
        <ele>40.035867</ele>
        <time>2021-07-22T16:23:23.891Z</time>
      </trkpt>
      <trkpt lat="50.54396" lon="3.49328">
        <ele>39.889809</ele>
        <time>2021-07-22T16:23:25.440Z</time>
      </trkpt>
      <trkpt lat="50.54395" lon="3.49304">
        <ele>39.666006</ele>
        <time>2021-07-22T16:23:28.181Z</time>
      </trkpt>
      <trkpt lat="50.54378" lon="3.49193">
        <ele>38.611259</ele>
        <time>2021-07-22T16:23:40.297Z</time>
      </trkpt>
      <trkpt lat="50.54394" lon="3.49174">
        <ele>38.314292</ele>
        <time>2021-07-22T16:23:43.544Z</time>
      </trkpt>
      <trkpt lat="50.54422" lon="3.49139">
        <ele>37.802242</ele>
        <time>2021-07-22T16:23:49.381Z</time>
      </trkpt>
      <trkpt lat="50.54521" lon="3.49016">
        <ele>35.89646</ele>
        <time>2021-07-22T16:24:10.169Z</time>
      </trkpt>
      <trkpt lat="50.5465" lon="3.48794">
        <ele>32.953383</ele>
        <time>2021-07-22T16:24:41.676Z</time>
      </trkpt>
      <trkpt lat="50.54677" lon="3.48748">
        <ele>32.336099</ele>
        <time>2021-07-22T16:24:48.151Z</time>
      </trkpt>
      <trkpt lat="50.54728" lon="3.48695">
        <ele>31.491915</ele>
        <time>2021-07-22T16:24:58.236Z</time>
      </trkpt>
      <trkpt lat="50.54733" lon="3.48698">
        <ele>31.42365</ele>
        <time>2021-07-22T16:24:59.002Z</time>
      </trkpt>
      <trkpt lat="50.54744" lon="3.48679">
        <ele>31.198877</ele>
        <time>2021-07-22T16:25:00.865Z</time>
      </trkpt>
      <trkpt lat="50.54798" lon="3.48614">
        <ele>30.276626</ele>
        <time>2021-07-22T16:25:08.708Z</time>
      </trkpt>
      <trkpt lat="50.54878" lon="3.48442">
        <ele>28.982058</ele>
        <time>2021-07-22T16:25:25.448Z</time>
      </trkpt>
      <trkpt lat="50.54886" lon="3.48424">
        <ele>28.864662</ele>
        <time>2021-07-22T16:25:27.327Z</time>
      </trkpt>
      <trkpt lat="50.54908" lon="3.48378">
        <ele>28.571177</ele>
        <time>2021-07-22T16:25:32.069Z</time>
      </trkpt>
      <trkpt lat="50.54939" lon="3.48313">
        <ele>28.232334</ele>
        <time>2021-07-22T16:25:38.770Z</time>
      </trkpt>
      <trkpt lat="50.54948" lon="3.48295">
        <ele>28.162769</ele>
        <time>2021-07-22T16:25:40.719Z</time>
      </trkpt>
      <trkpt lat="50.5498" lon="3.48244">
        <ele>27.951209</ele>
        <time>2021-07-22T16:25:46.753Z</time>
      </trkpt>
      <trkpt lat="50.55018" lon="3.48198">
        <ele>27.727375</ele>
        <time>2021-07-22T16:25:53.215Z</time>
      </trkpt>
      <trkpt lat="50.55087" lon="3.48136">
        <ele>27.446663</ele>
        <time>2021-07-22T16:26:04.101Z</time>
      </trkpt>
      <trkpt lat="50.55171" lon="3.48061">
        <ele>27.287399</ele>
        <time>2021-07-22T16:26:17.653Z</time>
      </trkpt>
      <trkpt lat="50.5518" lon="3.48053">
        <ele>27.269587</ele>
        <time>2021-07-22T16:26:19.231Z</time>
      </trkpt>
      <trkpt lat="50.55188" lon="3.48046">
        <ele>27.25397</ele>
        <time>2021-07-22T16:26:20.570Z</time>
      </trkpt>
      <trkpt lat="50.55197" lon="3.48034">
        <ele>27.234952</ele>
        <time>2021-07-22T16:26:22.200Z</time>
      </trkpt>
      <trkpt lat="50.55201" lon="3.48028">
        <ele>27.225312</ele>
        <time>2021-07-22T16:26:23.047Z</time>
      </trkpt>
      <trkpt lat="50.55205" lon="3.4802">
        <ele>27.215109</ele>
        <time>2021-07-22T16:26:23.957Z</time>
      </trkpt>
      <trkpt lat="50.5521" lon="3.48008">
        <ele>27.200211</ele>
        <time>2021-07-22T16:26:25.265Z</time>
      </trkpt>
      <trkpt lat="50.55209" lon="3.47983">
        <ele>27.335403</ele>
        <time>2021-07-22T16:26:27.572Z</time>
      </trkpt>
      <trkpt lat="50.55206" lon="3.47937">
        <ele>27.612714</ele>
        <time>2021-07-22T16:26:32.221Z</time>
      </trkpt>
      <trkpt lat="50.55207" lon="3.47918">
        <ele>27.725846</ele>
        <time>2021-07-22T16:26:34.160Z</time>
      </trkpt>
      <trkpt lat="50.55212" lon="3.47892">
        <ele>27.891564</ele>
        <time>2021-07-22T16:26:37.282Z</time>
      </trkpt>
      <trkpt lat="50.55231" lon="3.47809">
        <ele>28.422621</ele>
        <time>2021-07-22T16:26:47.914Z</time>
      </trkpt>
      <trkpt lat="50.55242" lon="3.47753">
        <ele>28.775147</ele>
        <time>2021-07-22T16:26:55.751Z</time>
      </trkpt>
      <trkpt lat="50.55242" lon="3.47753">
        <ele>28.775147</ele>
        <time>2021-07-22T16:26:55.773Z</time>
      </trkpt>
      <trkpt lat="50.55304" lon="3.47635">
        <ele>30.787333</ele>
        <time>2021-07-22T16:27:18.690Z</time>
      </trkpt>
      <trkpt lat="50.55337" lon="3.47594">
        <ele>31.728232</ele>
        <time>2021-07-22T16:27:29.343Z</time>
      </trkpt>
      <trkpt lat="50.55428" lon="3.47519">
        <ele>33.365439</ele>
        <time>2021-07-22T16:27:54.401Z</time>
      </trkpt>
      <trkpt lat="50.55454" lon="3.47487">
        <ele>33.645223</ele>
        <time>2021-07-22T16:28:01.151Z</time>
      </trkpt>
      <trkpt lat="50.55475" lon="3.4744">
        <ele>33.954406</ele>
        <time>2021-07-22T16:28:08.014Z</time>
      </trkpt>
      <trkpt lat="50.55526" lon="3.47232">
        <ele>32.906573</ele>
        <time>2021-07-22T16:28:25.981Z</time>
      </trkpt>
      <trkpt lat="50.55558" lon="3.46948">
        <ele>29.049977</ele>
        <time>2021-07-22T16:28:44.897Z</time>
      </trkpt>
      <trkpt lat="50.55575" lon="3.46895">
        <ele>28.189529</ele>
        <time>2021-07-22T16:28:48.852Z</time>
      </trkpt>
      <trkpt lat="50.55583" lon="3.46868">
        <ele>27.75009</ele>
        <time>2021-07-22T16:28:50.953Z</time>
      </trkpt>
      <trkpt lat="50.55482" lon="3.46778">
        <ele>27.046379</ele>
        <time>2021-07-22T16:29:10.977Z</time>
      </trkpt>
      <trkpt lat="50.55482" lon="3.46731">
        <ele>27.124516</ele>
        <time>2021-07-22T16:29:17.783Z</time>
      </trkpt>
      <trkpt lat="50.5548" lon="3.46676">
        <ele>27.21402</ele>
        <time>2021-07-22T16:29:26.497Z</time>
      </trkpt>
      <trkpt lat="50.55451" lon="3.4653">
        <ele>28.514142</ele>
        <time>2021-07-22T16:29:53.746Z</time>
      </trkpt>
      <trkpt lat="50.55445" lon="3.46503">
        <ele>28.881762</ele>
        <time>2021-07-22T16:29:59.328Z</time>
      </trkpt>
      <trkpt lat="50.55446" lon="3.46356">
        <ele>30.773088</ele>
        <time>2021-07-22T16:30:26.739Z</time>
      </trkpt>
      <trkpt lat="50.55434" lon="3.46225">
        <ele>31.323637</ele>
        <time>2021-07-22T16:30:48.813Z</time>
      </trkpt>
      <trkpt lat="50.55433" lon="3.46161">
        <ele>31.525922</ele>
        <time>2021-07-22T16:30:57.816Z</time>
      </trkpt>
      <trkpt lat="50.55429" lon="3.46149">
        <ele>31.567586</ele>
        <time>2021-07-22T16:30:59.544Z</time>
      </trkpt>
      <trkpt lat="50.55304" lon="3.45989">
        <ele>30.643902</ele>
        <time>2021-07-22T16:31:27.703Z</time>
      </trkpt>
      <trkpt lat="50.55362" lon="3.45894">
        <ele>29.665606</ele>
        <time>2021-07-22T16:31:41.430Z</time>
      </trkpt>
      <trkpt lat="50.55459" lon="3.45721">
        <ele>27.379173</ele>
        <time>2021-07-22T16:32:05.524Z</time>
      </trkpt>
      <trkpt lat="50.55497" lon="3.45653">
        <ele>26.438702</ele>
        <time>2021-07-22T16:32:15.037Z</time>
      </trkpt>
      <trkpt lat="50.55516" lon="3.45623">
        <ele>25.989713</ele>
        <time>2021-07-22T16:32:19.385Z</time>
      </trkpt>
      <trkpt lat="50.55512" lon="3.45607">
        <ele>25.803064</ele>
        <time>2021-07-22T16:32:20.606Z</time>
      </trkpt>
      <trkpt lat="50.55515" lon="3.45595">
        <ele>25.659443</ele>
        <time>2021-07-22T16:32:21.507Z</time>
      </trkpt>
      <trkpt lat="50.5554" lon="3.45501">
        <ele>24.565628</ele>
        <time>2021-07-22T16:32:28.809Z</time>
      </trkpt>
      <trkpt lat="50.55577" lon="3.45431">
        <ele>23.646298</ele>
        <time>2021-07-22T16:32:35.494Z</time>
      </trkpt>
      <trkpt lat="50.55582" lon="3.45412">
        <ele>23.466766</ele>
        <time>2021-07-22T16:32:36.932Z</time>
      </trkpt>
      <trkpt lat="50.55586" lon="3.45407">
        <ele>23.393601</ele>
        <time>2021-07-22T16:32:37.704Z</time>
      </trkpt>
      <trkpt lat="50.55656" lon="3.45288">
        <ele>21.913661</ele>
        <time>2021-07-22T16:32:55.048Z</time>
      </trkpt>
      <trkpt lat="50.55685" lon="3.45267">
        <ele>21.464926</ele>
        <time>2021-07-22T16:33:00.284Z</time>
      </trkpt>
      <trkpt lat="50.55688" lon="3.45258">
        <ele>21.367811</ele>
        <time>2021-07-22T16:33:01.359Z</time>
      </trkpt>
      <trkpt lat="50.55693" lon="3.45239">
        <ele>21.211087</ele>
        <time>2021-07-22T16:33:03.541Z</time>
      </trkpt>
      <trkpt lat="50.55693" lon="3.45231">
        <ele>21.145678</ele>
        <time>2021-07-22T16:33:04.451Z</time>
      </trkpt>
      <trkpt lat="50.55689" lon="3.45212">
        <ele>20.984791</ele>
        <time>2021-07-22T16:33:06.568Z</time>
      </trkpt>
      <trkpt lat="50.55662" lon="3.45117">
        <ele>20.150696</ele>
        <time>2021-07-22T16:33:17.801Z</time>
      </trkpt>
      <trkpt lat="50.55642" lon="3.45072">
        <ele>19.71877</ele>
        <time>2021-07-22T16:33:23.615Z</time>
      </trkpt>
      <trkpt lat="50.55635" lon="3.45062">
        <ele>19.602591</ele>
        <time>2021-07-22T16:33:25.096Z</time>
      </trkpt>
      <trkpt lat="50.5563" lon="3.45054">
        <ele>19.512653</ele>
        <time>2021-07-22T16:33:26.284Z</time>
      </trkpt>
      <trkpt lat="50.55612" lon="3.45022">
        <ele>19.170622</ele>
        <time>2021-07-22T16:33:30.989Z</time>
      </trkpt>
      <trkpt lat="50.55595" lon="3.44978">
        <ele>18.922502</ele>
        <time>2021-07-22T16:33:36.779Z</time>
      </trkpt>
      <trkpt lat="50.55595" lon="3.44978">
        <ele>18.922502</ele>
        <time>2021-07-22T16:33:36.819Z</time>
      </trkpt>
      <trkpt lat="50.55595" lon="3.44978">
        <ele>18.922502</ele>
        <time>2021-07-22T16:33:36.824Z</time>
      </trkpt>
      <trkpt lat="50.55585" lon="3.44952">
        <ele>18.781171</ele>
        <time>2021-07-22T16:33:40.230Z</time>
      </trkpt>
      <trkpt lat="50.55554" lon="3.44863">
        <ele>18.31693</ele>
        <time>2021-07-22T16:33:51.572Z</time>
      </trkpt>
      <trkpt lat="50.55476" lon="3.44709">
        <ele>17.598732</ele>
        <time>2021-07-22T16:34:15.207Z</time>
      </trkpt>
      <trkpt lat="50.55471" lon="3.44699">
        <ele>17.563799</ele>
        <time>2021-07-22T16:34:16.842Z</time>
      </trkpt>
      <trkpt lat="50.55451" lon="3.44664">
        <ele>17.443551</ele>
        <time>2021-07-22T16:34:22.620Z</time>
      </trkpt>
      <trkpt lat="50.5542" lon="3.44707">
        <ele>17.27752</ele>
        <time>2021-07-22T16:34:30.479Z</time>
      </trkpt>
      <trkpt lat="50.55417" lon="3.4471">
        <ele>17.265097</ele>
        <time>2021-07-22T16:34:31.090Z</time>
      </trkpt>
      <trkpt lat="50.55379" lon="3.44768">
        <ele>17.019794</ele>
        <time>2021-07-22T16:34:41.148Z</time>
      </trkpt>
      <trkpt lat="50.55327" lon="3.44846">
        <ele>16.59574</ele>
        <time>2021-07-22T16:34:54.187Z</time>
      </trkpt>
      <trkpt lat="50.55288" lon="3.4478">
        <ele>16.260454</ele>
        <time>2021-07-22T16:35:01.502Z</time>
      </trkpt>
      <trkpt lat="50.5526" lon="3.44732">
        <ele>16.026886</ele>
        <time>2021-07-22T16:35:06.947Z</time>
      </trkpt>
      <trkpt lat="50.55245" lon="3.44699">
        <ele>15.939414</ele>
        <time>2021-07-22T16:35:10.227Z</time>
      </trkpt>
      <trkpt lat="50.5523" lon="3.44663">
        <ele>15.846241</ele>
        <time>2021-07-22T16:35:13.800Z</time>
      </trkpt>
      <trkpt lat="50.55221" lon="3.44646">
        <ele>15.798228</ele>
        <time>2021-07-22T16:35:15.681Z</time>
      </trkpt>
      <trkpt lat="50.55167" lon="3.44601">
        <ele>15.589975</ele>
        <time>2021-07-22T16:35:24.026Z</time>
      </trkpt>
      <trkpt lat="50.55154" lon="3.44578">
        <ele>15.521809</ele>
        <time>2021-07-22T16:35:26.955Z</time>
      </trkpt>
      <trkpt lat="50.55133" lon="3.445">
        <ele>15.477183</ele>
        <time>2021-07-22T16:35:34.848Z</time>
      </trkpt>
      <trkpt lat="50.55129" lon="3.44486">
        <ele>15.493811</ele>
        <time>2021-07-22T16:35:36.479Z</time>
      </trkpt>
      <trkpt lat="50.55078" lon="3.44503">
        <ele>15.579151</ele>
        <time>2021-07-22T16:35:47.382Z</time>
      </trkpt>
      <trkpt lat="50.54923" lon="3.44548">
        <ele>15.873418</ele>
        <time>2021-07-22T16:36:20.567Z</time>
      </trkpt>
      <trkpt lat="50.54801" lon="3.44573">
        <ele>16.171433</ele>
        <time>2021-07-22T16:36:46.443Z</time>
      </trkpt>
      <trkpt lat="50.54779" lon="3.44587">
        <ele>16.302223</ele>
        <time>2021-07-22T16:36:51.490Z</time>
      </trkpt>
      <trkpt lat="50.5477" lon="3.44596">
        <ele>16.358952</ele>
        <time>2021-07-22T16:36:53.817Z</time>
      </trkpt>
      <trkpt lat="50.54688" lon="3.44685">
        <ele>16.901286</ele>
        <time>2021-07-22T16:37:16.515Z</time>
      </trkpt>
      <trkpt lat="50.54608" lon="3.44756">
        <ele>17.432874</ele>
        <time>2021-07-22T16:37:37.952Z</time>
      </trkpt>
      <trkpt lat="50.54591" lon="3.44759">
        <ele>17.533055</ele>
        <time>2021-07-22T16:37:42.102Z</time>
      </trkpt>
      <trkpt lat="50.54535" lon="3.44673">
        <ele>18.006231</ele>
        <time>2021-07-22T16:37:55.942Z</time>
      </trkpt>
      <trkpt lat="50.54458" lon="3.44595">
        <ele>17.846661</ele>
        <time>2021-07-22T16:38:09.207Z</time>
      </trkpt>
      <trkpt lat="50.54444" lon="3.44586">
        <ele>17.768629</ele>
        <time>2021-07-22T16:38:11.306Z</time>
      </trkpt>
      <trkpt lat="50.54433" lon="3.44583">
        <ele>17.704829</ele>
        <time>2021-07-22T16:38:12.843Z</time>
      </trkpt>
      <trkpt lat="50.54423" lon="3.4458">
        <ele>17.651832</ele>
        <time>2021-07-22T16:38:14.097Z</time>
      </trkpt>
      <trkpt lat="50.54414" lon="3.4458">
        <ele>17.605601</ele>
        <time>2021-07-22T16:38:15.284Z</time>
      </trkpt>
      <trkpt lat="50.54403" lon="3.4458">
        <ele>17.548912</ele>
        <time>2021-07-22T16:38:16.684Z</time>
      </trkpt>
      <trkpt lat="50.54389" lon="3.44586">
        <ele>17.475373</ele>
        <time>2021-07-22T16:38:18.313Z</time>
      </trkpt>
      <trkpt lat="50.54333" lon="3.44658">
        <ele>17.202005</ele>
        <time>2021-07-22T16:38:27.180Z</time>
      </trkpt>
      <trkpt lat="50.54288" lon="3.44721">
        <ele>17.135225</ele>
        <time>2021-07-22T16:38:34.891Z</time>
      </trkpt>
      <trkpt lat="50.5428" lon="3.44728">
        <ele>17.125027</ele>
        <time>2021-07-22T16:38:36.087Z</time>
      </trkpt>
      <trkpt lat="50.54262" lon="3.44741">
        <ele>17.102566</ele>
        <time>2021-07-22T16:38:39.457Z</time>
      </trkpt>
      <trkpt lat="50.54249" lon="3.44741">
        <ele>17.088055</ele>
        <time>2021-07-22T16:38:41.497Z</time>
      </trkpt>
      <trkpt lat="50.54222" lon="3.44731">
        <ele>17.057251</ele>
        <time>2021-07-22T16:38:46.354Z</time>
      </trkpt>
      <trkpt lat="50.54192" lon="3.4472">
        <ele>17.102659</ele>
        <time>2021-07-22T16:38:51.953Z</time>
      </trkpt>
      <trkpt lat="50.54179" lon="3.44715">
        <ele>17.238224</ele>
        <time>2021-07-22T16:38:54.194Z</time>
      </trkpt>
      <trkpt lat="50.5417" lon="3.44711">
        <ele>17.333967</ele>
        <time>2021-07-22T16:38:55.888Z</time>
      </trkpt>
      <trkpt lat="50.5416" lon="3.44707">
        <ele>17.433777</ele>
        <time>2021-07-22T16:38:57.990Z</time>
      </trkpt>
      <trkpt lat="50.54141" lon="3.447">
        <ele>17.631924</ele>
        <time>2021-07-22T16:39:01.610Z</time>
      </trkpt>
      <trkpt lat="50.54138" lon="3.44698">
        <ele>17.665246</ele>
        <time>2021-07-22T16:39:02.270Z</time>
      </trkpt>
      <trkpt lat="50.54123" lon="3.44691">
        <ele>17.81895</ele>
        <time>2021-07-22T16:39:05.487Z</time>
      </trkpt>
      <trkpt lat="50.54118" lon="3.44689">
        <ele>17.869015</ele>
        <time>2021-07-22T16:39:06.350Z</time>
      </trkpt>
      <trkpt lat="50.54114" lon="3.44687">
        <ele>17.917943</ele>
        <time>2021-07-22T16:39:07.302Z</time>
      </trkpt>
      <trkpt lat="50.54121" lon="3.44647">
        <ele>18.183529</ele>
        <time>2021-07-22T16:39:12.737Z</time>
      </trkpt>
      <trkpt lat="50.54136" lon="3.44557">
        <ele>18.786079</ele>
        <time>2021-07-22T16:39:24.454Z</time>
      </trkpt>
      <trkpt lat="50.54142" lon="3.44503">
        <ele>18.753895</ele>
        <time>2021-07-22T16:39:30.848Z</time>
      </trkpt>
      <trkpt lat="50.54174" lon="3.44314">
        <ele>18.359046</ele>
        <time>2021-07-22T16:39:47.578Z</time>
      </trkpt>
      <trkpt lat="50.54177" lon="3.44294">
        <ele>18.318936</ele>
        <time>2021-07-22T16:39:49.120Z</time>
      </trkpt>
      <trkpt lat="50.54225" lon="3.43987">
        <ele>16.055267</ele>
        <time>2021-07-22T16:40:12.659Z</time>
      </trkpt>
      <trkpt lat="50.54286" lon="3.43627">
        <ele>15.133486</ele>
        <time>2021-07-22T16:40:44.670Z</time>
      </trkpt>
      <trkpt lat="50.54302" lon="3.43522">
        <ele>15.11551</ele>
        <time>2021-07-22T16:40:54.921Z</time>
      </trkpt>
      <trkpt lat="50.54304" lon="3.43511">
        <ele>15.113523</ele>
        <time>2021-07-22T16:40:56.123Z</time>
      </trkpt>
      <trkpt lat="50.54354" lon="3.43196">
        <ele>15.995827</ele>
        <time>2021-07-22T16:41:30.345Z</time>
      </trkpt>
      <trkpt lat="50.54374" lon="3.43074">
        <ele>16.950982</ele>
        <time>2021-07-22T16:41:46.001Z</time>
      </trkpt>
      <trkpt lat="50.54376" lon="3.4306">
        <ele>17.066424</ele>
        <time>2021-07-22T16:41:47.886Z</time>
      </trkpt>
      <trkpt lat="50.54379" lon="3.43061">
        <ele>17.10873</ele>
        <time>2021-07-22T16:41:48.461Z</time>
      </trkpt>
      <trkpt lat="50.54382" lon="3.43059">
        <ele>17.144728</ele>
        <time>2021-07-22T16:41:48.941Z</time>
      </trkpt>
      <trkpt lat="50.54383" lon="3.43058">
        <ele>17.160856</ele>
        <time>2021-07-22T16:41:49.155Z</time>
      </trkpt>
      <trkpt lat="50.54384" lon="3.43056">
        <ele>17.181441</ele>
        <time>2021-07-22T16:41:49.454Z</time>
      </trkpt>
      <trkpt lat="50.54384" lon="3.43054">
        <ele>17.19921</ele>
        <time>2021-07-22T16:41:49.711Z</time>
      </trkpt>
      <trkpt lat="50.54385" lon="3.4305">
        <ele>17.234061</ele>
        <time>2021-07-22T16:41:50.189Z</time>
      </trkpt>
      <trkpt lat="50.54385" lon="3.4305">
        <ele>17.237713</ele>
        <time>2021-07-22T16:41:50.267Z</time>
      </trkpt>
      <trkpt lat="50.54385" lon="3.43045">
        <ele>17.2799</ele>
        <time>2021-07-22T16:41:50.912Z</time>
      </trkpt>
      <trkpt lat="50.5438" lon="3.43038">
        <ele>17.362366</ele>
        <time>2021-07-22T16:41:52.155Z</time>
      </trkpt>
      <trkpt lat="50.54379" lon="3.43038">
        <ele>17.372974</ele>
        <time>2021-07-22T16:41:52.367Z</time>
      </trkpt>
      <trkpt lat="50.54381" lon="3.43027">
        <ele>17.465949</ele>
        <time>2021-07-22T16:41:54.185Z</time>
      </trkpt>
      <trkpt lat="50.54413" lon="3.42831">
        <ele>19.004484</ele>
        <time>2021-07-22T16:42:21.376Z</time>
      </trkpt>
      <trkpt lat="50.5442" lon="3.42792">
        <ele>19.268288</ele>
        <time>2021-07-22T16:42:26.841Z</time>
      </trkpt>
      <trkpt lat="50.54427" lon="3.42772">
        <ele>19.41649</ele>
        <time>2021-07-22T16:42:29.475Z</time>
      </trkpt>
      <trkpt lat="50.54439" lon="3.42734">
        <ele>19.695806</ele>
        <time>2021-07-22T16:42:34.413Z</time>
      </trkpt>
      <trkpt lat="50.54416" lon="3.42728">
        <ele>19.932456</ele>
        <time>2021-07-22T16:42:38.406Z</time>
      </trkpt>
      <trkpt lat="50.54409" lon="3.42726">
        <ele>20.006635</ele>
        <time>2021-07-22T16:42:39.666Z</time>
      </trkpt>
      <trkpt lat="50.54397" lon="3.42722">
        <ele>20.137264</ele>
        <time>2021-07-22T16:42:41.651Z</time>
      </trkpt>
      <trkpt lat="50.54325" lon="3.427">
        <ele>20.17542</ele>
        <time>2021-07-22T16:42:53.365Z</time>
      </trkpt>
      <trkpt lat="50.54239" lon="3.42675">
        <ele>20.007936</ele>
        <time>2021-07-22T16:43:05.225Z</time>
      </trkpt>
      <trkpt lat="50.54249" lon="3.42586">
        <ele>19.829432</ele>
        <time>2021-07-22T16:43:12.780Z</time>
      </trkpt>
      <trkpt lat="50.54249" lon="3.42573">
        <ele>19.791666</ele>
        <time>2021-07-22T16:43:13.873Z</time>
      </trkpt>
      <trkpt lat="50.54248" lon="3.42564">
        <ele>19.764757</ele>
        <time>2021-07-22T16:43:14.504Z</time>
      </trkpt>
      <trkpt lat="50.54235" lon="3.42431">
        <ele>19.352895</ele>
        <time>2021-07-22T16:43:25.767Z</time>
      </trkpt>
      <trkpt lat="50.54234" lon="3.42418">
        <ele>19.312408</ele>
        <time>2021-07-22T16:43:26.933Z</time>
      </trkpt>
      <trkpt lat="50.54233" lon="3.42405">
        <ele>19.273672</ele>
        <time>2021-07-22T16:43:28.175Z</time>
      </trkpt>
      <trkpt lat="50.54211" lon="3.42191">
        <ele>18.945264</ele>
        <time>2021-07-22T16:43:47.222Z</time>
      </trkpt>
      <trkpt lat="50.5421" lon="3.42175">
        <ele>18.930863</ele>
        <time>2021-07-22T16:43:48.799Z</time>
      </trkpt>
      <trkpt lat="50.54202" lon="3.42085">
        <ele>18.850535</ele>
        <time>2021-07-22T16:43:57.056Z</time>
      </trkpt>
      <trkpt lat="50.54187" lon="3.41949">
        <ele>19.120848</ele>
        <time>2021-07-22T16:44:11.217Z</time>
      </trkpt>
      <trkpt lat="50.5418" lon="3.41882">
        <ele>19.291476</ele>
        <time>2021-07-22T16:44:18.494Z</time>
      </trkpt>
      <trkpt lat="50.54158" lon="3.41681">
        <ele>20.002932</ele>
        <time>2021-07-22T16:44:40.585Z</time>
      </trkpt>
      <trkpt lat="50.54157" lon="3.41671">
        <ele>20.044299</ele>
        <time>2021-07-22T16:44:41.493Z</time>
      </trkpt>
      <trkpt lat="50.54141" lon="3.41601">
        <ele>20.373567</ele>
        <time>2021-07-22T16:44:50.036Z</time>
      </trkpt>
      <trkpt lat="50.54121" lon="3.41543">
        <ele>20.664163</ele>
        <time>2021-07-22T16:44:57.459Z</time>
      </trkpt>
      <trkpt lat="50.54052" lon="3.41346">
        <ele>21.899564</ele>
        <time>2021-07-22T16:45:23.953Z</time>
      </trkpt>
      <trkpt lat="50.54048" lon="3.41329">
        <ele>22.002997</ele>
        <time>2021-07-22T16:45:26.298Z</time>
      </trkpt>
      <trkpt lat="50.54045" lon="3.41319">
        <ele>22.069056</ele>
        <time>2021-07-22T16:45:28.042Z</time>
      </trkpt>
      <trkpt lat="50.54043" lon="3.41311">
        <ele>22.115643</ele>
        <time>2021-07-22T16:45:29.272Z</time>
      </trkpt>
      <trkpt lat="50.54037" lon="3.41207">
        <ele>22.607769</ele>
        <time>2021-07-22T16:45:45.105Z</time>
      </trkpt>
      <trkpt lat="50.54018" lon="3.40995">
        <ele>23.440293</ele>
        <time>2021-07-22T16:46:16.070Z</time>
      </trkpt>
      <trkpt lat="50.53969" lon="3.40683">
        <ele>23.726481</ele>
        <time>2021-07-22T16:46:57.744Z</time>
      </trkpt>
      <trkpt lat="50.53934" lon="3.40545">
        <ele>23.880709</ele>
        <time>2021-07-22T16:47:17.272Z</time>
      </trkpt>
      <trkpt lat="50.53912" lon="3.40421">
        <ele>24.029572</ele>
        <time>2021-07-22T16:47:34.796Z</time>
      </trkpt>
      <trkpt lat="50.53913" lon="3.40412">
        <ele>24.046097</ele>
        <time>2021-07-22T16:47:35.720Z</time>
      </trkpt>
      <trkpt lat="50.53914" lon="3.40407">
        <ele>24.055861</ele>
        <time>2021-07-22T16:47:36.267Z</time>
      </trkpt>
      <trkpt lat="50.53915" lon="3.404">
        <ele>24.068151</ele>
        <time>2021-07-22T16:47:37.115Z</time>
      </trkpt>
      <trkpt lat="50.53918" lon="3.40389">
        <ele>24.090188</ele>
        <time>2021-07-22T16:47:38.333Z</time>
      </trkpt>
      <trkpt lat="50.53921" lon="3.40372">
        <ele>24.122601</ele>
        <time>2021-07-22T16:47:40.162Z</time>
      </trkpt>
      <trkpt lat="50.53924" lon="3.40343">
        <ele>24.17552</ele>
        <time>2021-07-22T16:47:43.305Z</time>
      </trkpt>
      <trkpt lat="50.53924" lon="3.40334">
        <ele>24.191666</ele>
        <time>2021-07-22T16:47:44.199Z</time>
      </trkpt>
      <trkpt lat="50.53926" lon="3.40308">
        <ele>24.238687</ele>
        <time>2021-07-22T16:47:46.869Z</time>
      </trkpt>
      <trkpt lat="50.53933" lon="3.40266">
        <ele>24.317523</ele>
        <time>2021-07-22T16:47:51.508Z</time>
      </trkpt>
      <trkpt lat="50.53938" lon="3.40242">
        <ele>24.364066</ele>
        <time>2021-07-22T16:47:54.154Z</time>
      </trkpt>
      <trkpt lat="50.5394" lon="3.40238">
        <ele>24.372634</ele>
        <time>2021-07-22T16:47:54.801Z</time>
      </trkpt>
      <trkpt lat="50.53964" lon="3.40194">
        <ele>24.476754</ele>
        <time>2021-07-22T16:48:00.529Z</time>
      </trkpt>
      <trkpt lat="50.54023" lon="3.40112">
        <ele>24.407714</ele>
        <time>2021-07-22T16:48:11.994Z</time>
      </trkpt>
      <trkpt lat="50.54061" lon="3.40057">
        <ele>24.334507</ele>
        <time>2021-07-22T16:48:19.127Z</time>
      </trkpt>
      <trkpt lat="50.54066" lon="3.40049">
        <ele>24.323134</ele>
        <time>2021-07-22T16:48:20.057Z</time>
      </trkpt>
      <trkpt lat="50.54105" lon="3.39994">
        <ele>24.248321</ele>
        <time>2021-07-22T16:48:27.645Z</time>
      </trkpt>
      <trkpt lat="50.54121" lon="3.39977">
        <ele>24.269097</ele>
        <time>2021-07-22T16:48:30.243Z</time>
      </trkpt>
      <trkpt lat="50.5414" lon="3.3997">
        <ele>24.289992</ele>
        <time>2021-07-22T16:48:33.417Z</time>
      </trkpt>
      <trkpt lat="50.54213" lon="3.39948">
        <ele>24.368647</ele>
        <time>2021-07-22T16:48:44.247Z</time>
      </trkpt>
      <trkpt lat="50.54278" lon="3.39927">
        <ele>24.439766</ele>
        <time>2021-07-22T16:48:54.918Z</time>
      </trkpt>
      <trkpt lat="50.54321" lon="3.39905">
        <ele>24.650259</ele>
        <time>2021-07-22T16:49:02.643Z</time>
      </trkpt>
      <trkpt lat="50.54395" lon="3.39849">
        <ele>25.033128</ele>
        <time>2021-07-22T16:49:16.426Z</time>
      </trkpt>
      <trkpt lat="50.545" lon="3.39767">
        <ele>25.902631</ele>
        <time>2021-07-22T16:49:36.213Z</time>
      </trkpt>
      <trkpt lat="50.54546" lon="3.39731">
        <ele>26.396694</ele>
        <time>2021-07-22T16:49:45.732Z</time>
      </trkpt>
      <trkpt lat="50.54585" lon="3.39696">
        <ele>26.830468</ele>
        <time>2021-07-22T16:49:54.601Z</time>
      </trkpt>
      <trkpt lat="50.54629" lon="3.3963">
        <ele>27.813585</ele>
        <time>2021-07-22T16:50:07.518Z</time>
      </trkpt>
      <trkpt lat="50.54634" lon="3.39618">
        <ele>27.987443</ele>
        <time>2021-07-22T16:50:09.636Z</time>
      </trkpt>
      <trkpt lat="50.54648" lon="3.39582">
        <ele>28.501569</ele>
        <time>2021-07-22T16:50:15.677Z</time>
      </trkpt>
      <trkpt lat="50.54661" lon="3.39539">
        <ele>29.082872</ele>
        <time>2021-07-22T16:50:22.778Z</time>
      </trkpt>
      <trkpt lat="50.54673" lon="3.39479">
        <ele>29.844549</ele>
        <time>2021-07-22T16:50:32.156Z</time>
      </trkpt>
      <trkpt lat="50.5468" lon="3.39446">
        <ele>30.268924</ele>
        <time>2021-07-22T16:50:37.268Z</time>
      </trkpt>
      <trkpt lat="50.54681" lon="3.39443">
        <ele>30.304923</ele>
        <time>2021-07-22T16:50:37.835Z</time>
      </trkpt>
      <trkpt lat="50.54686" lon="3.39418">
        <ele>30.571289</ele>
        <time>2021-07-22T16:50:41.716Z</time>
      </trkpt>
      <trkpt lat="50.54695" lon="3.39388">
        <ele>30.828701</ele>
        <time>2021-07-22T16:50:46.746Z</time>
      </trkpt>
      <trkpt lat="50.54711" lon="3.3935">
        <ele>31.175224</ele>
        <time>2021-07-22T16:50:52.729Z</time>
      </trkpt>
      <trkpt lat="50.5472" lon="3.39322">
        <ele>31.417649</ele>
        <time>2021-07-22T16:50:57.035Z</time>
      </trkpt>
      <trkpt lat="50.54727" lon="3.39295">
        <ele>31.649044</ele>
        <time>2021-07-22T16:51:00.880Z</time>
      </trkpt>
      <trkpt lat="50.54754" lon="3.39185">
        <ele>32.559242</ele>
        <time>2021-07-22T16:51:14.956Z</time>
      </trkpt>
      <trkpt lat="50.54769" lon="3.39062">
        <ele>32.214122</ele>
        <time>2021-07-22T16:51:25.773Z</time>
      </trkpt>
      <trkpt lat="50.54773" lon="3.38939">
        <ele>31.736115</ele>
        <time>2021-07-22T16:51:35.535Z</time>
      </trkpt>
      <trkpt lat="50.54774" lon="3.38926">
        <ele>31.688936</ele>
        <time>2021-07-22T16:51:36.450Z</time>
      </trkpt>
      <trkpt lat="50.54777" lon="3.38912">
        <ele>31.629617</ele>
        <time>2021-07-22T16:51:37.665Z</time>
      </trkpt>
      <trkpt lat="50.54779" lon="3.38893">
        <ele>31.554419</ele>
        <time>2021-07-22T16:51:39.170Z</time>
      </trkpt>
      <trkpt lat="50.54781" lon="3.38883">
        <ele>31.49749</ele>
        <time>2021-07-22T16:51:39.933Z</time>
      </trkpt>
      <trkpt lat="50.54797" lon="3.38748">
        <ele>30.714614</ele>
        <time>2021-07-22T16:51:50.383Z</time>
      </trkpt>
      <trkpt lat="50.54809" lon="3.38651">
        <ele>30.150319</ele>
        <time>2021-07-22T16:51:58.183Z</time>
      </trkpt>
      <trkpt lat="50.54809" lon="3.38648">
        <ele>30.129856</ele>
        <time>2021-07-22T16:51:58.429Z</time>
      </trkpt>
      <trkpt lat="50.548" lon="3.38364">
        <ele>29.724191</ele>
        <time>2021-07-22T16:52:24.043Z</time>
      </trkpt>
      <trkpt lat="50.54783" lon="3.37983">
        <ele>30.917997</ele>
        <time>2021-07-22T16:53:04.675Z</time>
      </trkpt>
      <trkpt lat="50.54778" lon="3.37879">
        <ele>31.535085</ele>
        <time>2021-07-22T16:53:17.496Z</time>
      </trkpt>
      <trkpt lat="50.54776" lon="3.37823">
        <ele>31.860751</ele>
        <time>2021-07-22T16:53:24.289Z</time>
      </trkpt>
      <trkpt lat="50.54775" lon="3.37799">
        <ele>32.007636</ele>
        <time>2021-07-22T16:53:27.398Z</time>
      </trkpt>
      <trkpt lat="50.54771" lon="3.37678">
        <ele>32.87037</ele>
        <time>2021-07-22T16:53:42.219Z</time>
      </trkpt>
      <trkpt lat="50.5477" lon="3.37657">
        <ele>33.02754</ele>
        <time>2021-07-22T16:53:44.714Z</time>
      </trkpt>
      <trkpt lat="50.54773" lon="3.37651">
        <ele>33.086891</ele>
        <time>2021-07-22T16:53:45.778Z</time>
      </trkpt>
      <trkpt lat="50.54789" lon="3.37637">
        <ele>33.307196</ele>
        <time>2021-07-22T16:53:49.366Z</time>
      </trkpt>
      <trkpt lat="50.54833" lon="3.37626">
        <ele>33.83696</ele>
        <time>2021-07-22T16:53:57.943Z</time>
      </trkpt>
      <trkpt lat="50.54859" lon="3.37594">
        <ele>34.228531</ele>
        <time>2021-07-22T16:54:04.465Z</time>
      </trkpt>
      <trkpt lat="50.54872" lon="3.37565">
        <ele>34.56036</ele>
        <time>2021-07-22T16:54:09.112Z</time>
      </trkpt>
      <trkpt lat="50.54875" lon="3.37542">
        <ele>34.802534</ele>
        <time>2021-07-22T16:54:12.069Z</time>
      </trkpt>
      <trkpt lat="50.54876" lon="3.37525">
        <ele>34.98794</ele>
        <time>2021-07-22T16:54:14.522Z</time>
      </trkpt>
      <trkpt lat="50.54871" lon="3.37486">
        <ele>35.408793</ele>
        <time>2021-07-22T16:54:19.879Z</time>
      </trkpt>
      <trkpt lat="50.54848" lon="3.37387">
        <ele>36.522503</ele>
        <time>2021-07-22T16:54:34.646Z</time>
      </trkpt>
      <trkpt lat="50.54845" lon="3.37372">
        <ele>36.688277</ele>
        <time>2021-07-22T16:54:36.974Z</time>
      </trkpt>
      <trkpt lat="50.5484" lon="3.37351">
        <ele>36.921785</ele>
        <time>2021-07-22T16:54:40.076Z</time>
      </trkpt>
      <trkpt lat="50.54822" lon="3.37263">
        <ele>37.48444</ele>
        <time>2021-07-22T16:54:53.206Z</time>
      </trkpt>
      <trkpt lat="50.54805" lon="3.37182">
        <ele>37.74611</ele>
        <time>2021-07-22T16:55:03.806Z</time>
      </trkpt>
      <trkpt lat="50.54763" lon="3.37012">
        <ele>37.930803</ele>
        <time>2021-07-22T16:55:19.475Z</time>
      </trkpt>
      <trkpt lat="50.5476" lon="3.36985">
        <ele>37.76557</ele>
        <time>2021-07-22T16:55:21.336Z</time>
      </trkpt>
      <trkpt lat="50.54755" lon="3.36918">
        <ele>37.346422</ele>
        <time>2021-07-22T16:55:26.581Z</time>
      </trkpt>
      <trkpt lat="50.54753" lon="3.36816">
        <ele>36.722229</ele>
        <time>2021-07-22T16:55:34.155Z</time>
      </trkpt>
      <trkpt lat="50.54752" lon="3.36795">
        <ele>36.59218</ele>
        <time>2021-07-22T16:55:36.055Z</time>
      </trkpt>
      <trkpt lat="50.5475" lon="3.36749">
        <ele>36.475931</ele>
        <time>2021-07-22T16:55:39.604Z</time>
      </trkpt>
      <trkpt lat="50.54738" lon="3.36717">
        <ele>36.55113</ele>
        <time>2021-07-22T16:55:42.664Z</time>
      </trkpt>
      <trkpt lat="50.54734" lon="3.36706">
        <ele>36.577863</ele>
        <time>2021-07-22T16:55:44.162Z</time>
      </trkpt>
      <trkpt lat="50.54735" lon="3.36696">
        <ele>36.598655</ele>
        <time>2021-07-22T16:55:45.375Z</time>
      </trkpt>
      <trkpt lat="50.54743" lon="3.36657">
        <ele>36.683456</ele>
        <time>2021-07-22T16:55:49.082Z</time>
      </trkpt>
      <trkpt lat="50.54787" lon="3.36512">
        <ele>37.019198</ele>
        <time>2021-07-22T16:56:07.794Z</time>
      </trkpt>
      <trkpt lat="50.54791" lon="3.365">
        <ele>37.05913</ele>
        <time>2021-07-22T16:56:09.485Z</time>
      </trkpt>
      <trkpt lat="50.54792" lon="3.36496">
        <ele>37.074779</ele>
        <time>2021-07-22T16:56:10.473Z</time>
      </trkpt>
      <trkpt lat="50.54807" lon="3.36439">
        <ele>37.272959</ele>
        <time>2021-07-22T16:56:19.602Z</time>
      </trkpt>
      <trkpt lat="50.54821" lon="3.36349">
        <ele>37.573742</ele>
        <time>2021-07-22T16:56:32.826Z</time>
      </trkpt>
      <trkpt lat="50.54851" lon="3.36033">
        <ele>38.296714</ele>
        <time>2021-07-22T16:57:15.640Z</time>
      </trkpt>
      <trkpt lat="50.54867" lon="3.35956">
        <ele>38.465892</ele>
        <time>2021-07-22T16:57:26.824Z</time>
      </trkpt>
      <trkpt lat="50.54903" lon="3.35874">
        <ele>39.144035</ele>
        <time>2021-07-22T16:57:41.052Z</time>
      </trkpt>
      <trkpt lat="50.55006" lon="3.35719">
        <ele>41.071882</ele>
        <time>2021-07-22T16:58:17.550Z</time>
      </trkpt>
      <trkpt lat="50.55019" lon="3.35694">
        <ele>41.569462</ele>
        <time>2021-07-22T16:58:23.244Z</time>
      </trkpt>
      <trkpt lat="50.55141" lon="3.3542">
        <ele>47.806571</ele>
        <time>2021-07-22T16:59:30.479Z</time>
      </trkpt>
      <trkpt lat="50.55146" lon="3.35411">
        <ele>48.0994</ele>
        <time>2021-07-22T16:59:33.402Z</time>
      </trkpt>
      <trkpt lat="50.55146" lon="3.35411">
        <ele>48.0994</ele>
        <time>2021-07-22T16:59:33.493Z</time>
      </trkpt>
      <trkpt lat="50.55189" lon="3.35315">
        <ele>50.872842</ele>
        <time>2021-07-22T17:00:00.863Z</time>
      </trkpt>
      <trkpt lat="50.55251" lon="3.35166">
        <ele>55.280886</ele>
        <time>2021-07-22T17:00:45.820Z</time>
      </trkpt>
      <trkpt lat="50.55263" lon="3.35091">
        <ele>57.192068</ele>
        <time>2021-07-22T17:01:02.149Z</time>
      </trkpt>
      <trkpt lat="50.55264" lon="3.3508">
        <ele>57.462598</ele>
        <time>2021-07-22T17:01:05.297Z</time>
      </trkpt>
      <trkpt lat="50.55266" lon="3.35065">
        <ele>57.830032</ele>
        <time>2021-07-22T17:01:08.148Z</time>
      </trkpt>
      <trkpt lat="50.55296" lon="3.34964">
        <ele>59.059182</ele>
        <time>2021-07-22T17:01:28.613Z</time>
      </trkpt>
      <trkpt lat="50.55305" lon="3.34916">
        <ele>59.416541</ele>
        <time>2021-07-22T17:01:37.102Z</time>
      </trkpt>
      <trkpt lat="50.55311" lon="3.34846">
        <ele>59.910635</ele>
        <time>2021-07-22T17:01:47.592Z</time>
      </trkpt>
      <trkpt lat="50.55307" lon="3.34833">
        <ele>60.010458</ele>
        <time>2021-07-22T17:01:49.204Z</time>
      </trkpt>
      <trkpt lat="50.55297" lon="3.3482">
        <ele>60.158511</ele>
        <time>2021-07-22T17:01:51.043Z</time>
      </trkpt>
      <trkpt lat="50.55228" lon="3.3475">
        <ele>60.334441</ele>
        <time>2021-07-22T17:02:02.306Z</time>
      </trkpt>
      <trkpt lat="50.55224" lon="3.3474">
        <ele>60.319538</ele>
        <time>2021-07-22T17:02:03.301Z</time>
      </trkpt>
      <trkpt lat="50.5522" lon="3.34731">
        <ele>60.305576</ele>
        <time>2021-07-22T17:02:04.209Z</time>
      </trkpt>
      <trkpt lat="50.55133" lon="3.34444">
        <ele>60.009502</ele>
        <time>2021-07-22T17:02:33.486Z</time>
      </trkpt>
      <trkpt lat="50.55127" lon="3.34428">
        <ele>59.999445</ele>
        <time>2021-07-22T17:02:35.252Z</time>
      </trkpt>
      <trkpt lat="50.55116" lon="3.34404">
        <ele>59.982419</ele>
        <time>2021-07-22T17:02:38.022Z</time>
      </trkpt>
      <trkpt lat="50.55092" lon="3.34362">
        <ele>59.950495</ele>
        <time>2021-07-22T17:02:43.149Z</time>
      </trkpt>
      <trkpt lat="50.55072" lon="3.34329">
        <ele>59.926247</ele>
        <time>2021-07-22T17:02:47.305Z</time>
      </trkpt>
      <trkpt lat="50.55062" lon="3.34307">
        <ele>59.912767</ele>
        <time>2021-07-22T17:02:49.735Z</time>
      </trkpt>
      <trkpt lat="50.55018" lon="3.34199">
        <ele>59.849472</ele>
        <time>2021-07-22T17:03:01.660Z</time>
      </trkpt>
      <trkpt lat="50.55015" lon="3.34192">
        <ele>59.845567</ele>
        <time>2021-07-22T17:03:02.290Z</time>
      </trkpt>
      <trkpt lat="50.55013" lon="3.34185">
        <ele>59.84161</ele>
        <time>2021-07-22T17:03:03.099Z</time>
      </trkpt>
      <trkpt lat="50.55008" lon="3.34172">
        <ele>59.834091</ele>
        <time>2021-07-22T17:03:04.411Z</time>
      </trkpt>
      <trkpt lat="50.55002" lon="3.34166">
        <ele>59.828926</ele>
        <time>2021-07-22T17:03:05.368Z</time>
      </trkpt>
      <trkpt lat="50.55002" lon="3.34163">
        <ele>59.827237</ele>
        <time>2021-07-22T17:03:05.711Z</time>
      </trkpt>
      <trkpt lat="50.54999" lon="3.34157">
        <ele>59.82387</ele>
        <time>2021-07-22T17:03:06.370Z</time>
      </trkpt>
      <trkpt lat="50.54998" lon="3.34156">
        <ele>59.822177</ele>
        <time>2021-07-22T17:03:06.725Z</time>
      </trkpt>
      <trkpt lat="50.54995" lon="3.34155">
        <ele>59.820058</ele>
        <time>2021-07-22T17:03:07.085Z</time>
      </trkpt>
      <trkpt lat="50.5499" lon="3.34159">
        <ele>59.815749</ele>
        <time>2021-07-22T17:03:07.877Z</time>
      </trkpt>
      <trkpt lat="50.54988" lon="3.34162">
        <ele>59.81359</ele>
        <time>2021-07-22T17:03:08.331Z</time>
      </trkpt>
      <trkpt lat="50.54981" lon="3.34168">
        <ele>59.807646</ele>
        <time>2021-07-22T17:03:09.402Z</time>
      </trkpt>
      <trkpt lat="50.54971" lon="3.34173">
        <ele>59.798826</ele>
        <time>2021-07-22T17:03:11.055Z</time>
      </trkpt>
      <trkpt lat="50.54967" lon="3.34172">
        <ele>59.796354</ele>
        <time>2021-07-22T17:03:11.557Z</time>
      </trkpt>
      <trkpt lat="50.54965" lon="3.34171">
        <ele>59.794302</ele>
        <time>2021-07-22T17:03:11.979Z</time>
      </trkpt>
      <trkpt lat="50.5496" lon="3.34169">
        <ele>59.798059</ele>
        <time>2021-07-22T17:03:12.681Z</time>
      </trkpt>
      <trkpt lat="50.54945" lon="3.34164">
        <ele>59.815778</ele>
        <time>2021-07-22T17:03:15.003Z</time>
      </trkpt>
      <trkpt lat="50.54935" lon="3.3416">
        <ele>59.828397</ele>
        <time>2021-07-22T17:03:16.625Z</time>
      </trkpt>
      <trkpt lat="50.54931" lon="3.34158">
        <ele>59.833395</ele>
        <time>2021-07-22T17:03:17.280Z</time>
      </trkpt>
      <trkpt lat="50.54928" lon="3.34157">
        <ele>59.83702</ele>
        <time>2021-07-22T17:03:17.716Z</time>
      </trkpt>
      <trkpt lat="50.5492" lon="3.34153">
        <ele>59.847176</ele>
        <time>2021-07-22T17:03:18.976Z</time>
      </trkpt>
      <trkpt lat="50.54906" lon="3.34146">
        <ele>59.866002</ele>
        <time>2021-07-22T17:03:21.480Z</time>
      </trkpt>
      <trkpt lat="50.54883" lon="3.34135">
        <ele>59.89422</ele>
        <time>2021-07-22T17:03:25.200Z</time>
      </trkpt>
      <trkpt lat="50.54866" lon="3.34132">
        <ele>59.915622</ele>
        <time>2021-07-22T17:03:28.093Z</time>
      </trkpt>
      <trkpt lat="50.54853" lon="3.34131">
        <ele>59.930847</ele>
        <time>2021-07-22T17:03:30.155Z</time>
      </trkpt>
      <trkpt lat="50.54846" lon="3.3413">
        <ele>59.939525</ele>
        <time>2021-07-22T17:03:31.398Z</time>
      </trkpt>
      <trkpt lat="50.54823" lon="3.34121">
        <ele>59.969135</ele>
        <time>2021-07-22T17:03:35.152Z</time>
      </trkpt>
      <trkpt lat="50.54787" lon="3.34095">
        <ele>59.973956</ele>
        <time>2021-07-22T17:03:41.011Z</time>
      </trkpt>
      <trkpt lat="50.54764" lon="3.3408">
        <ele>59.736059</ele>
        <time>2021-07-22T17:03:44.538Z</time>
      </trkpt>
      <trkpt lat="50.54735" lon="3.34061">
        <ele>59.423655</ele>
        <time>2021-07-22T17:03:48.873Z</time>
      </trkpt>
      <trkpt lat="50.54703" lon="3.34046">
        <ele>59.107519</ele>
        <time>2021-07-22T17:03:52.931Z</time>
      </trkpt>
      <trkpt lat="50.54677" lon="3.34035">
        <ele>58.8516</ele>
        <time>2021-07-22T17:03:56.062Z</time>
      </trkpt>
      <trkpt lat="50.54664" lon="3.34027">
        <ele>58.715725</ele>
        <time>2021-07-22T17:03:57.777Z</time>
      </trkpt>
      <trkpt lat="50.54631" lon="3.34006">
        <ele>58.368416</ele>
        <time>2021-07-22T17:04:01.942Z</time>
      </trkpt>
      <trkpt lat="50.54592" lon="3.33982">
        <ele>57.53196</ele>
        <time>2021-07-22T17:04:06.623Z</time>
      </trkpt>
      <trkpt lat="50.54577" lon="3.33974">
        <ele>57.167515</ele>
        <time>2021-07-22T17:04:08.318Z</time>
      </trkpt>
      <trkpt lat="50.54539" lon="3.33955">
        <ele>56.274785</ele>
        <time>2021-07-22T17:04:12.486Z</time>
      </trkpt>
      <trkpt lat="50.54468" lon="3.3395">
        <ele>54.645812</ele>
        <time>2021-07-22T17:04:20.023Z</time>
      </trkpt>
      <trkpt lat="50.5443" lon="3.3393">
        <ele>53.695863</ele>
        <time>2021-07-22T17:04:24.194Z</time>
      </trkpt>
      <trkpt lat="50.54378" lon="3.33903">
        <ele>52.290472</ele>
        <time>2021-07-22T17:04:30.052Z</time>
      </trkpt>
      <trkpt lat="50.54317" lon="3.33897">
        <ele>50.727722</ele>
        <time>2021-07-22T17:04:36.490Z</time>
      </trkpt>
      <trkpt lat="50.54255" lon="3.33904">
        <ele>49.272892</ele>
        <time>2021-07-22T17:04:42.974Z</time>
      </trkpt>
      <trkpt lat="50.5423" lon="3.339">
        <ele>48.782076</ele>
        <time>2021-07-22T17:04:45.685Z</time>
      </trkpt>
      <trkpt lat="50.54197" lon="3.33895">
        <ele>48.155623</ele>
        <time>2021-07-22T17:04:49.242Z</time>
      </trkpt>
      <trkpt lat="50.54181" lon="3.33892">
        <ele>47.856803</ele>
        <time>2021-07-22T17:04:51.003Z</time>
      </trkpt>
      <trkpt lat="50.54159" lon="3.33895">
        <ele>47.432408</ele>
        <time>2021-07-22T17:04:53.397Z</time>
      </trkpt>
      <trkpt lat="50.54114" lon="3.33916">
        <ele>46.525796</ele>
        <time>2021-07-22T17:04:58.801Z</time>
      </trkpt>
      <trkpt lat="50.54086" lon="3.33918">
        <ele>46.188339</ele>
        <time>2021-07-22T17:05:02.060Z</time>
      </trkpt>
      <trkpt lat="50.54032" lon="3.33897">
        <ele>46.29288</ele>
        <time>2021-07-22T17:05:09.397Z</time>
      </trkpt>
      <trkpt lat="50.54006" lon="3.33886">
        <ele>46.343973</ele>
        <time>2021-07-22T17:05:13.202Z</time>
      </trkpt>
      <trkpt lat="50.54029" lon="3.33572">
        <ele>48.135768</ele>
        <time>2021-07-22T17:05:52.435Z</time>
      </trkpt>
      <trkpt lat="50.54035" lon="3.33503">
        <ele>48.77213</ele>
        <time>2021-07-22T17:06:02.354Z</time>
      </trkpt>
      <trkpt lat="50.54039" lon="3.33436">
        <ele>49.396022</ele>
        <time>2021-07-22T17:06:12.041Z</time>
      </trkpt>
      <trkpt lat="50.54054" lon="3.33239">
        <ele>51.255503</ele>
        <time>2021-07-22T17:06:39.678Z</time>
      </trkpt>
      <trkpt lat="50.54064" lon="3.33102">
        <ele>51.570643</ele>
        <time>2021-07-22T17:06:54.507Z</time>
      </trkpt>
      <trkpt lat="50.54078" lon="3.32937">
        <ele>51.2105</ele>
        <time>2021-07-22T17:07:08.597Z</time>
      </trkpt>
      <trkpt lat="50.5409" lon="3.32767">
        <ele>49.594499</ele>
        <time>2021-07-22T17:07:20.776Z</time>
      </trkpt>
      <trkpt lat="50.54099" lon="3.32636">
        <ele>48.131541</ele>
        <time>2021-07-22T17:07:30.009Z</time>
      </trkpt>
      <trkpt lat="50.54102" lon="3.32595">
        <ele>47.724859</ele>
        <time>2021-07-22T17:07:32.932Z</time>
      </trkpt>
      <trkpt lat="50.54134" lon="3.32186">
        <ele>44.982268</ele>
        <time>2021-07-22T17:08:03.916Z</time>
      </trkpt>
      <trkpt lat="50.54147" lon="3.3213">
        <ele>44.823149</ele>
        <time>2021-07-22T17:08:09.608Z</time>
      </trkpt>
      <trkpt lat="50.54205" lon="3.31987">
        <ele>45.703755</ele>
        <time>2021-07-22T17:08:29.982Z</time>
      </trkpt>
      <trkpt lat="50.54283" lon="3.31807">
        <ele>48.018422</ele>
        <time>2021-07-22T17:09:01.623Z</time>
      </trkpt>
      <trkpt lat="50.5437" lon="3.31601">
        <ele>51.24527</ele>
        <time>2021-07-22T17:09:38.063Z</time>
      </trkpt>
      <trkpt lat="50.54438" lon="3.3144">
        <ele>53.484023</ele>
        <time>2021-07-22T17:10:05.484Z</time>
      </trkpt>
      <trkpt lat="50.54457" lon="3.31395">
        <ele>54.113371</ele>
        <time>2021-07-22T17:10:12.806Z</time>
      </trkpt>
      <trkpt lat="50.54476" lon="3.31347">
        <ele>54.725995</ele>
        <time>2021-07-22T17:10:20.687Z</time>
      </trkpt>
      <trkpt lat="50.54545" lon="3.31186">
        <ele>56.598059</ele>
        <time>2021-07-22T17:10:46.530Z</time>
      </trkpt>
      <trkpt lat="50.54557" lon="3.31161">
        <ele>56.907644</ele>
        <time>2021-07-22T17:10:50.727Z</time>
      </trkpt>
      <trkpt lat="50.54592" lon="3.31117">
        <ele>57.527385</ele>
        <time>2021-07-22T17:10:59.835Z</time>
      </trkpt>
      <trkpt lat="50.54717" lon="3.31058">
        <ele>59.159886</ele>
        <time>2021-07-22T17:11:25.818Z</time>
      </trkpt>
      <trkpt lat="50.5473" lon="3.31046">
        <ele>59.354062</ele>
        <time>2021-07-22T17:11:28.988Z</time>
      </trkpt>
      <trkpt lat="50.54738" lon="3.31037">
        <ele>59.472788</ele>
        <time>2021-07-22T17:11:30.663Z</time>
      </trkpt>
      <trkpt lat="50.54774" lon="3.3098">
        <ele>59.854156</ele>
        <time>2021-07-22T17:11:40.504Z</time>
      </trkpt>
      <trkpt lat="50.54777" lon="3.30975">
        <ele>59.880554</ele>
        <time>2021-07-22T17:11:41.197Z</time>
      </trkpt>
      <trkpt lat="50.54786" lon="3.3096">
        <ele>59.978838</ele>
        <time>2021-07-22T17:11:43.696Z</time>
      </trkpt>
      <trkpt lat="50.54801" lon="3.3094">
        <ele>60.121015</ele>
        <time>2021-07-22T17:11:47.349Z</time>
      </trkpt>
      <trkpt lat="50.54817" lon="3.30921">
        <ele>60.260573</ele>
        <time>2021-07-22T17:11:50.721Z</time>
      </trkpt>
      <trkpt lat="50.54823" lon="3.30917">
        <ele>60.307319</ele>
        <time>2021-07-22T17:11:51.788Z</time>
      </trkpt>
      <trkpt lat="50.5483" lon="3.30913">
        <ele>60.365099</ele>
        <time>2021-07-22T17:11:53.311Z</time>
      </trkpt>
      <trkpt lat="50.54936" lon="3.3086">
        <ele>60.820524</ele>
        <time>2021-07-22T17:12:11.075Z</time>
      </trkpt>
      <trkpt lat="50.55008" lon="3.3081">
        <ele>60.870843</ele>
        <time>2021-07-22T17:12:22.979Z</time>
      </trkpt>
      <trkpt lat="50.55149" lon="3.30684">
        <ele>60.668024</ele>
        <time>2021-07-22T17:12:45.707Z</time>
      </trkpt>
      <trkpt lat="50.55169" lon="3.30671">
        <ele>60.623452</ele>
        <time>2021-07-22T17:12:48.781Z</time>
      </trkpt>
      <trkpt lat="50.55273" lon="3.30595">
        <ele>60.221654</ele>
        <time>2021-07-22T17:13:05.140Z</time>
      </trkpt>
      <trkpt lat="50.55336" lon="3.30549">
        <ele>59.915404</ele>
        <time>2021-07-22T17:13:14.476Z</time>
      </trkpt>
      <trkpt lat="50.55356" lon="3.30532">
        <ele>59.814968</ele>
        <time>2021-07-22T17:13:17.335Z</time>
      </trkpt>
      <trkpt lat="50.55362" lon="3.30544">
        <ele>59.771487</ele>
        <time>2021-07-22T17:13:18.594Z</time>
      </trkpt>
      <trkpt lat="50.55368" lon="3.30552">
        <ele>59.735439</ele>
        <time>2021-07-22T17:13:19.647Z</time>
      </trkpt>
      <trkpt lat="50.55379" lon="3.30566">
        <ele>59.590102</ele>
        <time>2021-07-22T17:13:21.398Z</time>
      </trkpt>
      <trkpt lat="50.55383" lon="3.3056">
        <ele>59.531018</ele>
        <time>2021-07-22T17:13:21.999Z</time>
      </trkpt>
      <trkpt lat="50.55456" lon="3.30501">
        <ele>58.649253</ele>
        <time>2021-07-22T17:13:31.987Z</time>
      </trkpt>
      <trkpt lat="50.55481" lon="3.30481">
        <ele>58.343382</ele>
        <time>2021-07-22T17:13:35.281Z</time>
      </trkpt>
      <trkpt lat="50.55499" lon="3.30468">
        <ele>58.137078</ele>
        <time>2021-07-22T17:13:37.571Z</time>
      </trkpt>
      <trkpt lat="50.55549" lon="3.3043">
        <ele>57.64577</ele>
        <time>2021-07-22T17:13:44.221Z</time>
      </trkpt>
      <trkpt lat="50.55555" lon="3.30426">
        <ele>57.603103</ele>
        <time>2021-07-22T17:13:45.403Z</time>
      </trkpt>
      <trkpt lat="50.55564" lon="3.30413">
        <ele>57.523532</ele>
        <time>2021-07-22T17:13:47.522Z</time>
      </trkpt>
      <trkpt lat="50.55578" lon="3.30404">
        <ele>57.427003</ele>
        <time>2021-07-22T17:13:50.210Z</time>
      </trkpt>
      <trkpt lat="50.55581" lon="3.30403">
        <ele>57.406889</ele>
        <time>2021-07-22T17:13:50.766Z</time>
      </trkpt>
      <trkpt lat="50.55591" lon="3.30396">
        <ele>57.334535</ele>
        <time>2021-07-22T17:13:52.781Z</time>
      </trkpt>
      <trkpt lat="50.55594" lon="3.30394">
        <ele>57.313485</ele>
        <time>2021-07-22T17:13:53.327Z</time>
      </trkpt>
      <trkpt lat="50.55588" lon="3.30372">
        <ele>57.211818</ele>
        <time>2021-07-22T17:13:56.150Z</time>
      </trkpt>
      <trkpt lat="50.55579" lon="3.30333">
        <ele>57.041127</ele>
        <time>2021-07-22T17:14:01.022Z</time>
      </trkpt>
      <trkpt lat="50.55564" lon="3.30274">
        <ele>56.782093</ele>
        <time>2021-07-22T17:14:08.724Z</time>
      </trkpt>
      <trkpt lat="50.55557" lon="3.30239">
        <ele>56.642049</ele>
        <time>2021-07-22T17:14:13.301Z</time>
      </trkpt>
      <trkpt lat="50.55551" lon="3.29983">
        <ele>56.479232</ele>
        <time>2021-07-22T17:14:46.231Z</time>
      </trkpt>
      <trkpt lat="50.55557" lon="3.29915">
        <ele>56.400633</ele>
        <time>2021-07-22T17:14:54.666Z</time>
      </trkpt>
      <trkpt lat="50.55575" lon="3.29805">
        <ele>56.242157</ele>
        <time>2021-07-22T17:15:08.191Z</time>
      </trkpt>
      <trkpt lat="50.55596" lon="3.2968">
        <ele>56.083375</ele>
        <time>2021-07-22T17:15:24.403Z</time>
      </trkpt>
      <trkpt lat="50.556" lon="3.29634">
        <ele>56.241839</ele>
        <time>2021-07-22T17:15:30.390Z</time>
      </trkpt>
      <trkpt lat="50.55595" lon="3.29592">
        <ele>56.391609</ele>
        <time>2021-07-22T17:15:36.194Z</time>
      </trkpt>
      <trkpt lat="50.55583" lon="3.29563">
        <ele>56.510287</ele>
        <time>2021-07-22T17:15:41.067Z</time>
      </trkpt>
      <trkpt lat="50.55562" lon="3.29537">
        <ele>56.656243</ele>
        <time>2021-07-22T17:15:47.075Z</time>
      </trkpt>
      <trkpt lat="50.55526" lon="3.29507">
        <ele>56.882638</ele>
        <time>2021-07-22T17:15:56.835Z</time>
      </trkpt>
      <trkpt lat="50.5549" lon="3.29492">
        <ele>57.099042</ele>
        <time>2021-07-22T17:16:05.871Z</time>
      </trkpt>
      <trkpt lat="50.55371" lon="3.29474">
        <ele>58.003992</ele>
        <time>2021-07-22T17:16:34.901Z</time>
      </trkpt>
      <trkpt lat="50.55312" lon="3.29435">
        <ele>58.363197</ele>
        <time>2021-07-22T17:16:48.856Z</time>
      </trkpt>
      <trkpt lat="50.55227" lon="3.29389">
        <ele>57.913955</ele>
        <time>2021-07-22T17:17:06.427Z</time>
      </trkpt>
      <trkpt lat="50.55187" lon="3.29367">
        <ele>57.700887</ele>
        <time>2021-07-22T17:17:14.102Z</time>
      </trkpt>
      <trkpt lat="50.55071" lon="3.29314">
        <ele>56.507733</ele>
        <time>2021-07-22T17:17:34.089Z</time>
      </trkpt>
      <trkpt lat="50.55059" lon="3.2931">
        <ele>56.35692</ele>
        <time>2021-07-22T17:17:36.154Z</time>
      </trkpt>
      <trkpt lat="50.55043" lon="3.29315">
        <ele>56.155908</ele>
        <time>2021-07-22T17:17:39.061Z</time>
      </trkpt>
      <trkpt lat="50.55032" lon="3.29322">
        <ele>56.006806</ele>
        <time>2021-07-22T17:17:41.013Z</time>
      </trkpt>
      <trkpt lat="50.55016" lon="3.29336">
        <ele>55.791246</ele>
        <time>2021-07-22T17:17:44.154Z</time>
      </trkpt>
      <trkpt lat="50.54999" lon="3.29345">
        <ele>55.574615</ele>
        <time>2021-07-22T17:17:47.122Z</time>
      </trkpt>
      <trkpt lat="50.54982" lon="3.2934">
        <ele>55.356753</ele>
        <time>2021-07-22T17:17:50.374Z</time>
      </trkpt>
      <trkpt lat="50.54968" lon="3.29327">
        <ele>55.217487</ele>
        <time>2021-07-22T17:17:53.190Z</time>
      </trkpt>
      <trkpt lat="50.54912" lon="3.29214">
        <ele>54.492828</ele>
        <time>2021-07-22T17:18:09.069Z</time>
      </trkpt>
      <trkpt lat="50.54901" lon="3.29171">
        <ele>54.257075</ele>
        <time>2021-07-22T17:18:14.589Z</time>
      </trkpt>
      <trkpt lat="50.54892" lon="3.29123">
        <ele>54.005208</ele>
        <time>2021-07-22T17:18:20.454Z</time>
      </trkpt>
      <trkpt lat="50.54887" lon="3.29093">
        <ele>53.875065</ele>
        <time>2021-07-22T17:18:24.070Z</time>
      </trkpt>
      <trkpt lat="50.54877" lon="3.29037">
        <ele>53.771322</ele>
        <time>2021-07-22T17:18:30.830Z</time>
      </trkpt>
      <trkpt lat="50.54855" lon="3.28893">
        <ele>53.506652</ele>
        <time>2021-07-22T17:18:48.827Z</time>
      </trkpt>
      <trkpt lat="50.54851" lon="3.28852">
        <ele>53.433421</ele>
        <time>2021-07-22T17:18:53.915Z</time>
      </trkpt>
      <trkpt lat="50.5485" lon="3.28843">
        <ele>53.417924</ele>
        <time>2021-07-22T17:18:54.997Z</time>
      </trkpt>
      <trkpt lat="50.54848" lon="3.2878">
        <ele>53.537617</ele>
        <time>2021-07-22T17:19:03.570Z</time>
      </trkpt>
      <trkpt lat="50.54848" lon="3.28772">
        <ele>53.561192</ele>
        <time>2021-07-22T17:19:04.554Z</time>
      </trkpt>
      <trkpt lat="50.54848" lon="3.28765">
        <ele>53.584767</ele>
        <time>2021-07-22T17:19:05.548Z</time>
      </trkpt>
      <trkpt lat="50.54848" lon="3.2876">
        <ele>53.603099</ele>
        <time>2021-07-22T17:19:06.513Z</time>
      </trkpt>
      <trkpt lat="50.54842" lon="3.28672">
        <ele>53.891039</ele>
        <time>2021-07-22T17:19:18.920Z</time>
      </trkpt>
      <trkpt lat="50.54816" lon="3.2852">
        <ele>54.410016</ele>
        <time>2021-07-22T17:19:42.262Z</time>
      </trkpt>
      <trkpt lat="50.54803" lon="3.28458">
        <ele>54.631641</ele>
        <time>2021-07-22T17:19:51.560Z</time>
      </trkpt>
      <trkpt lat="50.5478" lon="3.28384">
        <ele>54.913856</ele>
        <time>2021-07-22T17:20:03.266Z</time>
      </trkpt>
      <trkpt lat="50.54758" lon="3.28286">
        <ele>55.270072</ele>
        <time>2021-07-22T17:20:17.984Z</time>
      </trkpt>
      <trkpt lat="50.54733" lon="3.28153">
        <ele>55.466751</ele>
        <time>2021-07-22T17:20:37.149Z</time>
      </trkpt>
      <trkpt lat="50.54723" lon="3.28025">
        <ele>55.642229</ele>
        <time>2021-07-22T17:20:54.010Z</time>
      </trkpt>
      <trkpt lat="50.54721" lon="3.27994">
        <ele>55.647691</ele>
        <time>2021-07-22T17:20:57.964Z</time>
      </trkpt>
      <trkpt lat="50.54714" lon="3.2797">
        <ele>55.606239</ele>
        <time>2021-07-22T17:21:01.462Z</time>
      </trkpt>
      <trkpt lat="50.54695" lon="3.27934">
        <ele>55.533066</ele>
        <time>2021-07-22T17:21:07.433Z</time>
      </trkpt>
      <trkpt lat="50.54676" lon="3.279">
        <ele>55.463368</ele>
        <time>2021-07-22T17:21:13.105Z</time>
      </trkpt>
      <trkpt lat="50.54656" lon="3.27863">
        <ele>55.386309</ele>
        <time>2021-07-22T17:21:19.178Z</time>
      </trkpt>
      <trkpt lat="50.54635" lon="3.27738">
        <ele>55.208355</ele>
        <time>2021-07-22T17:21:34.452Z</time>
      </trkpt>
      <trkpt lat="50.54629" lon="3.27652">
        <ele>55.151622</ele>
        <time>2021-07-22T17:21:44.805Z</time>
      </trkpt>
      <trkpt lat="50.54628" lon="3.2763">
        <ele>55.136872</ele>
        <time>2021-07-22T17:21:47.329Z</time>
      </trkpt>
      <trkpt lat="50.54571" lon="3.27422">
        <ele>55.338827</ele>
        <time>2021-07-22T17:22:17.749Z</time>
      </trkpt>
      <trkpt lat="50.54571" lon="3.27407">
        <ele>55.398409</ele>
        <time>2021-07-22T17:22:20.139Z</time>
      </trkpt>
      <trkpt lat="50.54581" lon="3.27397">
        <ele>55.469639</ele>
        <time>2021-07-22T17:22:23.025Z</time>
      </trkpt>
      <trkpt lat="50.54615" lon="3.27368">
        <ele>55.705433</ele>
        <time>2021-07-22T17:22:31.980Z</time>
      </trkpt>
      <trkpt lat="50.54646" lon="3.27316">
        <ele>55.978132</ele>
        <time>2021-07-22T17:22:42.142Z</time>
      </trkpt>
      <trkpt lat="50.54651" lon="3.27297">
        <ele>56.057276</ele>
        <time>2021-07-22T17:22:45.423Z</time>
      </trkpt>
      <trkpt lat="50.54648" lon="3.27283">
        <ele>56.114949</ele>
        <time>2021-07-22T17:22:47.744Z</time>
      </trkpt>
      <trkpt lat="50.54633" lon="3.27222">
        <ele>56.276579</ele>
        <time>2021-07-22T17:22:57.502Z</time>
      </trkpt>
      <trkpt lat="50.54609" lon="3.27163">
        <ele>56.448281</ele>
        <time>2021-07-22T17:23:07.490Z</time>
      </trkpt>
      <trkpt lat="50.54602" lon="3.27118">
        <ele>56.560463</ele>
        <time>2021-07-22T17:23:13.917Z</time>
      </trkpt>
      <trkpt lat="50.54586" lon="3.27019">
        <ele>56.80812</ele>
        <time>2021-07-22T17:23:27.489Z</time>
      </trkpt>
      <trkpt lat="50.54547" lon="3.26732">
        <ele>56.32769</ele>
        <time>2021-07-22T17:24:03.824Z</time>
      </trkpt>
      <trkpt lat="50.54534" lon="3.26633">
        <ele>55.57092</ele>
        <time>2021-07-22T17:24:15.152Z</time>
      </trkpt>
      <trkpt lat="50.54532" lon="3.26615">
        <ele>55.430386</ele>
        <time>2021-07-22T17:24:17.118Z</time>
      </trkpt>
      <trkpt lat="50.54511" lon="3.26642">
        <ele>55.11412</ele>
        <time>2021-07-22T17:24:21.699Z</time>
      </trkpt>
      <trkpt lat="50.54507" lon="3.26647">
        <ele>55.056076</ele>
        <time>2021-07-22T17:24:22.435Z</time>
      </trkpt>
      <trkpt lat="50.5446" lon="3.26759">
        <ele>53.960771</ele>
        <time>2021-07-22T17:24:36.399Z</time>
      </trkpt>
      <trkpt lat="50.544" lon="3.26876">
        <ele>52.386252</ele>
        <time>2021-07-22T17:24:51.595Z</time>
      </trkpt>
      <trkpt lat="50.54252" lon="3.26971">
        <ele>50.46379</ele>
        <time>2021-07-22T17:25:18.260Z</time>
      </trkpt>
      <trkpt lat="50.54232" lon="3.26978">
        <ele>50.274509</ele>
        <time>2021-07-22T17:25:22.039Z</time>
      </trkpt>
      <trkpt lat="50.54013" lon="3.26936">
        <ele>49.575465</ele>
        <time>2021-07-22T17:26:04.976Z</time>
      </trkpt>
      <trkpt lat="50.54001" lon="3.26929">
        <ele>49.565616</ele>
        <time>2021-07-22T17:26:07.653Z</time>
      </trkpt>
      <trkpt lat="50.53914" lon="3.26831">
        <ele>50.011112</ele>
        <time>2021-07-22T17:26:30.968Z</time>
      </trkpt>
      <trkpt lat="50.53885" lon="3.26783">
        <ele>50.213878</ele>
        <time>2021-07-22T17:26:40.581Z</time>
      </trkpt>
      <trkpt lat="50.53858" lon="3.26729">
        <ele>50.427471</ele>
        <time>2021-07-22T17:26:50.644Z</time>
      </trkpt>
      <trkpt lat="50.53857" lon="3.26602">
        <ele>51.079059</ele>
        <time>2021-07-22T17:27:09.287Z</time>
      </trkpt>
      <trkpt lat="50.53851" lon="3.26533">
        <ele>51.435417</ele>
        <time>2021-07-22T17:27:20.080Z</time>
      </trkpt>
      <trkpt lat="50.53851" lon="3.26512">
        <ele>51.54422</ele>
        <time>2021-07-22T17:27:23.260Z</time>
      </trkpt>
      <trkpt lat="50.53843" lon="3.26437">
        <ele>51.925694</ele>
        <time>2021-07-22T17:27:34.615Z</time>
      </trkpt>
      <trkpt lat="50.53834" lon="3.26358">
        <ele>52.286328</ele>
        <time>2021-07-22T17:27:46.708Z</time>
      </trkpt>
      <trkpt lat="50.53721" lon="3.26107">
        <ele>53.202222</ele>
        <time>2021-07-22T17:28:31.073Z</time>
      </trkpt>
      <trkpt lat="50.53664" lon="3.25979">
        <ele>53.287324</ele>
        <time>2021-07-22T17:28:50.584Z</time>
      </trkpt>
      <trkpt lat="50.53655" lon="3.25942">
        <ele>53.164909</ele>
        <time>2021-07-22T17:28:55.274Z</time>
      </trkpt>
      <trkpt lat="50.53649" lon="3.25873">
        <ele>52.85742</ele>
        <time>2021-07-22T17:29:03.335Z</time>
      </trkpt>
      <trkpt lat="50.53641" lon="3.25863">
        <ele>52.780843</ele>
        <time>2021-07-22T17:29:05.221Z</time>
      </trkpt>
      <trkpt lat="50.53627" lon="3.25859">
        <ele>52.683453</ele>
        <time>2021-07-22T17:29:07.765Z</time>
      </trkpt>
      <trkpt lat="50.53528" lon="3.25886">
        <ele>52.041848</ele>
        <time>2021-07-22T17:29:25.398Z</time>
      </trkpt>
      <trkpt lat="50.53505" lon="3.25885">
        <ele>52.031549</ele>
        <time>2021-07-22T17:29:29.453Z</time>
      </trkpt>
      <trkpt lat="50.53481" lon="3.2587">
        <ele>52.019748</ele>
        <time>2021-07-22T17:29:34.325Z</time>
      </trkpt>
      <trkpt lat="50.53377" lon="3.25595">
        <ele>52.327722</ele>
        <time>2021-07-22T17:30:17.826Z</time>
      </trkpt>
      <trkpt lat="50.53356" lon="3.25513">
        <ele>52.583659</ele>
        <time>2021-07-22T17:30:30.742Z</time>
      </trkpt>
      <trkpt lat="50.53348" lon="3.25477">
        <ele>52.693155</ele>
        <time>2021-07-22T17:30:36.191Z</time>
      </trkpt>
      <trkpt lat="50.53333" lon="3.25443">
        <ele>52.79882</ele>
        <time>2021-07-22T17:30:41.994Z</time>
      </trkpt>
      <trkpt lat="50.53308" lon="3.25404">
        <ele>52.90075</ele>
        <time>2021-07-22T17:30:49.873Z</time>
      </trkpt>
      <trkpt lat="50.53259" lon="3.25337">
        <ele>53.087838</ele>
        <time>2021-07-22T17:31:04.046Z</time>
      </trkpt>
      <trkpt lat="50.53228" lon="3.25304">
        <ele>53.196607</ele>
        <time>2021-07-22T17:31:11.848Z</time>
      </trkpt>
      <trkpt lat="50.53202" lon="3.25298">
        <ele>53.272772</ele>
        <time>2021-07-22T17:31:17.223Z</time>
      </trkpt>
      <trkpt lat="50.53141" lon="3.25318">
        <ele>53.275168</ele>
        <time>2021-07-22T17:31:29.702Z</time>
      </trkpt>
      <trkpt lat="50.53107" lon="3.25322">
        <ele>53.261791</ele>
        <time>2021-07-22T17:31:36.609Z</time>
      </trkpt>
      <trkpt lat="50.53094" lon="3.25323">
        <ele>53.256719</ele>
        <time>2021-07-22T17:31:39.167Z</time>
      </trkpt>
      <trkpt lat="50.5307" lon="3.25321">
        <ele>53.24739</ele>
        <time>2021-07-22T17:31:42.717Z</time>
      </trkpt>
      <trkpt lat="50.53015" lon="3.25283">
        <ele>53.219567</ele>
        <time>2021-07-22T17:31:51.495Z</time>
      </trkpt>
      <trkpt lat="50.52976" lon="3.25272">
        <ele>53.174005</ele>
        <time>2021-07-22T17:31:57.193Z</time>
      </trkpt>
      <trkpt lat="50.52923" lon="3.25258">
        <ele>53.112944</ele>
        <time>2021-07-22T17:32:04.809Z</time>
      </trkpt>
      <trkpt lat="50.52855" lon="3.2524">
        <ele>53.034232</ele>
        <time>2021-07-22T17:32:14.745Z</time>
      </trkpt>
      <trkpt lat="50.52808" lon="3.25233">
        <ele>53.004677</ele>
        <time>2021-07-22T17:32:21.546Z</time>
      </trkpt>
      <trkpt lat="50.52608" lon="3.25231">
        <ele>53.04302</ele>
        <time>2021-07-22T17:32:50.905Z</time>
      </trkpt>
      <trkpt lat="50.52516" lon="3.25235">
        <ele>53.217137</ele>
        <time>2021-07-22T17:33:06.053Z</time>
      </trkpt>
      <trkpt lat="50.525" lon="3.2523">
        <ele>53.246149</ele>
        <time>2021-07-22T17:33:08.554Z</time>
      </trkpt>
      <trkpt lat="50.52487" lon="3.25227">
        <ele>53.272222</ele>
        <time>2021-07-22T17:33:10.707Z</time>
      </trkpt>
      <trkpt lat="50.52467" lon="3.25221">
        <ele>53.213053</ele>
        <time>2021-07-22T17:33:15.054Z</time>
      </trkpt>
      <trkpt lat="50.52414" lon="3.25208">
        <ele>53.016369</ele>
        <time>2021-07-22T17:33:25.794Z</time>
      </trkpt>
      <trkpt lat="50.52364" lon="3.25199">
        <ele>52.8269</ele>
        <time>2021-07-22T17:33:35.702Z</time>
      </trkpt>
      <trkpt lat="50.52126" lon="3.2522">
        <ele>50.520909</ele>
        <time>2021-07-22T17:34:16.441Z</time>
      </trkpt>
      <trkpt lat="50.52064" lon="3.25175">
        <ele>49.375556</ele>
        <time>2021-07-22T17:34:27.626Z</time>
      </trkpt>
      <trkpt lat="50.51937" lon="3.25166">
        <ele>47.175122</ele>
        <time>2021-07-22T17:34:47.965Z</time>
      </trkpt>
      <trkpt lat="50.51806" lon="3.2521">
        <ele>44.335867</ele>
        <time>2021-07-22T17:35:08.646Z</time>
      </trkpt>
      <trkpt lat="50.51703" lon="3.25206">
        <ele>42.670652</ele>
        <time>2021-07-22T17:35:25.051Z</time>
      </trkpt>
      <trkpt lat="50.51643" lon="3.2519">
        <ele>41.815229</ele>
        <time>2021-07-22T17:35:35.304Z</time>
      </trkpt>
      <trkpt lat="50.51613" lon="3.25193">
        <ele>41.400383</ele>
        <time>2021-07-22T17:35:40.458Z</time>
      </trkpt>
      <trkpt lat="50.5154" lon="3.25265">
        <ele>41.013779</ele>
        <time>2021-07-22T17:35:56.612Z</time>
      </trkpt>
      <trkpt lat="50.51455" lon="3.25435">
        <ele>40.843124</ele>
        <time>2021-07-22T17:36:24.333Z</time>
      </trkpt>
      <trkpt lat="50.51445" lon="3.25447">
        <ele>40.877534</ele>
        <time>2021-07-22T17:36:27.066Z</time>
      </trkpt>
      <trkpt lat="50.51436" lon="3.25458">
        <ele>40.907498</ele>
        <time>2021-07-22T17:36:29.420Z</time>
      </trkpt>
      <trkpt lat="50.51368" lon="3.25516">
        <ele>41.116422</ele>
        <time>2021-07-22T17:36:46.150Z</time>
      </trkpt>
      <trkpt lat="50.51353" lon="3.2552">
        <ele>41.155079</ele>
        <time>2021-07-22T17:36:49.320Z</time>
      </trkpt>
      <trkpt lat="50.51333" lon="3.25502">
        <ele>41.219115</ele>
        <time>2021-07-22T17:36:54.482Z</time>
      </trkpt>
      <trkpt lat="50.51252" lon="3.2543">
        <ele>41.540616</ele>
        <time>2021-07-22T17:37:14.845Z</time>
      </trkpt>
      <trkpt lat="50.51156" lon="3.25282">
        <ele>42.053307</ele>
        <time>2021-07-22T17:37:43.750Z</time>
      </trkpt>
      <trkpt lat="50.51106" lon="3.25221">
        <ele>42.336102</ele>
        <time>2021-07-22T17:37:57.365Z</time>
      </trkpt>
      <trkpt lat="50.50935" lon="3.24946">
        <ele>43.658616</ele>
        <time>2021-07-22T17:38:52.687Z</time>
      </trkpt>
      <trkpt lat="50.50917" lon="3.2492">
        <ele>43.79348</ele>
        <time>2021-07-22T17:38:58.416Z</time>
      </trkpt>
      <trkpt lat="50.50867" lon="3.24869">
        <ele>44.041066</ele>
        <time>2021-07-22T17:39:11.197Z</time>
      </trkpt>
      <trkpt lat="50.50857" lon="3.24861">
        <ele>44.08765</ele>
        <time>2021-07-22T17:39:14.006Z</time>
      </trkpt>
      <trkpt lat="50.50839" lon="3.24837">
        <ele>44.187718</ele>
        <time>2021-07-22T17:39:18.926Z</time>
      </trkpt>
      <trkpt lat="50.50825" lon="3.24804">
        <ele>44.295691</ele>
        <time>2021-07-22T17:39:24.780Z</time>
      </trkpt>
      <trkpt lat="50.5082" lon="3.24786">
        <ele>44.348106</ele>
        <time>2021-07-22T17:39:27.301Z</time>
      </trkpt>
      <trkpt lat="50.5081" lon="3.24779">
        <ele>44.390878</ele>
        <time>2021-07-22T17:39:29.883Z</time>
      </trkpt>
      <trkpt lat="50.50795" lon="3.24769">
        <ele>44.459664</ele>
        <time>2021-07-22T17:39:33.233Z</time>
      </trkpt>
      <trkpt lat="50.507" lon="3.24656">
        <ele>44.881014</ele>
        <time>2021-07-22T17:39:58.604Z</time>
      </trkpt>
      <trkpt lat="50.50651" lon="3.24541">
        <ele>45.198709</ele>
        <time>2021-07-22T17:40:17.905Z</time>
      </trkpt>
      <trkpt lat="50.50631" lon="3.2451">
        <ele>45.332976</ele>
        <time>2021-07-22T17:40:24.082Z</time>
      </trkpt>
      <trkpt lat="50.5062" lon="3.24501">
        <ele>45.395148</ele>
        <time>2021-07-22T17:40:26.921Z</time>
      </trkpt>
      <trkpt lat="50.50611" lon="3.245">
        <ele>45.437739</ele>
        <time>2021-07-22T17:40:28.826Z</time>
      </trkpt>
      <trkpt lat="50.50611" lon="3.24475">
        <ele>45.515761</ele>
        <time>2021-07-22T17:40:32.511Z</time>
      </trkpt>
      <trkpt lat="50.50609" lon="3.24437">
        <ele>45.630346</ele>
        <time>2021-07-22T17:40:37.721Z</time>
      </trkpt>
      <trkpt lat="50.50607" lon="3.24381">
        <ele>45.800522</ele>
        <time>2021-07-22T17:40:45.581Z</time>
      </trkpt>
      <trkpt lat="50.50601" lon="3.2438">
        <ele>45.832236</ele>
        <time>2021-07-22T17:40:47.098Z</time>
      </trkpt>
      <trkpt lat="50.50533" lon="3.24427">
        <ele>46.157803</ele>
        <time>2021-07-22T17:41:03.863Z</time>
      </trkpt>
      <trkpt lat="50.50499" lon="3.24462">
        <ele>46.325069</ele>
        <time>2021-07-22T17:41:12.938Z</time>
      </trkpt>
      <trkpt lat="50.50486" lon="3.24483">
        <ele>46.40068</ele>
        <time>2021-07-22T17:41:16.974Z</time>
      </trkpt>
      <trkpt lat="50.50465" lon="3.24526">
        <ele>46.543397</ele>
        <time>2021-07-22T17:41:24.404Z</time>
      </trkpt>
      <trkpt lat="50.50463" lon="3.24529">
        <ele>46.555551</ele>
        <time>2021-07-22T17:41:25.089Z</time>
      </trkpt>
      <trkpt lat="50.5045" lon="3.2455">
        <ele>46.630901</ele>
        <time>2021-07-22T17:41:28.970Z</time>
      </trkpt>
      <trkpt lat="50.5043" lon="3.24575">
        <ele>46.734395</ele>
        <time>2021-07-22T17:41:34.460Z</time>
      </trkpt>
      <trkpt lat="50.50393" lon="3.24565">
        <ele>46.786222</ele>
        <time>2021-07-22T17:41:42.430Z</time>
      </trkpt>
      <trkpt lat="50.50367" lon="3.24558">
        <ele>46.822683</ele>
        <time>2021-07-22T17:41:48.019Z</time>
      </trkpt>
      <trkpt lat="50.50211" lon="3.24515">
        <ele>47.113859</ele>
        <time>2021-07-22T17:42:20.203Z</time>
      </trkpt>
      <trkpt lat="50.50156" lon="3.24519">
        <ele>47.283574</ele>
        <time>2021-07-22T17:42:31.906Z</time>
      </trkpt>
      <trkpt lat="50.50115" lon="3.24533">
        <ele>47.415806</ele>
        <time>2021-07-22T17:42:41.136Z</time>
      </trkpt>
      <trkpt lat="50.50088" lon="3.24532">
        <ele>47.499042</ele>
        <time>2021-07-22T17:42:47.198Z</time>
      </trkpt>
      <trkpt lat="50.50076" lon="3.24528">
        <ele>47.538311</ele>
        <time>2021-07-22T17:42:49.915Z</time>
      </trkpt>
      <trkpt lat="50.5006" lon="3.24513">
        <ele>47.686666</ele>
        <time>2021-07-22T17:42:54.072Z</time>
      </trkpt>
      <trkpt lat="50.50052" lon="3.24505">
        <ele>47.77014</ele>
        <time>2021-07-22T17:42:56.406Z</time>
      </trkpt>
      <trkpt lat="50.50052" lon="3.24505">
        <ele>47.77014</ele>
        <time>2021-07-22T17:42:56.408Z</time>
      </trkpt>
      <trkpt lat="50.50042" lon="3.24521">
        <ele>47.887409</ele>
        <time>2021-07-22T17:42:58.764Z</time>
      </trkpt>
      <trkpt lat="50.50038" lon="3.24545">
        <ele>48.01703</ele>
        <time>2021-07-22T17:43:01.711Z</time>
      </trkpt>
      <trkpt lat="50.49942" lon="3.24791">
        <ele>49.372806</ele>
        <time>2021-07-22T17:43:35.967Z</time>
      </trkpt>
      <trkpt lat="50.49928" lon="3.24823">
        <ele>49.50829</ele>
        <time>2021-07-22T17:43:40.265Z</time>
      </trkpt>
      <trkpt lat="50.49915" lon="3.24855">
        <ele>49.645623</ele>
        <time>2021-07-22T17:43:44.511Z</time>
      </trkpt>
      <trkpt lat="50.49893" lon="3.24906">
        <ele>49.865118</ele>
        <time>2021-07-22T17:43:50.909Z</time>
      </trkpt>
      <trkpt lat="50.4987" lon="3.24963">
        <ele>49.953291</ele>
        <time>2021-07-22T17:43:57.571Z</time>
      </trkpt>
      <trkpt lat="50.4986" lon="3.24986">
        <ele>49.841522</ele>
        <time>2021-07-22T17:44:00.208Z</time>
      </trkpt>
      <trkpt lat="50.49866" lon="3.25">
        <ele>49.769106</ele>
        <time>2021-07-22T17:44:01.737Z</time>
      </trkpt>
      <trkpt lat="50.49886" lon="3.25041">
        <ele>49.560238</ele>
        <time>2021-07-22T17:44:06.118Z</time>
      </trkpt>
      <trkpt lat="50.49896" lon="3.25079">
        <ele>49.394192</ele>
        <time>2021-07-22T17:44:09.407Z</time>
      </trkpt>
      <trkpt lat="50.49891" lon="3.2509">
        <ele>49.336764</ele>
        <time>2021-07-22T17:44:10.542Z</time>
      </trkpt>
      <trkpt lat="50.49878" lon="3.25113">
        <ele>49.211378</ele>
        <time>2021-07-22T17:44:12.940Z</time>
      </trkpt>
      <trkpt lat="50.49868" lon="3.2513">
        <ele>49.118531</ele>
        <time>2021-07-22T17:44:14.778Z</time>
      </trkpt>
      <trkpt lat="50.4986" lon="3.25146">
        <ele>49.035608</ele>
        <time>2021-07-22T17:44:16.293Z</time>
      </trkpt>
      <trkpt lat="50.49833" lon="3.25194">
        <ele>48.691218</ele>
        <time>2021-07-22T17:44:21.187Z</time>
      </trkpt>
      <trkpt lat="50.49812" lon="3.25243">
        <ele>48.282875</ele>
        <time>2021-07-22T17:44:25.565Z</time>
      </trkpt>
      <trkpt lat="50.49765" lon="3.25316">
        <ele>47.548686</ele>
        <time>2021-07-22T17:44:33.513Z</time>
      </trkpt>
      <trkpt lat="50.4974" lon="3.25349">
        <ele>47.196293</ele>
        <time>2021-07-22T17:44:37.408Z</time>
      </trkpt>
      <trkpt lat="50.49715" lon="3.25361">
        <ele>46.900398</ele>
        <time>2021-07-22T17:44:40.719Z</time>
      </trkpt>
      <trkpt lat="50.49689" lon="3.25372">
        <ele>46.792585</ele>
        <time>2021-07-22T17:44:44.033Z</time>
      </trkpt>
      <trkpt lat="50.49652" lon="3.25405">
        <ele>46.617364</ele>
        <time>2021-07-22T17:44:49.559Z</time>
      </trkpt>
      <trkpt lat="50.49616" lon="3.25505">
        <ele>46.31642</ele>
        <time>2021-07-22T17:44:59.486Z</time>
      </trkpt>
      <trkpt lat="50.496" lon="3.25577">
        <ele>46.172686</ele>
        <time>2021-07-22T17:45:06.769Z</time>
      </trkpt>
      <trkpt lat="50.4952" lon="3.25718">
        <ele>46.320118</ele>
        <time>2021-07-22T17:45:25.556Z</time>
      </trkpt>
      <trkpt lat="50.49498" lon="3.25762">
        <ele>46.363846</ele>
        <time>2021-07-22T17:45:31.130Z</time>
      </trkpt>
      <trkpt lat="50.49488" lon="3.25809">
        <ele>46.366935</ele>
        <time>2021-07-22T17:45:35.985Z</time>
      </trkpt>
      <trkpt lat="50.49468" lon="3.25914">
        <ele>46.315227</ele>
        <time>2021-07-22T17:45:46.517Z</time>
      </trkpt>
      <trkpt lat="50.49455" lon="3.26032">
        <ele>46.259053</ele>
        <time>2021-07-22T17:45:57.380Z</time>
      </trkpt>
      <trkpt lat="50.49407" lon="3.26185">
        <ele>45.847939</ele>
        <time>2021-07-22T17:46:11.839Z</time>
      </trkpt>
      <trkpt lat="50.49349" lon="3.263">
        <ele>45.462905</ele>
        <time>2021-07-22T17:46:24.417Z</time>
      </trkpt>
      <trkpt lat="50.49342" lon="3.26313">
        <ele>45.450091</ele>
        <time>2021-07-22T17:46:25.883Z</time>
      </trkpt>
      <trkpt lat="50.49339" lon="3.26324">
        <ele>45.441341</ele>
        <time>2021-07-22T17:46:26.871Z</time>
      </trkpt>
      <trkpt lat="50.49331" lon="3.26346">
        <ele>45.422488</ele>
        <time>2021-07-22T17:46:29.256Z</time>
      </trkpt>
      <trkpt lat="50.49331" lon="3.26359">
        <ele>45.412479</ele>
        <time>2021-07-22T17:46:30.430Z</time>
      </trkpt>
      <trkpt lat="50.49333" lon="3.26368">
        <ele>45.405832</ele>
        <time>2021-07-22T17:46:31.223Z</time>
      </trkpt>
      <trkpt lat="50.49336" lon="3.26375">
        <ele>45.398814</ele>
        <time>2021-07-22T17:46:32.004Z</time>
      </trkpt>
      <trkpt lat="50.49334" lon="3.2638">
        <ele>45.393958</ele>
        <time>2021-07-22T17:46:32.643Z</time>
      </trkpt>
      <trkpt lat="50.49332" lon="3.26389">
        <ele>45.38717</ele>
        <time>2021-07-22T17:46:33.521Z</time>
      </trkpt>
      <trkpt lat="50.4933" lon="3.26397">
        <ele>45.380669</ele>
        <time>2021-07-22T17:46:34.358Z</time>
      </trkpt>
      <trkpt lat="50.49324" lon="3.26402">
        <ele>45.372397</ele>
        <time>2021-07-22T17:46:35.341Z</time>
      </trkpt>
      <trkpt lat="50.49313" lon="3.26407">
        <ele>45.359559</ele>
        <time>2021-07-22T17:46:36.839Z</time>
      </trkpt>
      <trkpt lat="50.49305" lon="3.26416">
        <ele>45.347933</ele>
        <time>2021-07-22T17:46:38.331Z</time>
      </trkpt>
      <trkpt lat="50.49287" lon="3.26437">
        <ele>45.32207</ele>
        <time>2021-07-22T17:46:41.528Z</time>
      </trkpt>
      <trkpt lat="50.49273" lon="3.26446">
        <ele>45.304422</ele>
        <time>2021-07-22T17:46:43.747Z</time>
      </trkpt>
      <trkpt lat="50.4926" lon="3.26472">
        <ele>45.279402</ele>
        <time>2021-07-22T17:46:46.897Z</time>
      </trkpt>
      <trkpt lat="50.49234" lon="3.26536">
        <ele>45.293545</ele>
        <time>2021-07-22T17:46:54.422Z</time>
      </trkpt>
      <trkpt lat="50.49188" lon="3.26757">
        <ele>45.453861</ele>
        <time>2021-07-22T17:47:17.411Z</time>
      </trkpt>
      <trkpt lat="50.49122" lon="3.26962">
        <ele>45.292838</ele>
        <time>2021-07-22T17:47:38.559Z</time>
      </trkpt>
      <trkpt lat="50.49106" lon="3.27013">
        <ele>45.243101</ele>
        <time>2021-07-22T17:47:43.721Z</time>
      </trkpt>
      <trkpt lat="50.49087" lon="3.27057">
        <ele>45.057359</ele>
        <time>2021-07-22T17:47:48.358Z</time>
      </trkpt>
      <trkpt lat="50.48966" lon="3.27247">
        <ele>44.087181</ele>
        <time>2021-07-22T17:48:10.478Z</time>
      </trkpt>
      <trkpt lat="50.48951" lon="3.27286">
        <ele>43.907138</ele>
        <time>2021-07-22T17:48:14.163Z</time>
      </trkpt>
      <trkpt lat="50.48947" lon="3.27309">
        <ele>43.813203</ele>
        <time>2021-07-22T17:48:16.064Z</time>
      </trkpt>
      <trkpt lat="50.48929" lon="3.27302">
        <ele>43.698898</ele>
        <time>2021-07-22T17:48:18.438Z</time>
      </trkpt>
      <trkpt lat="50.48917" lon="3.27314">
        <ele>43.615227</ele>
        <time>2021-07-22T17:48:20.849Z</time>
      </trkpt>
      <trkpt lat="50.48823" lon="3.27413">
        <ele>43.14384</ele>
        <time>2021-07-22T17:48:41.742Z</time>
      </trkpt>
      <trkpt lat="50.4874" lon="3.27518">
        <ele>43.16615</ele>
        <time>2021-07-22T17:49:03.497Z</time>
      </trkpt>
      <trkpt lat="50.48668" lon="3.27589">
        <ele>43.547484</ele>
        <time>2021-07-22T17:49:22.681Z</time>
      </trkpt>
      <trkpt lat="50.48594" lon="3.27646">
        <ele>44.178573</ele>
        <time>2021-07-22T17:49:42.073Z</time>
      </trkpt>
      <trkpt lat="50.4858" lon="3.27662">
        <ele>44.308803</ele>
        <time>2021-07-22T17:49:46.232Z</time>
      </trkpt>
      <trkpt lat="50.48565" lon="3.27691">
        <ele>44.494351</ele>
        <time>2021-07-22T17:49:52.027Z</time>
      </trkpt>
      <trkpt lat="50.48552" lon="3.27726">
        <ele>44.708816</ele>
        <time>2021-07-22T17:49:58.296Z</time>
      </trkpt>
      <trkpt lat="50.48484" lon="3.27975">
        <ele>46.105363</ele>
        <time>2021-07-22T17:50:39.377Z</time>
      </trkpt>
      <trkpt lat="50.48469" lon="3.28009">
        <ele>46.151963</ele>
        <time>2021-07-22T17:50:45.224Z</time>
      </trkpt>
      <trkpt lat="50.48413" lon="3.28102">
        <ele>46.295449</ele>
        <time>2021-07-22T17:51:02.113Z</time>
      </trkpt>
      <trkpt lat="50.48403" lon="3.28112">
        <ele>46.316556</ele>
        <time>2021-07-22T17:51:04.844Z</time>
      </trkpt>
      <trkpt lat="50.48403" lon="3.2813">
        <ele>46.336645</ele>
        <time>2021-07-22T17:51:06.334Z</time>
      </trkpt>
      <trkpt lat="50.48404" lon="3.28242">
        <ele>46.262267</ele>
        <time>2021-07-22T17:51:16.283Z</time>
      </trkpt>
      <trkpt lat="50.484" lon="3.28261">
        <ele>46.205224</ele>
        <time>2021-07-22T17:51:17.973Z</time>
      </trkpt>
      <trkpt lat="50.48386" lon="3.28302">
        <ele>46.073904</ele>
        <time>2021-07-22T17:51:22.053Z</time>
      </trkpt>
      <trkpt lat="50.48362" lon="3.28379">
        <ele>45.837468</ele>
        <time>2021-07-22T17:51:29.204Z</time>
      </trkpt>
      <trkpt lat="50.48365" lon="3.28455">
        <ele>45.626412</ele>
        <time>2021-07-22T17:51:35.549Z</time>
      </trkpt>
      <trkpt lat="50.48351" lon="3.28504">
        <ele>45.463269</ele>
        <time>2021-07-22T17:51:40.094Z</time>
      </trkpt>
      <trkpt lat="50.48323" lon="3.28589">
        <ele>45.175581</ele>
        <time>2021-07-22T17:51:48.326Z</time>
      </trkpt>
      <trkpt lat="50.48319" lon="3.286">
        <ele>45.139653</ele>
        <time>2021-07-22T17:51:49.365Z</time>
      </trkpt>
      <trkpt lat="50.48308" lon="3.28593">
        <ele>45.083439</ele>
        <time>2021-07-22T17:51:50.940Z</time>
      </trkpt>
      <trkpt lat="50.48191" lon="3.28531">
        <ele>44.469983</ele>
        <time>2021-07-22T17:52:07.298Z</time>
      </trkpt>
      <trkpt lat="50.48114" lon="3.2849">
        <ele>44.037087</ele>
        <time>2021-07-22T17:52:18.065Z</time>
      </trkpt>
      <trkpt lat="50.48081" lon="3.28453">
        <ele>43.822409</ele>
        <time>2021-07-22T17:52:23.389Z</time>
      </trkpt>
      <trkpt lat="50.48025" lon="3.28388">
        <ele>43.583959</ele>
        <time>2021-07-22T17:52:32.667Z</time>
      </trkpt>
      <trkpt lat="50.47983" lon="3.28347">
        <ele>43.416793</ele>
        <time>2021-07-22T17:52:39.418Z</time>
      </trkpt>
      <trkpt lat="50.47881" lon="3.28224">
        <ele>42.861963</ele>
        <time>2021-07-22T17:52:57.657Z</time>
      </trkpt>
      <trkpt lat="50.47846" lon="3.28167">
        <ele>42.596873</ele>
        <time>2021-07-22T17:53:04.502Z</time>
      </trkpt>
      <trkpt lat="50.47817" lon="3.28124">
        <ele>42.389344</ele>
        <time>2021-07-22T17:53:09.702Z</time>
      </trkpt>
      <trkpt lat="50.47783" lon="3.28084">
        <ele>41.98026</ele>
        <time>2021-07-22T17:53:14.805Z</time>
      </trkpt>
      <trkpt lat="50.47732" lon="3.28033">
        <ele>41.032121</ele>
        <time>2021-07-22T17:53:21.842Z</time>
      </trkpt>
      <trkpt lat="50.47718" lon="3.28036">
        <ele>40.809538</ele>
        <time>2021-07-22T17:53:23.408Z</time>
      </trkpt>
      <trkpt lat="50.47667" lon="3.28097">
        <ele>39.81255</ele>
        <time>2021-07-22T17:53:30.550Z</time>
      </trkpt>
      <trkpt lat="50.47662" lon="3.281">
        <ele>39.722703</ele>
        <time>2021-07-22T17:53:31.135Z</time>
      </trkpt>
      <trkpt lat="50.47651" lon="3.28103">
        <ele>39.551654</ele>
        <time>2021-07-22T17:53:32.866Z</time>
      </trkpt>
      <trkpt lat="50.47434" lon="3.28127">
        <ele>35.96032</ele>
        <time>2021-07-22T17:54:08.167Z</time>
      </trkpt>
      <trkpt lat="50.474" lon="3.28133">
        <ele>35.442869</ele>
        <time>2021-07-22T17:54:13.836Z</time>
      </trkpt>
      <trkpt lat="50.47368" lon="3.28168">
        <ele>34.852928</ele>
        <time>2021-07-22T17:54:20.275Z</time>
      </trkpt>
      <trkpt lat="50.47257" lon="3.28315">
        <ele>32.662953</ele>
        <time>2021-07-22T17:54:44.205Z</time>
      </trkpt>
      <trkpt lat="50.47229" lon="3.28334">
        <ele>32.201307</ele>
        <time>2021-07-22T17:54:49.348Z</time>
      </trkpt>
      <trkpt lat="50.472" lon="3.28342">
        <ele>31.767104</ele>
        <time>2021-07-22T17:54:54.117Z</time>
      </trkpt>
      <trkpt lat="50.47179" lon="3.2836">
        <ele>31.403736</ele>
        <time>2021-07-22T17:54:58.105Z</time>
      </trkpt>
      <trkpt lat="50.47121" lon="3.28487">
        <ele>30.021255</ele>
        <time>2021-07-22T17:55:14.494Z</time>
      </trkpt>
      <trkpt lat="50.47101" lon="3.28524">
        <ele>29.604827</ele>
        <time>2021-07-22T17:55:19.632Z</time>
      </trkpt>
      <trkpt lat="50.47069" lon="3.28565">
        <ele>29.050171</ele>
        <time>2021-07-22T17:55:26.569Z</time>
      </trkpt>
      <trkpt lat="50.46964" lon="3.28595">
        <ele>27.890427</ele>
        <time>2021-07-22T17:55:44.731Z</time>
      </trkpt>
      <trkpt lat="50.46831" lon="3.28595">
        <ele>26.67327</ele>
        <time>2021-07-22T17:56:08.464Z</time>
      </trkpt>
      <trkpt lat="50.4683" lon="3.28606">
        <ele>26.62438</ele>
        <time>2021-07-22T17:56:09.588Z</time>
      </trkpt>
      <trkpt lat="50.4682" lon="3.28733">
        <ele>26.045788</ele>
        <time>2021-07-22T17:56:24.386Z</time>
      </trkpt>
      <trkpt lat="50.46805" lon="3.28809">
        <ele>25.68688</ele>
        <time>2021-07-22T17:56:33.700Z</time>
      </trkpt>
      <trkpt lat="50.46807" lon="3.289">
        <ele>25.308691</ele>
        <time>2021-07-22T17:56:44.167Z</time>
      </trkpt>
      <trkpt lat="50.46792" lon="3.29011">
        <ele>24.844259</ele>
        <time>2021-07-22T17:56:57.453Z</time>
      </trkpt>
      <trkpt lat="50.46789" lon="3.29022">
        <ele>24.797388</ele>
        <time>2021-07-22T17:56:58.822Z</time>
      </trkpt>
      <trkpt lat="50.46783" lon="3.29042">
        <ele>24.710368</ele>
        <time>2021-07-22T17:57:01.310Z</time>
      </trkpt>
      <trkpt lat="50.4678" lon="3.29065">
        <ele>24.613931</ele>
        <time>2021-07-22T17:57:04.045Z</time>
      </trkpt>
      <trkpt lat="50.4679" lon="3.2906">
        <ele>24.546087</ele>
        <time>2021-07-22T17:57:05.449Z</time>
      </trkpt>
      <trkpt lat="50.4678" lon="3.29065">
        <ele>24.478244</ele>
        <time>2021-07-22T17:57:06.818Z</time>
      </trkpt>
      <trkpt lat="50.46775" lon="3.29067">
        <ele>24.44159</ele>
        <time>2021-07-22T17:57:07.564Z</time>
      </trkpt>
      <trkpt lat="50.46752" lon="3.29075">
        <ele>24.300975</ele>
        <time>2021-07-22T17:57:10.628Z</time>
      </trkpt>
      <trkpt lat="50.46724" lon="3.29072">
        <ele>24.133492</ele>
        <time>2021-07-22T17:57:14.279Z</time>
      </trkpt>
      <trkpt lat="50.46694" lon="3.29051">
        <ele>23.939254</ele>
        <time>2021-07-22T17:57:18.492Z</time>
      </trkpt>
      <trkpt lat="50.46587" lon="3.28968">
        <ele>23.263768</ele>
        <time>2021-07-22T17:57:34.079Z</time>
      </trkpt>
      <trkpt lat="50.46566" lon="3.2894">
        <ele>23.139394</ele>
        <time>2021-07-22T17:57:37.807Z</time>
      </trkpt>
      <trkpt lat="50.46559" lon="3.28928">
        <ele>23.094255</ele>
        <time>2021-07-22T17:57:39.133Z</time>
      </trkpt>
      <trkpt lat="50.46531" lon="3.28877">
        <ele>22.89894</ele>
        <time>2021-07-22T17:57:44.956Z</time>
      </trkpt>
      <trkpt lat="50.46518" lon="3.28858">
        <ele>22.816746</ele>
        <time>2021-07-22T17:57:47.454Z</time>
      </trkpt>
      <trkpt lat="50.46503" lon="3.28845">
        <ele>22.739409</ele>
        <time>2021-07-22T17:57:49.726Z</time>
      </trkpt>
      <trkpt lat="50.4626" lon="3.28697">
        <ele>21.814433</ele>
        <time>2021-07-22T17:58:24.999Z</time>
      </trkpt>
      <trkpt lat="50.46234" lon="3.28694">
        <ele>21.776771</ele>
        <time>2021-07-22T17:58:28.606Z</time>
      </trkpt>
      <trkpt lat="50.46212" lon="3.28702">
        <ele>21.744043</ele>
        <time>2021-07-22T17:58:31.829Z</time>
      </trkpt>
      <trkpt lat="50.46161" lon="3.28734">
        <ele>21.665735</ele>
        <time>2021-07-22T17:58:39.689Z</time>
      </trkpt>
      <trkpt lat="50.4609" lon="3.28781">
        <ele>21.698598</ele>
        <time>2021-07-22T17:58:51.382Z</time>
      </trkpt>
      <trkpt lat="50.46035" lon="3.28819">
        <ele>21.83092</ele>
        <time>2021-07-22T17:59:00.883Z</time>
      </trkpt>
      <trkpt lat="50.45995" lon="3.28843">
        <ele>21.923542</ele>
        <time>2021-07-22T17:59:07.571Z</time>
      </trkpt>
      <trkpt lat="50.45937" lon="3.28877">
        <ele>22.103296</ele>
        <time>2021-07-22T17:59:17.673Z</time>
      </trkpt>
      <trkpt lat="50.45882" lon="3.28895">
        <ele>22.331299</ele>
        <time>2021-07-22T17:59:27.093Z</time>
      </trkpt>
      <trkpt lat="50.45878" lon="3.28897">
        <ele>22.35073</ele>
        <time>2021-07-22T17:59:27.833Z</time>
      </trkpt>
      <trkpt lat="50.45866" lon="3.28896">
        <ele>22.397657</ele>
        <time>2021-07-22T17:59:29.775Z</time>
      </trkpt>
      <trkpt lat="50.4586" lon="3.28896">
        <ele>22.423548</ele>
        <time>2021-07-22T17:59:30.771Z</time>
      </trkpt>
      <trkpt lat="50.45867" lon="3.28854">
        <ele>22.533776</ele>
        <time>2021-07-22T17:59:35.433Z</time>
      </trkpt>
      <trkpt lat="50.4587" lon="3.28836">
        <ele>22.581601</ele>
        <time>2021-07-22T17:59:37.417Z</time>
      </trkpt>
      <trkpt lat="50.45876" lon="3.28805">
        <ele>22.666721</ele>
        <time>2021-07-22T17:59:40.890Z</time>
      </trkpt>
      <trkpt lat="50.45889" lon="3.28723">
        <ele>22.779357</ele>
        <time>2021-07-22T17:59:49.491Z</time>
      </trkpt>
      <trkpt lat="50.45908" lon="3.28684">
        <ele>22.820299</ele>
        <time>2021-07-22T17:59:54.432Z</time>
      </trkpt>
      <trkpt lat="50.45915" lon="3.28673">
        <ele>22.833077</ele>
        <time>2021-07-22T17:59:56.084Z</time>
      </trkpt>
      <trkpt lat="50.45924" lon="3.28655">
        <ele>22.851378</ele>
        <time>2021-07-22T17:59:58.304Z</time>
      </trkpt>
      <trkpt lat="50.45931" lon="3.28636">
        <ele>22.869533</ele>
        <time>2021-07-22T18:00:00.548Z</time>
      </trkpt>
      <trkpt lat="50.45909" lon="3.28614">
        <ele>22.902657</ele>
        <time>2021-07-22T18:00:05.854Z</time>
      </trkpt>
      <trkpt lat="50.45886" lon="3.28586">
        <ele>22.940732</ele>
        <time>2021-07-22T18:00:11.774Z</time>
      </trkpt>
      <trkpt lat="50.45864" lon="3.28571">
        <ele>22.940248</ele>
        <time>2021-07-22T18:00:16.377Z</time>
      </trkpt>
      <trkpt lat="50.45859" lon="3.28567">
        <ele>22.922824</ele>
        <time>2021-07-22T18:00:17.292Z</time>
      </trkpt>
      <trkpt lat="50.45827" lon="3.28529">
        <ele>22.777061</ele>
        <time>2021-07-22T18:00:24.875Z</time>
      </trkpt>
      <trkpt lat="50.45822" lon="3.28522">
        <ele>22.753171</ele>
        <time>2021-07-22T18:00:26.124Z</time>
      </trkpt>
      <trkpt lat="50.45756" lon="3.28438">
        <ele>22.446102</ele>
        <time>2021-07-22T18:00:42.110Z</time>
      </trkpt>
      <trkpt lat="50.45752" lon="3.28433">
        <ele>22.427725</ele>
        <time>2021-07-22T18:00:43.000Z</time>
      </trkpt>
      <trkpt lat="50.45737" lon="3.28411">
        <ele>22.354523</ele>
        <time>2021-07-22T18:00:47.185Z</time>
      </trkpt>
      <trkpt lat="50.45733" lon="3.28406">
        <ele>22.338509</ele>
        <time>2021-07-22T18:00:48.046Z</time>
      </trkpt>
      <trkpt lat="50.45723" lon="3.28392">
        <ele>22.282392</ele>
        <time>2021-07-22T18:00:50.651Z</time>
      </trkpt>
      <trkpt lat="50.45715" lon="3.2838">
        <ele>22.235981</ele>
        <time>2021-07-22T18:00:53.007Z</time>
      </trkpt>
      <trkpt lat="50.45714" lon="3.28365">
        <ele>22.19587</ele>
        <time>2021-07-22T18:00:54.792Z</time>
      </trkpt>
      <trkpt lat="50.45747" lon="3.28235">
        <ele>21.81115</ele>
        <time>2021-07-22T18:01:11.271Z</time>
      </trkpt>
      <trkpt lat="50.45749" lon="3.28228">
        <ele>21.791728</ele>
        <time>2021-07-22T18:01:12.253Z</time>
      </trkpt>
      <trkpt lat="50.45743" lon="3.28203">
        <ele>21.716073</ele>
        <time>2021-07-22T18:01:15.435Z</time>
      </trkpt>
      <trkpt lat="50.45727" lon="3.2817">
        <ele>21.602954</ele>
        <time>2021-07-22T18:01:20.442Z</time>
      </trkpt>
      <trkpt lat="50.45725" lon="3.28168">
        <ele>21.595124</ele>
        <time>2021-07-22T18:01:20.762Z</time>
      </trkpt>
      <trkpt lat="50.45712" lon="3.28147">
        <ele>21.524274</ele>
        <time>2021-07-22T18:01:24.295Z</time>
      </trkpt>
      <trkpt lat="50.45704" lon="3.28135">
        <ele>21.494082</ele>
        <time>2021-07-22T18:01:26.429Z</time>
      </trkpt>
      <trkpt lat="50.45681" lon="3.28102">
        <ele>21.407941</ele>
        <time>2021-07-22T18:01:32.299Z</time>
      </trkpt>
      <trkpt lat="50.4565" lon="3.28064">
        <ele>21.299417</ele>
        <time>2021-07-22T18:01:39.748Z</time>
      </trkpt>
      <trkpt lat="50.45642" lon="3.28053">
        <ele>21.268753</ele>
        <time>2021-07-22T18:01:41.795Z</time>
      </trkpt>
      <trkpt lat="50.4559" lon="3.28495">
        <ele>20.792275</ele>
        <time>2021-07-22T18:02:38.940Z</time>
      </trkpt>
      <trkpt lat="50.4557" lon="3.28799">
        <ele>20.154336</ele>
        <time>2021-07-22T18:03:15.711Z</time>
      </trkpt>
      <trkpt lat="50.45569" lon="3.28927">
        <ele>19.92431</ele>
        <time>2021-07-22T18:03:30.991Z</time>
      </trkpt>
      <trkpt lat="50.45568" lon="3.29106">
        <ele>19.738244</ele>
        <time>2021-07-22T18:03:53.880Z</time>
      </trkpt>
      <trkpt lat="50.45573" lon="3.29307">
        <ele>19.686075</ele>
        <time>2021-07-22T18:04:19.736Z</time>
      </trkpt>
      <trkpt lat="50.45553" lon="3.29363">
        <ele>19.641518</ele>
        <time>2021-07-22T18:04:27.833Z</time>
      </trkpt>
      <trkpt lat="50.45512" lon="3.29432">
        <ele>19.574831</ele>
        <time>2021-07-22T18:04:39.952Z</time>
      </trkpt>
      <trkpt lat="50.45498" lon="3.29468">
        <ele>19.545827</ele>
        <time>2021-07-22T18:04:45.063Z</time>
      </trkpt>
      <trkpt lat="50.4542" lon="3.29555">
        <ele>19.430676</ele>
        <time>2021-07-22T18:05:03.890Z</time>
      </trkpt>
      <trkpt lat="50.45365" lon="3.29594">
        <ele>19.353507</ele>
        <time>2021-07-22T18:05:15.869Z</time>
      </trkpt>
      <trkpt lat="50.45314" lon="3.29609">
        <ele>19.28601</ele>
        <time>2021-07-22T18:05:26.416Z</time>
      </trkpt>
      <trkpt lat="50.4523" lon="3.29611">
        <ele>19.2082</ele>
        <time>2021-07-22T18:05:42.921Z</time>
      </trkpt>
      <trkpt lat="50.45178" lon="3.29621">
        <ele>19.165732</ele>
        <time>2021-07-22T18:05:53.196Z</time>
      </trkpt>
      <trkpt lat="50.45094" lon="3.29663">
        <ele>19.125065</ele>
        <time>2021-07-22T18:06:10.701Z</time>
      </trkpt>
      <trkpt lat="50.44984" lon="3.29702">
        <ele>19.175653</ele>
        <time>2021-07-22T18:06:34.074Z</time>
      </trkpt>
      <trkpt lat="50.4488" lon="3.29689">
        <ele>19.367871</ele>
        <time>2021-07-22T18:06:55.170Z</time>
      </trkpt>
      <trkpt lat="50.44813" lon="3.29696">
        <ele>19.559362</ele>
        <time>2021-07-22T18:07:08.972Z</time>
      </trkpt>
      <trkpt lat="50.44735" lon="3.2967">
        <ele>20.236036</ele>
        <time>2021-07-22T18:07:27.171Z</time>
      </trkpt>
      <trkpt lat="50.44732" lon="3.29668">
        <ele>20.290975</ele>
        <time>2021-07-22T18:07:27.951Z</time>
      </trkpt>
      <trkpt lat="50.44723" lon="3.29661">
        <ele>20.469941</ele>
        <time>2021-07-22T18:07:30.410Z</time>
      </trkpt>
      <trkpt lat="50.44617" lon="3.29582">
        <ele>22.641849</ele>
        <time>2021-07-22T18:08:04.165Z</time>
      </trkpt>
      <trkpt lat="50.44597" lon="3.29569">
        <ele>23.032303</ele>
        <time>2021-07-22T18:08:10.848Z</time>
      </trkpt>
      <trkpt lat="50.44539" lon="3.29534">
        <ele>24.119521</ele>
        <time>2021-07-22T18:08:30.240Z</time>
      </trkpt>
      <trkpt lat="50.44218" lon="3.29327">
        <ele>28.453134</ele>
        <time>2021-07-22T18:09:57.679Z</time>
      </trkpt>
      <trkpt lat="50.44181" lon="3.29324">
        <ele>28.552972</ele>
        <time>2021-07-22T18:10:05.140Z</time>
      </trkpt>
      <trkpt lat="50.44136" lon="3.29347">
        <ele>28.679918</ele>
        <time>2021-07-22T18:10:14.465Z</time>
      </trkpt>
      <trkpt lat="50.44098" lon="3.29368">
        <ele>28.787836</ele>
        <time>2021-07-22T18:10:22.297Z</time>
      </trkpt>
      <trkpt lat="50.44053" lon="3.2938">
        <ele>28.792575</ele>
        <time>2021-07-22T18:10:31.217Z</time>
      </trkpt>
      <trkpt lat="50.4404" lon="3.29385">
        <ele>28.790184</ele>
        <time>2021-07-22T18:10:33.590Z</time>
      </trkpt>
      <trkpt lat="50.44023" lon="3.2939">
        <ele>28.786979</ele>
        <time>2021-07-22T18:10:37.123Z</time>
      </trkpt>
      <trkpt lat="50.43938" lon="3.2945">
        <ele>28.769782</ele>
        <time>2021-07-22T18:10:56.283Z</time>
      </trkpt>
      <trkpt lat="50.43896" lon="3.29467">
        <ele>28.794519</ele>
        <time>2021-07-22T18:11:05.390Z</time>
      </trkpt>
      <trkpt lat="50.43847" lon="3.29463">
        <ele>28.842776</ele>
        <time>2021-07-22T18:11:15.508Z</time>
      </trkpt>
      <trkpt lat="50.43838" lon="3.29463">
        <ele>28.85177</ele>
        <time>2021-07-22T18:11:17.369Z</time>
      </trkpt>
      <trkpt lat="50.43822" lon="3.29464">
        <ele>28.867711</ele>
        <time>2021-07-22T18:11:20.701Z</time>
      </trkpt>
      <trkpt lat="50.43786" lon="3.29466">
        <ele>28.903033</ele>
        <time>2021-07-22T18:11:28.124Z</time>
      </trkpt>
      <trkpt lat="50.43689" lon="3.29478">
        <ele>28.889316</ele>
        <time>2021-07-22T18:11:47.980Z</time>
      </trkpt>
      <trkpt lat="50.43672" lon="3.29483">
        <ele>28.872417</ele>
        <time>2021-07-22T18:11:51.541Z</time>
      </trkpt>
      <trkpt lat="50.43647" lon="3.29491">
        <ele>28.8484</ele>
        <time>2021-07-22T18:11:56.466Z</time>
      </trkpt>
      <trkpt lat="50.43622" lon="3.29504">
        <ele>28.822906</ele>
        <time>2021-07-22T18:12:01.566Z</time>
      </trkpt>
      <trkpt lat="50.43616" lon="3.29512">
        <ele>28.815523</ele>
        <time>2021-07-22T18:12:03.108Z</time>
      </trkpt>
      <trkpt lat="50.43592" lon="3.29541">
        <ele>28.786406</ele>
        <time>2021-07-22T18:12:09.093Z</time>
      </trkpt>
      <trkpt lat="50.43542" lon="3.29609">
        <ele>28.161051</ele>
        <time>2021-07-22T18:12:18.873Z</time>
      </trkpt>
      <trkpt lat="50.43457" lon="3.29675">
        <ele>26.977954</ele>
        <time>2021-07-22T18:12:30.105Z</time>
      </trkpt>
      <trkpt lat="50.43423" lon="3.29716">
        <ele>26.414911</ele>
        <time>2021-07-22T18:12:34.598Z</time>
      </trkpt>
      <trkpt lat="50.43395" lon="3.2975">
        <ele>25.796575</ele>
        <time>2021-07-22T18:12:38.293Z</time>
      </trkpt>
      <trkpt lat="50.43383" lon="3.29757">
        <ele>25.572702</ele>
        <time>2021-07-22T18:12:39.617Z</time>
      </trkpt>
      <trkpt lat="50.43321" lon="3.29793">
        <ele>24.408952</ele>
        <time>2021-07-22T18:12:46.998Z</time>
      </trkpt>
      <trkpt lat="50.43269" lon="3.29804">
        <ele>23.489482</ele>
        <time>2021-07-22T18:12:53.076Z</time>
      </trkpt>
      <trkpt lat="50.43238" lon="3.29811">
        <ele>23.557412</ele>
        <time>2021-07-22T18:12:57.000Z</time>
      </trkpt>
      <trkpt lat="50.4316" lon="3.29778">
        <ele>24.065402</ele>
        <time>2021-07-22T18:13:10.811Z</time>
      </trkpt>
      <trkpt lat="50.43124" lon="3.29774">
        <ele>24.290367</ele>
        <time>2021-07-22T18:13:18.413Z</time>
      </trkpt>
      <trkpt lat="50.43093" lon="3.29802">
        <ele>24.510818</ele>
        <time>2021-07-22T18:13:26.486Z</time>
      </trkpt>
      <trkpt lat="50.43051" lon="3.29865">
        <ele>25.112056</ele>
        <time>2021-07-22T18:13:38.284Z</time>
      </trkpt>
      <trkpt lat="50.43005" lon="3.29961">
        <ele>25.902835</ele>
        <time>2021-07-22T18:13:51.553Z</time>
      </trkpt>
      <trkpt lat="50.42983" lon="3.29987">
        <ele>26.186378</ele>
        <time>2021-07-22T18:13:57.018Z</time>
      </trkpt>
      <trkpt lat="50.429" lon="3.30058">
        <ele>27.160779</ele>
        <time>2021-07-22T18:14:14.617Z</time>
      </trkpt>
      <trkpt lat="50.42871" lon="3.30075">
        <ele>27.478276</ele>
        <time>2021-07-22T18:14:20.401Z</time>
      </trkpt>
      <trkpt lat="50.42865" lon="3.30074">
        <ele>27.541573</ele>
        <time>2021-07-22T18:14:21.689Z</time>
      </trkpt>
      <trkpt lat="50.42851" lon="3.30068">
        <ele>27.692337</ele>
        <time>2021-07-22T18:14:24.887Z</time>
      </trkpt>
      <trkpt lat="50.42844" lon="3.30058">
        <ele>27.786062</ele>
        <time>2021-07-22T18:14:26.341Z</time>
      </trkpt>
      <trkpt lat="50.42833" lon="3.30042">
        <ele>27.941103</ele>
        <time>2021-07-22T18:14:29.217Z</time>
      </trkpt>
      <trkpt lat="50.42815" lon="3.30003">
        <ele>28.247707</ele>
        <time>2021-07-22T18:14:35.097Z</time>
      </trkpt>
      <trkpt lat="50.42793" lon="3.29907">
        <ele>28.463157</ele>
        <time>2021-07-22T18:14:47.369Z</time>
      </trkpt>
      <trkpt lat="50.42771" lon="3.29841">
        <ele>28.620408</ele>
        <time>2021-07-22T18:14:55.547Z</time>
      </trkpt>
      <trkpt lat="50.42741" lon="3.29776">
        <ele>28.78944</ele>
        <time>2021-07-22T18:15:02.508Z</time>
      </trkpt>
      <trkpt lat="50.4271" lon="3.2974">
        <ele>28.552808</ele>
        <time>2021-07-22T18:15:07.476Z</time>
      </trkpt>
      <trkpt lat="50.42685" lon="3.29733">
        <ele>28.242074</ele>
        <time>2021-07-22T18:15:10.729Z</time>
      </trkpt>
      <trkpt lat="50.42628" lon="3.29737">
        <ele>27.560922</ele>
        <time>2021-07-22T18:15:17.580Z</time>
      </trkpt>
      <trkpt lat="50.42564" lon="3.29724">
        <ele>26.79686</ele>
        <time>2021-07-22T18:15:24.972Z</time>
      </trkpt>
      <trkpt lat="50.4249" lon="3.29734">
        <ele>25.163292</ele>
        <time>2021-07-22T18:15:33.271Z</time>
      </trkpt>
      <trkpt lat="50.42427" lon="3.2976">
        <ele>23.666878</ele>
        <time>2021-07-22T18:15:39.950Z</time>
      </trkpt>
      <trkpt lat="50.42379" lon="3.29771">
        <ele>22.52358</ele>
        <time>2021-07-22T18:15:45.165Z</time>
      </trkpt>
      <trkpt lat="50.42327" lon="3.29774">
        <ele>21.52926</ele>
        <time>2021-07-22T18:15:50.646Z</time>
      </trkpt>
      <trkpt lat="50.42322" lon="3.29774">
        <ele>21.429089</ele>
        <time>2021-07-22T18:15:51.145Z</time>
      </trkpt>
      <trkpt lat="50.42277" lon="3.29767">
        <ele>20.554858</ele>
        <time>2021-07-22T18:15:56.098Z</time>
      </trkpt>
      <trkpt lat="50.42145" lon="3.29697">
        <ele>18.550924</ele>
        <time>2021-07-22T18:16:12.299Z</time>
      </trkpt>
      <trkpt lat="50.42097" lon="3.29697">
        <ele>18.143557</ele>
        <time>2021-07-22T18:16:18.947Z</time>
      </trkpt>
      <trkpt lat="50.41955" lon="3.29724">
        <ele>17.137003</ele>
        <time>2021-07-22T18:16:37.461Z</time>
      </trkpt>
      <trkpt lat="50.41867" lon="3.29702">
        <ele>16.623317</ele>
        <time>2021-07-22T18:16:49.100Z</time>
      </trkpt>
      <trkpt lat="50.41851" lon="3.29703">
        <ele>16.52932</ele>
        <time>2021-07-22T18:16:51.123Z</time>
      </trkpt>
      <trkpt lat="50.41846" lon="3.29703">
        <ele>16.515416</ele>
        <time>2021-07-22T18:16:52.144Z</time>
      </trkpt>
      <trkpt lat="50.41801" lon="3.29701">
        <ele>16.449461</ele>
        <time>2021-07-22T18:17:00.666Z</time>
      </trkpt>
      <trkpt lat="50.41769" lon="3.29713">
        <ele>16.401181</ele>
        <time>2021-07-22T18:17:06.978Z</time>
      </trkpt>
      <trkpt lat="50.41737" lon="3.29741">
        <ele>16.347129</ele>
        <time>2021-07-22T18:17:14.262Z</time>
      </trkpt>
      <trkpt lat="50.41754" lon="3.29772">
        <ele>16.308775</ele>
        <time>2021-07-22T18:17:18.031Z</time>
      </trkpt>
      <trkpt lat="50.41862" lon="3.29968">
        <ele>16.471975</ele>
        <time>2021-07-22T18:17:44.523Z</time>
      </trkpt>
      <trkpt lat="50.42094" lon="3.30386">
        <ele>16.423248</ele>
        <time>2021-07-22T18:18:36.073Z</time>
      </trkpt>
      <trkpt lat="50.42207" lon="3.3058">
        <ele>16.44818</ele>
        <time>2021-07-22T18:19:00.843Z</time>
      </trkpt>
      <trkpt lat="50.42213" lon="3.30588">
        <ele>16.451456</ele>
        <time>2021-07-22T18:19:02.019Z</time>
      </trkpt>
      <trkpt lat="50.42325" lon="3.30779">
        <ele>16.726154</ele>
        <time>2021-07-22T18:19:27.531Z</time>
      </trkpt>
      <trkpt lat="50.42342" lon="3.30807">
        <ele>16.785435</ele>
        <time>2021-07-22T18:19:31.411Z</time>
      </trkpt>
      <trkpt lat="50.42379" lon="3.30871">
        <ele>16.920296</ele>
        <time>2021-07-22T18:19:40.680Z</time>
      </trkpt>
      <trkpt lat="50.42397" lon="3.30895">
        <ele>16.989935</ele>
        <time>2021-07-22T18:19:44.482Z</time>
      </trkpt>
      <trkpt lat="50.42401" lon="3.309">
        <ele>17.005241</ele>
        <time>2021-07-22T18:19:45.610Z</time>
      </trkpt>
      <trkpt lat="50.42549" lon="3.30986">
        <ele>17.423501</ele>
        <time>2021-07-22T18:20:10.821Z</time>
      </trkpt>
      <trkpt lat="50.42563" lon="3.30995">
        <ele>17.403591</ele>
        <time>2021-07-22T18:20:13.126Z</time>
      </trkpt>
      <trkpt lat="50.42594" lon="3.31015">
        <ele>17.35961</ele>
        <time>2021-07-22T18:20:17.979Z</time>
      </trkpt>
      <trkpt lat="50.4273" lon="3.31108">
        <ele>17.203522</ele>
        <time>2021-07-22T18:20:38.545Z</time>
      </trkpt>
      <trkpt lat="50.42844" lon="3.31201">
        <ele>17.207404</ele>
        <time>2021-07-22T18:20:57.701Z</time>
      </trkpt>
      <trkpt lat="50.43009" lon="3.31382">
        <ele>17.676972</ele>
        <time>2021-07-22T18:21:29.939Z</time>
      </trkpt>
      <trkpt lat="50.43019" lon="3.31394">
        <ele>17.682167</ele>
        <time>2021-07-22T18:21:32.029Z</time>
      </trkpt>
      <trkpt lat="50.4304" lon="3.31417">
        <ele>17.672921</ele>
        <time>2021-07-22T18:21:35.931Z</time>
      </trkpt>
      <trkpt lat="50.43047" lon="3.3143">
        <ele>17.669035</ele>
        <time>2021-07-22T18:21:37.526Z</time>
      </trkpt>
      <trkpt lat="50.43072" lon="3.31536">
        <ele>17.642883</ele>
        <time>2021-07-22T18:21:48.130Z</time>
      </trkpt>
      <trkpt lat="50.43105" lon="3.31754">
        <ele>17.461753</ele>
        <time>2021-07-22T18:22:08.003Z</time>
      </trkpt>
      <trkpt lat="50.43112" lon="3.318">
        <ele>17.401909</ele>
        <time>2021-07-22T18:22:12.335Z</time>
      </trkpt>
      <trkpt lat="50.43121" lon="3.31861">
        <ele>17.324152</ele>
        <time>2021-07-22T18:22:18.014Z</time>
      </trkpt>
      <trkpt lat="50.43135" lon="3.31962">
        <ele>17.304778</ele>
        <time>2021-07-22T18:22:27.666Z</time>
      </trkpt>
      <trkpt lat="50.43155" lon="3.32182">
        <ele>17.44654</ele>
        <time>2021-07-22T18:22:49.264Z</time>
      </trkpt>
      <trkpt lat="50.43164" lon="3.32276">
        <ele>17.645977</ele>
        <time>2021-07-22T18:22:58.995Z</time>
      </trkpt>
      <trkpt lat="50.43165" lon="3.3239">
        <ele>17.889707</ele>
        <time>2021-07-22T18:23:11.266Z</time>
      </trkpt>
      <trkpt lat="50.43163" lon="3.32421">
        <ele>17.956398</ele>
        <time>2021-07-22T18:23:14.490Z</time>
      </trkpt>
      <trkpt lat="50.43158" lon="3.32524">
        <ele>18.021197</ele>
        <time>2021-07-22T18:23:24.949Z</time>
      </trkpt>
      <trkpt lat="50.43161" lon="3.32539">
        <ele>18.012824</ele>
        <time>2021-07-22T18:23:26.787Z</time>
      </trkpt>
      <trkpt lat="50.4317" lon="3.32562">
        <ele>17.999852</ele>
        <time>2021-07-22T18:23:29.290Z</time>
      </trkpt>
      <trkpt lat="50.43188" lon="3.32615">
        <ele>17.969979</ele>
        <time>2021-07-22T18:23:35.061Z</time>
      </trkpt>
      <trkpt lat="50.43193" lon="3.32629">
        <ele>17.961833</ele>
        <time>2021-07-22T18:23:36.493Z</time>
      </trkpt>
      <trkpt lat="50.43236" lon="3.32752">
        <ele>17.75907</ele>
        <time>2021-07-22T18:23:48.590Z</time>
      </trkpt>
      <trkpt lat="50.43258" lon="3.32817">
        <ele>17.453251</ele>
        <time>2021-07-22T18:23:54.480Z</time>
      </trkpt>
      <trkpt lat="50.43265" lon="3.32836">
        <ele>17.361577</ele>
        <time>2021-07-22T18:23:56.174Z</time>
      </trkpt>
      <trkpt lat="50.43274" lon="3.329">
        <ele>17.087362</ele>
        <time>2021-07-22T18:24:03.599Z</time>
      </trkpt>
      <trkpt lat="50.43278" lon="3.32973">
        <ele>16.778851</ele>
        <time>2021-07-22T18:24:12.166Z</time>
      </trkpt>
      <trkpt lat="50.43262" lon="3.33105">
        <ele>16.660014</ele>
        <time>2021-07-22T18:24:28.330Z</time>
      </trkpt>
      <trkpt lat="50.4326" lon="3.33133">
        <ele>16.644251</ele>
        <time>2021-07-22T18:24:31.809Z</time>
      </trkpt>
      <trkpt lat="50.4326" lon="3.33151">
        <ele>16.633805</ele>
        <time>2021-07-22T18:24:34.358Z</time>
      </trkpt>
      <trkpt lat="50.43265" lon="3.33228">
        <ele>16.589888</ele>
        <time>2021-07-22T18:24:44.735Z</time>
      </trkpt>
      <trkpt lat="50.43257" lon="3.33273">
        <ele>16.577396</ele>
        <time>2021-07-22T18:24:51.063Z</time>
      </trkpt>
      <trkpt lat="50.43256" lon="3.33311">
        <ele>16.612035</ele>
        <time>2021-07-22T18:24:56.105Z</time>
      </trkpt>
      <trkpt lat="50.43261" lon="3.33326">
        <ele>16.627947</ele>
        <time>2021-07-22T18:24:58.609Z</time>
      </trkpt>
      <trkpt lat="50.43268" lon="3.33338">
        <ele>16.642097</ele>
        <time>2021-07-22T18:25:00.720Z</time>
      </trkpt>
      <trkpt lat="50.43292" lon="3.33373">
        <ele>16.68972</ele>
        <time>2021-07-22T18:25:07.889Z</time>
      </trkpt>
      <trkpt lat="50.43311" lon="3.33426">
        <ele>16.744642</ele>
        <time>2021-07-22T18:25:15.917Z</time>
      </trkpt>
      <trkpt lat="50.43325" lon="3.33527">
        <ele>16.799773</ele>
        <time>2021-07-22T18:25:29.362Z</time>
      </trkpt>
      <trkpt lat="50.43327" lon="3.33574">
        <ele>16.703881</ele>
        <time>2021-07-22T18:25:35.185Z</time>
      </trkpt>
      <trkpt lat="50.4335" lon="3.3369">
        <ele>16.457805</ele>
        <time>2021-07-22T18:25:49.792Z</time>
      </trkpt>
      <trkpt lat="50.43364" lon="3.33727">
        <ele>16.370587</ele>
        <time>2021-07-22T18:25:54.892Z</time>
      </trkpt>
      <trkpt lat="50.43397" lon="3.33768">
        <ele>16.245256</ele>
        <time>2021-07-22T18:26:02.716Z</time>
      </trkpt>
      <trkpt lat="50.43411" lon="3.33804">
        <ele>16.194503</ele>
        <time>2021-07-22T18:26:07.888Z</time>
      </trkpt>
      <trkpt lat="50.43418" lon="3.3382">
        <ele>16.171079</ele>
        <time>2021-07-22T18:26:10.296Z</time>
      </trkpt>
      <trkpt lat="50.4344" lon="3.33913">
        <ele>16.053467</ele>
        <time>2021-07-22T18:26:22.590Z</time>
      </trkpt>
      <trkpt lat="50.43466" lon="3.33977">
        <ele>15.964076</ele>
        <time>2021-07-22T18:26:32.219Z</time>
      </trkpt>
      <trkpt lat="50.43511" lon="3.34043">
        <ele>15.999969</ele>
        <time>2021-07-22T18:26:44.890Z</time>
      </trkpt>
      <trkpt lat="50.43541" lon="3.34097">
        <ele>16.093992</ele>
        <time>2021-07-22T18:26:54.436Z</time>
      </trkpt>
      <trkpt lat="50.43546" lon="3.34117">
        <ele>16.122581</ele>
        <time>2021-07-22T18:26:57.370Z</time>
      </trkpt>
      <trkpt lat="50.43535" lon="3.34155">
        <ele>16.177897</ele>
        <time>2021-07-22T18:27:03.027Z</time>
      </trkpt>
      <trkpt lat="50.43494" lon="3.34219">
        <ele>16.301619</ele>
        <time>2021-07-22T18:27:15.444Z</time>
      </trkpt>
      <trkpt lat="50.43469" lon="3.34248">
        <ele>16.388806</ele>
        <time>2021-07-22T18:27:22.004Z</time>
      </trkpt>
      <trkpt lat="50.43446" lon="3.34274">
        <ele>16.471883</ele>
        <time>2021-07-22T18:27:28.299Z</time>
      </trkpt>
      <trkpt lat="50.43431" lon="3.34292">
        <ele>16.526203</ele>
        <time>2021-07-22T18:27:32.457Z</time>
      </trkpt>
      <trkpt lat="50.43426" lon="3.34306">
        <ele>16.555286</ele>
        <time>2021-07-22T18:27:34.670Z</time>
      </trkpt>
      <trkpt lat="50.43429" lon="3.34421">
        <ele>16.764648</ele>
        <time>2021-07-22T18:27:50.437Z</time>
      </trkpt>
      <trkpt lat="50.43429" lon="3.34527">
        <ele>16.909395</ele>
        <time>2021-07-22T18:28:04.605Z</time>
      </trkpt>
      <trkpt lat="50.43499" lon="3.34492">
        <ele>17.050121</ele>
        <time>2021-07-22T18:28:15.849Z</time>
      </trkpt>
      <trkpt lat="50.43551" lon="3.34461">
        <ele>17.159828</ele>
        <time>2021-07-22T18:28:24.633Z</time>
      </trkpt>
      <trkpt lat="50.43587" lon="3.34428">
        <ele>17.246817</ele>
        <time>2021-07-22T18:28:30.874Z</time>
      </trkpt>
      <trkpt lat="50.43618" lon="3.34403">
        <ele>17.320501</ele>
        <time>2021-07-22T18:28:36.222Z</time>
      </trkpt>
      <trkpt lat="50.43711" lon="3.34283">
        <ele>17.623445</ele>
        <time>2021-07-22T18:28:55.468Z</time>
      </trkpt>
      <trkpt lat="50.43757" lon="3.34211">
        <ele>17.939476</ele>
        <time>2021-07-22T18:29:06.048Z</time>
      </trkpt>
      <trkpt lat="50.43784" lon="3.34154">
        <ele>18.157896</ele>
        <time>2021-07-22T18:29:13.784Z</time>
      </trkpt>
      <trkpt lat="50.43829" lon="3.3402">
        <ele>18.668059</ele>
        <time>2021-07-22T18:29:30.485Z</time>
      </trkpt>
      <trkpt lat="50.43838" lon="3.34">
        <ele>18.756294</ele>
        <time>2021-07-22T18:29:33.116Z</time>
      </trkpt>
      <trkpt lat="50.43843" lon="3.33989">
        <ele>18.807392</ele>
        <time>2021-07-22T18:29:34.783Z</time>
      </trkpt>
      <trkpt lat="50.43854" lon="3.33976">
        <ele>18.886117</ele>
        <time>2021-07-22T18:29:37.073Z</time>
      </trkpt>
      <trkpt lat="50.43877" lon="3.33966">
        <ele>19.024852</ele>
        <time>2021-07-22T18:29:41.274Z</time>
      </trkpt>
      <trkpt lat="50.43946" lon="3.33991">
        <ele>19.43449</ele>
        <time>2021-07-22T18:29:53.376Z</time>
      </trkpt>
      <trkpt lat="50.43958" lon="3.33992">
        <ele>19.457253</ele>
        <time>2021-07-22T18:29:55.382Z</time>
      </trkpt>
      <trkpt lat="50.43957" lon="3.34039">
        <ele>19.472231</ele>
        <time>2021-07-22T18:30:00.411Z</time>
      </trkpt>
      <trkpt lat="50.43975" lon="3.34167">
        <ele>19.514465</ele>
        <time>2021-07-22T18:30:13.042Z</time>
      </trkpt>
      <trkpt lat="50.44004" lon="3.34269">
        <ele>19.468856</ele>
        <time>2021-07-22T18:30:23.074Z</time>
      </trkpt>
      <trkpt lat="50.44064" lon="3.34517">
        <ele>18.575501</ele>
        <time>2021-07-22T18:30:45.280Z</time>
      </trkpt>
      <trkpt lat="50.4407" lon="3.34583">
        <ele>18.308296</ele>
        <time>2021-07-22T18:30:50.716Z</time>
      </trkpt>
      <trkpt lat="50.44058" lon="3.34742">
        <ele>17.665325</ele>
        <time>2021-07-22T18:31:03.693Z</time>
      </trkpt>
      <trkpt lat="50.44062" lon="3.34805">
        <ele>17.45785</ele>
        <time>2021-07-22T18:31:09.088Z</time>
      </trkpt>
      <trkpt lat="50.44082" lon="3.34865">
        <ele>17.455586</ele>
        <time>2021-07-22T18:31:14.996Z</time>
      </trkpt>
      <trkpt lat="50.44086" lon="3.34879">
        <ele>17.455064</ele>
        <time>2021-07-22T18:31:16.399Z</time>
      </trkpt>
      <trkpt lat="50.44089" lon="3.34888">
        <ele>17.454733</ele>
        <time>2021-07-22T18:31:17.249Z</time>
      </trkpt>
      <trkpt lat="50.44112" lon="3.34959">
        <ele>17.452099</ele>
        <time>2021-07-22T18:31:24.988Z</time>
      </trkpt>
      <trkpt lat="50.4413" lon="3.35046">
        <ele>17.449028</ele>
        <time>2021-07-22T18:31:34.262Z</time>
      </trkpt>
      <trkpt lat="50.4413" lon="3.3505">
        <ele>17.448871</ele>
        <time>2021-07-22T18:31:34.812Z</time>
      </trkpt>
      <trkpt lat="50.44129" lon="3.35086">
        <ele>17.557572</ele>
        <time>2021-07-22T18:31:38.593Z</time>
      </trkpt>
      <trkpt lat="50.44125" lon="3.3509">
        <ele>17.579948</ele>
        <time>2021-07-22T18:31:39.313Z</time>
      </trkpt>
      <trkpt lat="50.44123" lon="3.35095">
        <ele>17.602464</ele>
        <time>2021-07-22T18:31:40.009Z</time>
      </trkpt>
      <trkpt lat="50.44121" lon="3.35102">
        <ele>17.624934</ele>
        <time>2021-07-22T18:31:40.829Z</time>
      </trkpt>
      <trkpt lat="50.4412" lon="3.35109">
        <ele>17.647408</ele>
        <time>2021-07-22T18:31:41.652Z</time>
      </trkpt>
      <trkpt lat="50.44124" lon="3.35121">
        <ele>17.69138</ele>
        <time>2021-07-22T18:31:43.096Z</time>
      </trkpt>
      <trkpt lat="50.44124" lon="3.35123">
        <ele>17.696935</ele>
        <time>2021-07-22T18:31:43.348Z</time>
      </trkpt>
      <trkpt lat="50.44127" lon="3.35126">
        <ele>17.713165</ele>
        <time>2021-07-22T18:31:43.899Z</time>
      </trkpt>
      <trkpt lat="50.44131" lon="3.35129">
        <ele>17.734667</ele>
        <time>2021-07-22T18:31:44.628Z</time>
      </trkpt>
      <trkpt lat="50.44139" lon="3.35165">
        <ele>17.855386</ele>
        <time>2021-07-22T18:31:48.695Z</time>
      </trkpt>
      <trkpt lat="50.44141" lon="3.35209">
        <ele>17.998012</ele>
        <time>2021-07-22T18:31:53.586Z</time>
      </trkpt>
      <trkpt lat="50.44142" lon="3.35221">
        <ele>18.036864</ele>
        <time>2021-07-22T18:31:54.879Z</time>
      </trkpt>
      <trkpt lat="50.44155" lon="3.35329">
        <ele>18.354352</ele>
        <time>2021-07-22T18:32:06.971Z</time>
      </trkpt>
      <trkpt lat="50.44173" lon="3.35398">
        <ele>18.370649</ele>
        <time>2021-07-22T18:32:14.658Z</time>
      </trkpt>
      <trkpt lat="50.44183" lon="3.3543">
        <ele>18.378294</ele>
        <time>2021-07-22T18:32:18.045Z</time>
      </trkpt>
      <trkpt lat="50.4421" lon="3.355">
        <ele>18.396179</ele>
        <time>2021-07-22T18:32:25.506Z</time>
      </trkpt>
      <trkpt lat="50.44229" lon="3.35546">
        <ele>18.407984</ele>
        <time>2021-07-22T18:32:30.378Z</time>
      </trkpt>
      <trkpt lat="50.44267" lon="3.35635">
        <ele>18.335812</ele>
        <time>2021-07-22T18:32:40.158Z</time>
      </trkpt>
      <trkpt lat="50.44281" lon="3.3566">
        <ele>18.30542</ele>
        <time>2021-07-22T18:32:42.970Z</time>
      </trkpt>
      <trkpt lat="50.4432" lon="3.35734">
        <ele>18.216498</ele>
        <time>2021-07-22T18:32:51.649Z</time>
      </trkpt>
      <trkpt lat="50.44366" lon="3.35818">
        <ele>18.237398</ele>
        <time>2021-07-22T18:33:02.074Z</time>
      </trkpt>
      <trkpt lat="50.44392" lon="3.35844">
        <ele>18.338376</ele>
        <time>2021-07-22T18:33:06.973Z</time>
      </trkpt>
      <trkpt lat="50.44406" lon="3.3586">
        <ele>18.396712</ele>
        <time>2021-07-22T18:33:09.850Z</time>
      </trkpt>
      <trkpt lat="50.44411" lon="3.35866">
        <ele>18.417196</ele>
        <time>2021-07-22T18:33:11.048Z</time>
      </trkpt>
      <trkpt lat="50.4452" lon="3.36033">
        <ele>18.845896</ele>
        <time>2021-07-22T18:33:36.295Z</time>
      </trkpt>
      <trkpt lat="50.44536" lon="3.36045">
        <ele>18.878147</ele>
        <time>2021-07-22T18:33:38.984Z</time>
      </trkpt>
      <trkpt lat="50.44548" lon="3.36045">
        <ele>18.90099</ele>
        <time>2021-07-22T18:33:40.940Z</time>
      </trkpt>
      <trkpt lat="50.44583" lon="3.36033">
        <ele>18.967501</ele>
        <time>2021-07-22T18:33:46.355Z</time>
      </trkpt>
      <trkpt lat="50.44589" lon="3.3603">
        <ele>18.978668</ele>
        <time>2021-07-22T18:33:47.199Z</time>
      </trkpt>
      <trkpt lat="50.44624" lon="3.36022">
        <ele>19.044717</ele>
        <time>2021-07-22T18:33:52.519Z</time>
      </trkpt>
      <trkpt lat="50.44626" lon="3.36021">
        <ele>19.048884</ele>
        <time>2021-07-22T18:33:52.792Z</time>
      </trkpt>
      <trkpt lat="50.44631" lon="3.3603">
        <ele>19.062228</ele>
        <time>2021-07-22T18:33:53.868Z</time>
      </trkpt>
      <trkpt lat="50.44654" lon="3.36094">
        <ele>19.043242</ele>
        <time>2021-07-22T18:34:00.797Z</time>
      </trkpt>
      <trkpt lat="50.44667" lon="3.3616">
        <ele>18.995288</ele>
        <time>2021-07-22T18:34:07.281Z</time>
      </trkpt>
      <trkpt lat="50.44709" lon="3.36296">
        <ele>18.89211</ele>
        <time>2021-07-22T18:34:21.090Z</time>
      </trkpt>
      <trkpt lat="50.44713" lon="3.36312">
        <ele>18.868318</ele>
        <time>2021-07-22T18:34:22.645Z</time>
      </trkpt>
      <trkpt lat="50.44722" lon="3.36349">
        <ele>18.801547</ele>
        <time>2021-07-22T18:34:26.377Z</time>
      </trkpt>
      <trkpt lat="50.4473" lon="3.3638">
        <ele>18.746021</ele>
        <time>2021-07-22T18:34:29.363Z</time>
      </trkpt>
      <trkpt lat="50.44757" lon="3.3644">
        <ele>18.624489</ele>
        <time>2021-07-22T18:34:35.789Z</time>
      </trkpt>
      <trkpt lat="50.44763" lon="3.36447">
        <ele>18.604941</ele>
        <time>2021-07-22T18:34:36.871Z</time>
      </trkpt>
      <trkpt lat="50.44765" lon="3.36446">
        <ele>18.599622</ele>
        <time>2021-07-22T18:34:37.090Z</time>
      </trkpt>
      <trkpt lat="50.44813" lon="3.36437">
        <ele>18.472232</ele>
        <time>2021-07-22T18:34:43.688Z</time>
      </trkpt>
      <trkpt lat="50.44859" lon="3.36449">
        <ele>18.343289</ele>
        <time>2021-07-22T18:34:50.161Z</time>
      </trkpt>
      <trkpt lat="50.44875" lon="3.3644">
        <ele>18.296741</ele>
        <time>2021-07-22T18:34:52.419Z</time>
      </trkpt>
      <trkpt lat="50.4488" lon="3.36437">
        <ele>18.281493</ele>
        <time>2021-07-22T18:34:53.096Z</time>
      </trkpt>
      <trkpt lat="50.44887" lon="3.36433">
        <ele>18.259704</ele>
        <time>2021-07-22T18:34:54.151Z</time>
      </trkpt>
      <trkpt lat="50.44945" lon="3.36403">
        <ele>18.087768</ele>
        <time>2021-07-22T18:35:02.575Z</time>
      </trkpt>
      <trkpt lat="50.45" lon="3.3645">
        <ele>17.909109</ele>
        <time>2021-07-22T18:35:11.504Z</time>
      </trkpt>
      <trkpt lat="50.45061" lon="3.36495">
        <ele>17.777004</ele>
        <time>2021-07-22T18:35:21.183Z</time>
      </trkpt>
      <trkpt lat="50.45066" lon="3.36498">
        <ele>17.767894</ele>
        <time>2021-07-22T18:35:21.850Z</time>
      </trkpt>
      <trkpt lat="50.45082" lon="3.3651">
        <ele>17.732321</ele>
        <time>2021-07-22T18:35:24.356Z</time>
      </trkpt>
      <trkpt lat="50.45108" lon="3.36527">
        <ele>17.678084</ele>
        <time>2021-07-22T18:35:28.283Z</time>
      </trkpt>
      <trkpt lat="50.45119" lon="3.36535">
        <ele>17.655082</ele>
        <time>2021-07-22T18:35:29.990Z</time>
      </trkpt>
      <trkpt lat="50.45141" lon="3.36549">
        <ele>17.608333</ele>
        <time>2021-07-22T18:35:33.373Z</time>
      </trkpt>
      <trkpt lat="50.45156" lon="3.36557">
        <ele>17.577047</ele>
        <time>2021-07-22T18:35:35.653Z</time>
      </trkpt>
      <trkpt lat="50.45176" lon="3.3657">
        <ele>17.534542</ele>
        <time>2021-07-22T18:35:38.692Z</time>
      </trkpt>
      <trkpt lat="50.45197" lon="3.36589">
        <ele>17.487947</ele>
        <time>2021-07-22T18:35:42.095Z</time>
      </trkpt>
      <trkpt lat="50.45206" lon="3.366">
        <ele>17.467449</ele>
        <time>2021-07-22T18:35:43.509Z</time>
      </trkpt>
      <trkpt lat="50.45206" lon="3.366">
        <ele>17.465624</ele>
        <time>2021-07-22T18:35:43.621Z</time>
      </trkpt>
      <trkpt lat="50.4523" lon="3.36634">
        <ele>17.404232</ele>
        <time>2021-07-22T18:35:47.979Z</time>
      </trkpt>
      <trkpt lat="50.45233" lon="3.36639">
        <ele>17.395857</ele>
        <time>2021-07-22T18:35:48.556Z</time>
      </trkpt>
      <trkpt lat="50.45257" lon="3.36681">
        <ele>17.326302</ele>
        <time>2021-07-22T18:35:53.661Z</time>
      </trkpt>
      <trkpt lat="50.45268" lon="3.36699">
        <ele>17.296404</ele>
        <time>2021-07-22T18:35:56.045Z</time>
      </trkpt>
      <trkpt lat="50.45294" lon="3.36737">
        <ele>17.22828</ele>
        <time>2021-07-22T18:36:01.135Z</time>
      </trkpt>
      <trkpt lat="50.45302" lon="3.36742">
        <ele>17.211081</ele>
        <time>2021-07-22T18:36:02.431Z</time>
      </trkpt>
      <trkpt lat="50.45322" lon="3.36745">
        <ele>17.219621</ele>
        <time>2021-07-22T18:36:05.159Z</time>
      </trkpt>
      <trkpt lat="50.45349" lon="3.3674">
        <ele>17.233276</ele>
        <time>2021-07-22T18:36:09.555Z</time>
      </trkpt>
      <trkpt lat="50.45361" lon="3.36732">
        <ele>17.239655</ele>
        <time>2021-07-22T18:36:11.385Z</time>
      </trkpt>
      <trkpt lat="50.45362" lon="3.36734">
        <ele>17.240819</ele>
        <time>2021-07-22T18:36:12.059Z</time>
      </trkpt>
      <trkpt lat="50.45443" lon="3.36859">
        <ele>17.297472</ele>
        <time>2021-07-22T18:36:29.068Z</time>
      </trkpt>
      <trkpt lat="50.45454" lon="3.36893">
        <ele>17.283404</ele>
        <time>2021-07-22T18:36:32.593Z</time>
      </trkpt>
      <trkpt lat="50.45465" lon="3.36944">
        <ele>17.25461</ele>
        <time>2021-07-22T18:36:37.822Z</time>
      </trkpt>
      <trkpt lat="50.45477" lon="3.36994">
        <ele>17.225895</ele>
        <time>2021-07-22T18:36:42.684Z</time>
      </trkpt>
      <trkpt lat="50.4549" lon="3.37041">
        <ele>17.198467</ele>
        <time>2021-07-22T18:36:47.272Z</time>
      </trkpt>
      <trkpt lat="50.45548" lon="3.37134">
        <ele>17.181262</ele>
        <time>2021-07-22T18:36:59.122Z</time>
      </trkpt>
      <trkpt lat="50.45598" lon="3.37186">
        <ele>17.265378</ele>
        <time>2021-07-22T18:37:08.103Z</time>
      </trkpt>
      <trkpt lat="50.45653" lon="3.37218">
        <ele>17.346908</ele>
        <time>2021-07-22T18:37:17.471Z</time>
      </trkpt>
      <trkpt lat="50.45675" lon="3.37241">
        <ele>17.383809</ele>
        <time>2021-07-22T18:37:21.784Z</time>
      </trkpt>
      <trkpt lat="50.45692" lon="3.37258">
        <ele>17.396659</ele>
        <time>2021-07-22T18:37:25.096Z</time>
      </trkpt>
      <trkpt lat="50.45737" lon="3.37292">
        <ele>17.379218</ele>
        <time>2021-07-22T18:37:33.077Z</time>
      </trkpt>
      <trkpt lat="50.45753" lon="3.37305">
        <ele>17.373068</ele>
        <time>2021-07-22T18:37:35.774Z</time>
      </trkpt>
      <trkpt lat="50.45776" lon="3.3733">
        <ele>17.363215</ele>
        <time>2021-07-22T18:37:40.010Z</time>
      </trkpt>
      <trkpt lat="50.45783" lon="3.37353">
        <ele>17.357666</ele>
        <time>2021-07-22T18:37:42.289Z</time>
      </trkpt>
      <trkpt lat="50.45794" lon="3.37439">
        <ele>17.338124</ele>
        <time>2021-07-22T18:37:50.050Z</time>
      </trkpt>
      <trkpt lat="50.45801" lon="3.37475">
        <ele>17.225008</ele>
        <time>2021-07-22T18:37:53.222Z</time>
      </trkpt>
      <trkpt lat="50.4583" lon="3.37615">
        <ele>16.731632</ele>
        <time>2021-07-22T18:38:05.485Z</time>
      </trkpt>
      <trkpt lat="50.45871" lon="3.37833">
        <ele>16.146401</ele>
        <time>2021-07-22T18:38:24.697Z</time>
      </trkpt>
      <trkpt lat="50.45873" lon="3.37854">
        <ele>16.105308</ele>
        <time>2021-07-22T18:38:26.607Z</time>
      </trkpt>
      <trkpt lat="50.45874" lon="3.37865">
        <ele>16.083102</ele>
        <time>2021-07-22T18:38:28.007Z</time>
      </trkpt>
      <trkpt lat="50.45865" lon="3.37925">
        <ele>15.963959</ele>
        <time>2021-07-22T18:38:35.580Z</time>
      </trkpt>
      <trkpt lat="50.45812" lon="3.38099">
        <ele>15.792098</ele>
        <time>2021-07-22T18:38:59.753Z</time>
      </trkpt>
      <trkpt lat="50.45809" lon="3.38141">
        <ele>15.776542</ele>
        <time>2021-07-22T18:39:05.142Z</time>
      </trkpt>
      <trkpt lat="50.45827" lon="3.38292">
        <ele>15.831822</ele>
        <time>2021-07-22T18:39:25.254Z</time>
      </trkpt>
      <trkpt lat="50.45852" lon="3.38431">
        <ele>16.153439</ele>
        <time>2021-07-22T18:39:45.039Z</time>
      </trkpt>
      <trkpt lat="50.45848" lon="3.38464">
        <ele>16.22921</ele>
        <time>2021-07-22T18:39:49.883Z</time>
      </trkpt>
      <trkpt lat="50.45837" lon="3.38503">
        <ele>16.323233</ele>
        <time>2021-07-22T18:39:55.921Z</time>
      </trkpt>
      <trkpt lat="50.45795" lon="3.3858">
        <ele>16.588976</ele>
        <time>2021-07-22T18:40:10.466Z</time>
      </trkpt>
      <trkpt lat="50.45772" lon="3.38619">
        <ele>16.733593</ele>
        <time>2021-07-22T18:40:18.018Z</time>
      </trkpt>
      <trkpt lat="50.45768" lon="3.38628">
        <ele>16.765468</ele>
        <time>2021-07-22T18:40:19.280Z</time>
      </trkpt>
      <trkpt lat="50.4573" lon="3.38724">
        <ele>17.07219</ele>
        <time>2021-07-22T18:40:31.107Z</time>
      </trkpt>
      <trkpt lat="50.457" lon="3.38908">
        <ele>17.027832</ele>
        <time>2021-07-22T18:40:49.343Z</time>
      </trkpt>
      <trkpt lat="50.45603" lon="3.39204">
        <ele>16.521188</ele>
        <time>2021-07-22T18:41:18.469Z</time>
      </trkpt>
      <trkpt lat="50.45597" lon="3.39214">
        <ele>16.49385</ele>
        <time>2021-07-22T18:41:19.706Z</time>
      </trkpt>
      <trkpt lat="50.45594" lon="3.39222">
        <ele>16.47478</ele>
        <time>2021-07-22T18:41:20.467Z</time>
      </trkpt>
      <trkpt lat="50.45554" lon="3.39277">
        <ele>16.357713</ele>
        <time>2021-07-22T18:41:27.734Z</time>
      </trkpt>
      <trkpt lat="50.4541" lon="3.39414">
        <ele>16.161495</ele>
        <time>2021-07-22T18:41:52.203Z</time>
      </trkpt>
      <trkpt lat="50.45365" lon="3.39502">
        <ele>16.178232</ele>
        <time>2021-07-22T18:42:03.009Z</time>
      </trkpt>
      <trkpt lat="50.45361" lon="3.39509">
        <ele>16.179672</ele>
        <time>2021-07-22T18:42:03.919Z</time>
      </trkpt>
      <trkpt lat="50.45344" lon="3.39539">
        <ele>16.185608</ele>
        <time>2021-07-22T18:42:07.712Z</time>
      </trkpt>
      <trkpt lat="50.4544" lon="3.39712">
        <ele>16.223843</ele>
        <time>2021-07-22T18:42:29.580Z</time>
      </trkpt>
      <trkpt lat="50.45455" lon="3.39738">
        <ele>16.230294</ele>
        <time>2021-07-22T18:42:32.863Z</time>
      </trkpt>
      <trkpt lat="50.45525" lon="3.39933">
        <ele>16.307628</ele>
        <time>2021-07-22T18:42:54.467Z</time>
      </trkpt>
      <trkpt lat="50.45532" lon="3.39963">
        <ele>16.324188</ele>
        <time>2021-07-22T18:42:57.588Z</time>
      </trkpt>
      <trkpt lat="50.45542" lon="3.40028">
        <ele>16.358894</ele>
        <time>2021-07-22T18:43:04.149Z</time>
      </trkpt>
      <trkpt lat="50.4555" lon="3.40059">
        <ele>16.376159</ele>
        <time>2021-07-22T18:43:07.262Z</time>
      </trkpt>
      <trkpt lat="50.4559" lon="3.40141">
        <ele>16.44224</ele>
        <time>2021-07-22T18:43:17.153Z</time>
      </trkpt>
      <trkpt lat="50.45664" lon="3.40347">
        <ele>16.615099</ele>
        <time>2021-07-22T18:43:40.110Z</time>
      </trkpt>
      <trkpt lat="50.45749" lon="3.40521">
        <ele>16.810004</ele>
        <time>2021-07-22T18:44:02.268Z</time>
      </trkpt>
      <trkpt lat="50.45776" lon="3.40567">
        <ele>16.829865</ele>
        <time>2021-07-22T18:44:08.249Z</time>
      </trkpt>
      <trkpt lat="50.45784" lon="3.40581">
        <ele>16.805165</ele>
        <time>2021-07-22T18:44:09.907Z</time>
      </trkpt>
      <trkpt lat="50.4581" lon="3.40628">
        <ele>16.718583</ele>
        <time>2021-07-22T18:44:15.610Z</time>
      </trkpt>
      <trkpt lat="50.4582" lon="3.4064">
        <ele>16.691492</ele>
        <time>2021-07-22T18:44:17.321Z</time>
      </trkpt>
      <trkpt lat="50.45838" lon="3.40619">
        <ele>16.643592</ele>
        <time>2021-07-22T18:44:21.644Z</time>
      </trkpt>
      <trkpt lat="50.45903" lon="3.40562">
        <ele>16.482149</ele>
        <time>2021-07-22T18:44:35.801Z</time>
      </trkpt>
      <trkpt lat="50.45917" lon="3.40549">
        <ele>16.449925</ele>
        <time>2021-07-22T18:44:38.687Z</time>
      </trkpt>
      <trkpt lat="50.45929" lon="3.4054">
        <ele>16.424729</ele>
        <time>2021-07-22T18:44:41.289Z</time>
      </trkpt>
      <trkpt lat="50.45995" lon="3.40472">
        <ele>16.276311</ele>
        <time>2021-07-22T18:44:56.733Z</time>
      </trkpt>
      <trkpt lat="50.46002" lon="3.40464">
        <ele>16.260555</ele>
        <time>2021-07-22T18:44:58.356Z</time>
      </trkpt>
      <trkpt lat="50.46062" lon="3.40478">
        <ele>16.146387</ele>
        <time>2021-07-22T18:45:10.533Z</time>
      </trkpt>
      <trkpt lat="50.46135" lon="3.40489">
        <ele>16.075757</ele>
        <time>2021-07-22T18:45:25.317Z</time>
      </trkpt>
      <trkpt lat="50.46277" lon="3.40481">
        <ele>15.906007</ele>
        <time>2021-07-22T18:45:53.346Z</time>
      </trkpt>
      <trkpt lat="50.46385" lon="3.40475">
        <ele>15.565397</ele>
        <time>2021-07-22T18:46:14.168Z</time>
      </trkpt>
      <trkpt lat="50.46392" lon="3.4048">
        <ele>15.541151</ele>
        <time>2021-07-22T18:46:15.599Z</time>
      </trkpt>
      <trkpt lat="50.464" lon="3.40499">
        <ele>15.495246</ele>
        <time>2021-07-22T18:46:18.445Z</time>
      </trkpt>
      <trkpt lat="50.46413" lon="3.40586">
        <ele>15.26598</ele>
        <time>2021-07-22T18:46:28.939Z</time>
      </trkpt>
      <trkpt lat="50.46418" lon="3.40602">
        <ele>15.211608</ele>
        <time>2021-07-22T18:46:31.110Z</time>
      </trkpt>
      <trkpt lat="50.46428" lon="3.40605">
        <ele>15.163038</ele>
        <time>2021-07-22T18:46:32.533Z</time>
      </trkpt>
      <trkpt lat="50.46425" lon="3.4062">
        <ele>15.115995</ele>
        <time>2021-07-22T18:46:33.738Z</time>
      </trkpt>
      <trkpt lat="50.46437" lon="3.40779">
        <ele>14.628103</ele>
        <time>2021-07-22T18:46:47.326Z</time>
      </trkpt>
      <trkpt lat="50.46434" lon="3.40842">
        <ele>14.514173</ele>
        <time>2021-07-22T18:46:52.683Z</time>
      </trkpt>
      <trkpt lat="50.46428" lon="3.40905">
        <ele>14.445602</ele>
        <time>2021-07-22T18:46:58.247Z</time>
      </trkpt>
      <trkpt lat="50.46424" lon="3.40929">
        <ele>14.418716</ele>
        <time>2021-07-22T18:47:00.552Z</time>
      </trkpt>
      <trkpt lat="50.4642" lon="3.40957">
        <ele>14.387678</ele>
        <time>2021-07-22T18:47:03.093Z</time>
      </trkpt>
      <trkpt lat="50.46404" lon="3.41015">
        <ele>14.319869</ele>
        <time>2021-07-22T18:47:08.856Z</time>
      </trkpt>
      <trkpt lat="50.46391" lon="3.41045">
        <ele>14.281389</ele>
        <time>2021-07-22T18:47:12.223Z</time>
      </trkpt>
      <trkpt lat="50.46309" lon="3.41189">
        <ele>14.556652</ele>
        <time>2021-07-22T18:47:31.421Z</time>
      </trkpt>
      <trkpt lat="50.46295" lon="3.4122">
        <ele>14.625054</ele>
        <time>2021-07-22T18:47:35.406Z</time>
      </trkpt>
      <trkpt lat="50.46284" lon="3.41298">
        <ele>14.774229</ele>
        <time>2021-07-22T18:47:43.792Z</time>
      </trkpt>
      <trkpt lat="50.46286" lon="3.41347">
        <ele>14.99127</ele>
        <time>2021-07-22T18:47:49.387Z</time>
      </trkpt>
      <trkpt lat="50.46288" lon="3.41364">
        <ele>15.063822</ele>
        <time>2021-07-22T18:47:51.479Z</time>
      </trkpt>
      <trkpt lat="50.46299" lon="3.41382">
        <ele>15.171022</ele>
        <time>2021-07-22T18:47:54.251Z</time>
      </trkpt>
      <trkpt lat="50.46319" lon="3.41418">
        <ele>15.378225</ele>
        <time>2021-07-22T18:47:59.740Z</time>
      </trkpt>
      <trkpt lat="50.46331" lon="3.41496">
        <ele>15.726904</ele>
        <time>2021-07-22T18:48:08.538Z</time>
      </trkpt>
      <trkpt lat="50.46334" lon="3.41513">
        <ele>15.805274</ele>
        <time>2021-07-22T18:48:10.769Z</time>
      </trkpt>
      <trkpt lat="50.46339" lon="3.41524">
        <ele>15.861942</ele>
        <time>2021-07-22T18:48:12.246Z</time>
      </trkpt>
      <trkpt lat="50.46354" lon="3.41553">
        <ele>16.016512</ele>
        <time>2021-07-22T18:48:16.236Z</time>
      </trkpt>
      <trkpt lat="50.46402" lon="3.41629">
        <ele>16.402127</ele>
        <time>2021-07-22T18:48:28.355Z</time>
      </trkpt>
      <trkpt lat="50.4642" lon="3.4166">
        <ele>16.554711</ele>
        <time>2021-07-22T18:48:33.060Z</time>
      </trkpt>
      <trkpt lat="50.46455" lon="3.41732">
        <ele>16.879541</ele>
        <time>2021-07-22T18:48:42.810Z</time>
      </trkpt>
      <trkpt lat="50.46464" lon="3.4174">
        <ele>16.936397</ele>
        <time>2021-07-22T18:48:44.375Z</time>
      </trkpt>
      <trkpt lat="50.46482" lon="3.41755">
        <ele>17.011569</ele>
        <time>2021-07-22T18:48:47.655Z</time>
      </trkpt>
      <trkpt lat="50.4651" lon="3.41761">
        <ele>17.035449</ele>
        <time>2021-07-22T18:48:52.132Z</time>
      </trkpt>
      <trkpt lat="50.46542" lon="3.41768">
        <ele>17.062665</ele>
        <time>2021-07-22T18:48:57.148Z</time>
      </trkpt>
      <trkpt lat="50.46557" lon="3.4176">
        <ele>17.076489</ele>
        <time>2021-07-22T18:48:59.709Z</time>
      </trkpt>
      <trkpt lat="50.46723" lon="3.41541">
        <ele>16.984136</ele>
        <time>2021-07-22T18:49:31.308Z</time>
      </trkpt>
      <trkpt lat="50.46743" lon="3.41523">
        <ele>16.951806</ele>
        <time>2021-07-22T18:49:34.494Z</time>
      </trkpt>
      <trkpt lat="50.46799" lon="3.4152">
        <ele>16.881046</ele>
        <time>2021-07-22T18:49:42.245Z</time>
      </trkpt>
      <trkpt lat="50.46883" lon="3.41491">
        <ele>16.794508</ele>
        <time>2021-07-22T18:49:54.439Z</time>
      </trkpt>
      <trkpt lat="50.46901" lon="3.4149">
        <ele>16.776025</ele>
        <time>2021-07-22T18:49:57.085Z</time>
      </trkpt>
      <trkpt lat="50.46906" lon="3.41552">
        <ele>16.735878</ele>
        <time>2021-07-22T18:50:02.980Z</time>
      </trkpt>
      <trkpt lat="50.46913" lon="3.41584">
        <ele>16.728771</ele>
        <time>2021-07-22T18:50:06.255Z</time>
      </trkpt>
      <trkpt lat="50.46972" lon="3.41703">
        <ele>16.837284</ele>
        <time>2021-07-22T18:50:20.938Z</time>
      </trkpt>
      <trkpt lat="50.46996" lon="3.41775">
        <ele>16.896173</ele>
        <time>2021-07-22T18:50:29.157Z</time>
      </trkpt>
      <trkpt lat="50.4704" lon="3.41845">
        <ele>16.931654</ele>
        <time>2021-07-22T18:50:38.949Z</time>
      </trkpt>
      <trkpt lat="50.47119" lon="3.42004">
        <ele>16.956657</ele>
        <time>2021-07-22T18:50:57.965Z</time>
      </trkpt>
      <trkpt lat="50.47122" lon="3.42028">
        <ele>16.957752</ele>
        <time>2021-07-22T18:51:00.181Z</time>
      </trkpt>
      <trkpt lat="50.47118" lon="3.42056">
        <ele>16.93706</ele>
        <time>2021-07-22T18:51:02.793Z</time>
      </trkpt>
      <trkpt lat="50.47109" lon="3.42093">
        <ele>16.908374</ele>
        <time>2021-07-22T18:51:06.375Z</time>
      </trkpt>
      <trkpt lat="50.47085" lon="3.42188">
        <ele>16.834577</ele>
        <time>2021-07-22T18:51:15.582Z</time>
      </trkpt>
      <trkpt lat="50.47086" lon="3.42218">
        <ele>16.81298</ele>
        <time>2021-07-22T18:51:18.285Z</time>
      </trkpt>
      <trkpt lat="50.47106" lon="3.42256">
        <ele>16.777388</ele>
        <time>2021-07-22T18:51:22.693Z</time>
      </trkpt>
      <trkpt lat="50.47184" lon="3.42343">
        <ele>17.100507</ele>
        <time>2021-07-22T18:51:37.265Z</time>
      </trkpt>
      <trkpt lat="50.47249" lon="3.42447">
        <ele>17.519284</ele>
        <time>2021-07-22T18:51:53.524Z</time>
      </trkpt>
      <trkpt lat="50.47266" lon="3.42477">
        <ele>17.674049</ele>
        <time>2021-07-22T18:51:58.330Z</time>
      </trkpt>
      <trkpt lat="50.47281" lon="3.42507">
        <ele>17.855696</ele>
        <time>2021-07-22T18:52:02.886Z</time>
      </trkpt>
      <trkpt lat="50.47299" lon="3.42556">
        <ele>18.123988</ele>
        <time>2021-07-22T18:52:09.812Z</time>
      </trkpt>
      <trkpt lat="50.47333" lon="3.42587">
        <ele>18.409996</ele>
        <time>2021-07-22T18:52:16.946Z</time>
      </trkpt>
      <trkpt lat="50.47335" lon="3.4259">
        <ele>18.429552</ele>
        <time>2021-07-22T18:52:17.687Z</time>
      </trkpt>
      <trkpt lat="50.47341" lon="3.42599">
        <ele>18.490592</ele>
        <time>2021-07-22T18:52:19.119Z</time>
      </trkpt>
      <trkpt lat="50.47343" lon="3.42607">
        <ele>18.530979</ele>
        <time>2021-07-22T18:52:20.087Z</time>
      </trkpt>
      <trkpt lat="50.47357" lon="3.42605">
        <ele>18.63936</ele>
        <time>2021-07-22T18:52:22.558Z</time>
      </trkpt>
      <trkpt lat="50.47365" lon="3.42604">
        <ele>18.697017</ele>
        <time>2021-07-22T18:52:24.113Z</time>
      </trkpt>
      <trkpt lat="50.47375" lon="3.42607">
        <ele>18.769918</ele>
        <time>2021-07-22T18:52:25.819Z</time>
      </trkpt>
      <trkpt lat="50.47395" lon="3.42618">
        <ele>18.878825</ele>
        <time>2021-07-22T18:52:29.165Z</time>
      </trkpt>
      <trkpt lat="50.47413" lon="3.42629">
        <ele>18.819393</ele>
        <time>2021-07-22T18:52:32.198Z</time>
      </trkpt>
      <trkpt lat="50.47437" lon="3.42644">
        <ele>18.739297</ele>
        <time>2021-07-22T18:52:35.834Z</time>
      </trkpt>
      <trkpt lat="50.47452" lon="3.42652">
        <ele>18.689412</ele>
        <time>2021-07-22T18:52:38.022Z</time>
      </trkpt>
      <trkpt lat="50.47463" lon="3.42656">
        <ele>18.651002</ele>
        <time>2021-07-22T18:52:39.567Z</time>
      </trkpt>
      <trkpt lat="50.47478" lon="3.42659">
        <ele>18.605673</ele>
        <time>2021-07-22T18:52:41.803Z</time>
      </trkpt>
      <trkpt lat="50.47487" lon="3.42661">
        <ele>18.575659</ele>
        <time>2021-07-22T18:52:43.058Z</time>
      </trkpt>
      <trkpt lat="50.47501" lon="3.42662">
        <ele>18.533053</ele>
        <time>2021-07-22T18:52:44.745Z</time>
      </trkpt>
      <trkpt lat="50.47522" lon="3.4266">
        <ele>18.465516</ele>
        <time>2021-07-22T18:52:47.554Z</time>
      </trkpt>
      <trkpt lat="50.4753" lon="3.42658">
        <ele>18.441489</ele>
        <time>2021-07-22T18:52:48.477Z</time>
      </trkpt>
      <trkpt lat="50.47557" lon="3.42652">
        <ele>18.355586</ele>
        <time>2021-07-22T18:52:51.931Z</time>
      </trkpt>
      <trkpt lat="50.47712" lon="3.42598">
        <ele>17.474761</ele>
        <time>2021-07-22T18:53:12.245Z</time>
      </trkpt>
      <trkpt lat="50.4785" lon="3.42612">
        <ele>17.445887</ele>
        <time>2021-07-22T18:53:32.930Z</time>
      </trkpt>
      <trkpt lat="50.47922" lon="3.42603">
        <ele>17.541086</ele>
        <time>2021-07-22T18:53:44.459Z</time>
      </trkpt>
      <trkpt lat="50.47945" lon="3.42594">
        <ele>17.646712</ele>
        <time>2021-07-22T18:53:48.441Z</time>
      </trkpt>
      <trkpt lat="50.48025" lon="3.42556">
        <ele>18.012085</ele>
        <time>2021-07-22T18:54:02.298Z</time>
      </trkpt>
      <trkpt lat="50.48123" lon="3.42506">
        <ele>18.371054</ele>
        <time>2021-07-22T18:54:19.849Z</time>
      </trkpt>
      <trkpt lat="50.48147" lon="3.42501">
        <ele>18.403843</ele>
        <time>2021-07-22T18:54:23.498Z</time>
      </trkpt>
      <trkpt lat="50.48167" lon="3.42499">
        <ele>18.432426</ele>
        <time>2021-07-22T18:54:26.751Z</time>
      </trkpt>
      <trkpt lat="50.4823" lon="3.42507">
        <ele>18.519873</ele>
        <time>2021-07-22T18:54:36.081Z</time>
      </trkpt>
      <trkpt lat="50.48243" lon="3.4251">
        <ele>18.537473</ele>
        <time>2021-07-22T18:54:38.125Z</time>
      </trkpt>
      <trkpt lat="50.48265" lon="3.42517">
        <ele>18.568443</ele>
        <time>2021-07-22T18:54:41.268Z</time>
      </trkpt>
      <trkpt lat="50.48298" lon="3.42533">
        <ele>18.556693</ele>
        <time>2021-07-22T18:54:46.411Z</time>
      </trkpt>
      <trkpt lat="50.48331" lon="3.42556">
        <ele>18.532224</ele>
        <time>2021-07-22T18:54:51.616Z</time>
      </trkpt>
      <trkpt lat="50.48364" lon="3.42603">
        <ele>18.502473</ele>
        <time>2021-07-22T18:54:58.042Z</time>
      </trkpt>
      <trkpt lat="50.48379" lon="3.42655">
        <ele>18.478121</ele>
        <time>2021-07-22T18:55:03.182Z</time>
      </trkpt>
      <trkpt lat="50.48391" lon="3.42733">
        <ele>18.465652</ele>
        <time>2021-07-22T18:55:10.788Z</time>
      </trkpt>
      <trkpt lat="50.48397" lon="3.4277">
        <ele>18.480046</ele>
        <time>2021-07-22T18:55:14.687Z</time>
      </trkpt>
      <trkpt lat="50.48404" lon="3.42822">
        <ele>18.499713</ele>
        <time>2021-07-22T18:55:19.771Z</time>
      </trkpt>
      <trkpt lat="50.48422" lon="3.42955">
        <ele>18.550717</ele>
        <time>2021-07-22T18:55:32.818Z</time>
      </trkpt>
      <trkpt lat="50.48426" lon="3.42977">
        <ele>18.559205</ele>
        <time>2021-07-22T18:55:35.049Z</time>
      </trkpt>
      <trkpt lat="50.48432" lon="3.43001">
        <ele>18.579408</ele>
        <time>2021-07-22T18:55:37.455Z</time>
      </trkpt>
      <trkpt lat="50.48438" lon="3.43022">
        <ele>18.600459</ele>
        <time>2021-07-22T18:55:39.576Z</time>
      </trkpt>
      <trkpt lat="50.48468" lon="3.43113">
        <ele>18.691524</ele>
        <time>2021-07-22T18:55:49.326Z</time>
      </trkpt>
      <trkpt lat="50.48503" lon="3.4319">
        <ele>18.776247</ele>
        <time>2021-07-22T18:55:58.769Z</time>
      </trkpt>
      <trkpt lat="50.48515" lon="3.43211">
        <ele>18.801352</ele>
        <time>2021-07-22T18:56:01.397Z</time>
      </trkpt>
      <trkpt lat="50.48516" lon="3.43213">
        <ele>18.80461</ele>
        <time>2021-07-22T18:56:01.965Z</time>
      </trkpt>
      <trkpt lat="50.48566" lon="3.43274">
        <ele>19.102899</ele>
        <time>2021-07-22T18:56:12.565Z</time>
      </trkpt>
      <trkpt lat="50.48614" lon="3.43307">
        <ele>19.370339</ele>
        <time>2021-07-22T18:56:21.553Z</time>
      </trkpt>
      <trkpt lat="50.48697" lon="3.4335">
        <ele>19.808066</ele>
        <time>2021-07-22T18:56:36.425Z</time>
      </trkpt>
      <trkpt lat="50.48714" lon="3.43358">
        <ele>19.891562</ele>
        <time>2021-07-22T18:56:39.428Z</time>
      </trkpt>
      <trkpt lat="50.48812" lon="3.43386">
        <ele>20.356108</ele>
        <time>2021-07-22T18:56:56.003Z</time>
      </trkpt>
      <trkpt lat="50.48835" lon="3.43392">
        <ele>20.467691</ele>
        <time>2021-07-22T18:56:59.811Z</time>
      </trkpt>
      <trkpt lat="50.48831" lon="3.43417">
        <ele>20.546938</ele>
        <time>2021-07-22T18:57:02.519Z</time>
      </trkpt>
      <trkpt lat="50.48777" lon="3.43508">
        <ele>20.949243</ele>
        <time>2021-07-22T18:57:15.700Z</time>
      </trkpt>
      <trkpt lat="50.48772" lon="3.4353">
        <ele>21.023892</ele>
        <time>2021-07-22T18:57:18.222Z</time>
      </trkpt>
      <trkpt lat="50.48774" lon="3.4355">
        <ele>21.091166</ele>
        <time>2021-07-22T18:57:20.633Z</time>
      </trkpt>
      <trkpt lat="50.48786" lon="3.43584">
        <ele>21.218308</ele>
        <time>2021-07-22T18:57:24.859Z</time>
      </trkpt>
      <trkpt lat="50.48793" lon="3.43602">
        <ele>21.287565</ele>
        <time>2021-07-22T18:57:27.293Z</time>
      </trkpt>
      <trkpt lat="50.488" lon="3.4362">
        <ele>21.356276</ele>
        <time>2021-07-22T18:57:29.482Z</time>
      </trkpt>
      <trkpt lat="50.48851" lon="3.4374">
        <ele>21.587125</ele>
        <time>2021-07-22T18:57:44.906Z</time>
      </trkpt>
      <trkpt lat="50.48863" lon="3.43769">
        <ele>21.617646</ele>
        <time>2021-07-22T18:57:48.308Z</time>
      </trkpt>
      <trkpt lat="50.48882" lon="3.43799">
        <ele>21.654947</ele>
        <time>2021-07-22T18:57:52.589Z</time>
      </trkpt>
      <trkpt lat="50.48907" lon="3.43837">
        <ele>21.703387</ele>
        <time>2021-07-22T18:57:57.878Z</time>
      </trkpt>
      <trkpt lat="50.48918" lon="3.43854">
        <ele>21.725797</ele>
        <time>2021-07-22T18:58:00.185Z</time>
      </trkpt>
      <trkpt lat="50.48944" lon="3.43891">
        <ele>21.597204</ele>
        <time>2021-07-22T18:58:04.840Z</time>
      </trkpt>
      <trkpt lat="50.48953" lon="3.43902">
        <ele>21.49816</ele>
        <time>2021-07-22T18:58:06.398Z</time>
      </trkpt>
      <trkpt lat="50.48965" lon="3.43917">
        <ele>21.37533</ele>
        <time>2021-07-22T18:58:08.242Z</time>
      </trkpt>
      <trkpt lat="50.48981" lon="3.43937">
        <ele>21.200047</ele>
        <time>2021-07-22T18:58:10.895Z</time>
      </trkpt>
      <trkpt lat="50.48998" lon="3.43966">
        <ele>20.994448</ele>
        <time>2021-07-22T18:58:13.967Z</time>
      </trkpt>
      <trkpt lat="50.49034" lon="3.44057">
        <ele>20.431136</ele>
        <time>2021-07-22T18:58:22.234Z</time>
      </trkpt>
      <trkpt lat="50.49043" lon="3.44079">
        <ele>20.293205</ele>
        <time>2021-07-22T18:58:24.245Z</time>
      </trkpt>
      <trkpt lat="50.49109" lon="3.44183">
        <ele>19.550064</ele>
        <time>2021-07-22T18:58:35.608Z</time>
      </trkpt>
      <trkpt lat="50.49138" lon="3.44236">
        <ele>19.193316</ele>
        <time>2021-07-22T18:58:41.277Z</time>
      </trkpt>
      <trkpt lat="50.49167" lon="3.44324">
        <ele>18.792884</ele>
        <time>2021-07-22T18:58:49.715Z</time>
      </trkpt>
      <trkpt lat="50.49219" lon="3.44434">
        <ele>18.614189</ele>
        <time>2021-07-22T18:59:02.149Z</time>
      </trkpt>
      <trkpt lat="50.49227" lon="3.44464">
        <ele>18.570703</ele>
        <time>2021-07-22T18:59:05.230Z</time>
      </trkpt>
      <trkpt lat="50.49237" lon="3.44565">
        <ele>18.433757</ele>
        <time>2021-07-22T18:59:14.654Z</time>
      </trkpt>
      <trkpt lat="50.49254" lon="3.44618">
        <ele>18.340749</ele>
        <time>2021-07-22T18:59:20.086Z</time>
      </trkpt>
      <trkpt lat="50.49286" lon="3.44688">
        <ele>18.206822</ele>
        <time>2021-07-22T18:59:27.668Z</time>
      </trkpt>
      <trkpt lat="50.49301" lon="3.44709">
        <ele>18.157215</ele>
        <time>2021-07-22T18:59:30.450Z</time>
      </trkpt>
      <trkpt lat="50.49336" lon="3.44729">
        <ele>18.064901</ele>
        <time>2021-07-22T18:59:35.481Z</time>
      </trkpt>
      <trkpt lat="50.4934" lon="3.44731">
        <ele>18.055123</ele>
        <time>2021-07-22T18:59:35.977Z</time>
      </trkpt>
      <trkpt lat="50.49353" lon="3.4475">
        <ele>18.018213</ele>
        <time>2021-07-22T18:59:38.339Z</time>
      </trkpt>
      <trkpt lat="50.49359" lon="3.44758">
        <ele>18.021798</ele>
        <time>2021-07-22T18:59:39.525Z</time>
      </trkpt>
      <trkpt lat="50.49366" lon="3.44748">
        <ele>18.025562</ele>
        <time>2021-07-22T18:59:40.729Z</time>
      </trkpt>
      <trkpt lat="50.49368" lon="3.44744">
        <ele>18.026974</ele>
        <time>2021-07-22T18:59:41.192Z</time>
      </trkpt>
      <trkpt lat="50.4942" lon="3.44663">
        <ele>18.058503</ele>
        <time>2021-07-22T18:59:52.230Z</time>
      </trkpt>
      <trkpt lat="50.49426" lon="3.44654">
        <ele>18.06206</ele>
        <time>2021-07-22T18:59:53.339Z</time>
      </trkpt>
      <trkpt lat="50.49477" lon="3.44573">
        <ele>18.093109</ele>
        <time>2021-07-22T19:00:05.076Z</time>
      </trkpt>
      <trkpt lat="50.49491" lon="3.44561">
        <ele>18.082104</ele>
        <time>2021-07-22T19:00:07.980Z</time>
      </trkpt>
      <trkpt lat="50.49544" lon="3.44521">
        <ele>18.028206</ele>
        <time>2021-07-22T19:00:17.065Z</time>
      </trkpt>
      <trkpt lat="50.49562" lon="3.44503">
        <ele>18.008476</ele>
        <time>2021-07-22T19:00:20.377Z</time>
      </trkpt>
      <trkpt lat="50.4959" lon="3.44475">
        <ele>17.978368</ele>
        <time>2021-07-22T19:00:25.045Z</time>
      </trkpt>
      <trkpt lat="50.49648" lon="3.44404">
        <ele>17.73385</ele>
        <time>2021-07-22T19:00:34.776Z</time>
      </trkpt>
      <trkpt lat="50.49663" lon="3.44393">
        <ele>17.576014</ele>
        <time>2021-07-22T19:00:36.808Z</time>
      </trkpt>
      <trkpt lat="50.49669" lon="3.44396">
        <ele>17.518156</ele>
        <time>2021-07-22T19:00:37.573Z</time>
      </trkpt>
      <trkpt lat="50.49672" lon="3.44401">
        <ele>17.474573</ele>
        <time>2021-07-22T19:00:38.142Z</time>
      </trkpt>
      <trkpt lat="50.49674" lon="3.44405">
        <ele>17.44365</ele>
        <time>2021-07-22T19:00:38.472Z</time>
      </trkpt>
      <trkpt lat="50.49687" lon="3.44433">
        <ele>17.230767</ele>
        <time>2021-07-22T19:00:41.231Z</time>
      </trkpt>
      <trkpt lat="50.49735" lon="3.44569">
        <ele>16.274093</ele>
        <time>2021-07-22T19:00:53.014Z</time>
      </trkpt>
      <trkpt lat="50.49754" lon="3.44626">
        <ele>16.078213</ele>
        <time>2021-07-22T19:00:58.075Z</time>
      </trkpt>
      <trkpt lat="50.49776" lon="3.4469">
        <ele>15.916369</ele>
        <time>2021-07-22T19:01:04.243Z</time>
      </trkpt>
      <trkpt lat="50.49776" lon="3.4469">
        <ele>15.916369</ele>
        <time>2021-07-22T19:01:04.246Z</time>
      </trkpt>
      <trkpt lat="50.49798" lon="3.44759">
        <ele>15.743766</ele>
        <time>2021-07-22T19:01:11.029Z</time>
      </trkpt>
      <trkpt lat="50.49799" lon="3.44762">
        <ele>15.736614</ele>
        <time>2021-07-22T19:01:11.419Z</time>
      </trkpt>
      <trkpt lat="50.49844" lon="3.44889">
        <ele>15.879487</ele>
        <time>2021-07-22T19:01:25.857Z</time>
      </trkpt>
      <trkpt lat="50.49851" lon="3.44909">
        <ele>15.992338</ele>
        <time>2021-07-22T19:01:28.613Z</time>
      </trkpt>
      <trkpt lat="50.49864" lon="3.44939">
        <ele>16.164512</ele>
        <time>2021-07-22T19:01:32.792Z</time>
      </trkpt>
      <trkpt lat="50.49867" lon="3.44946">
        <ele>16.204342</ele>
        <time>2021-07-22T19:01:33.821Z</time>
      </trkpt>
      <trkpt lat="50.49874" lon="3.44964">
        <ele>16.305716</ele>
        <time>2021-07-22T19:01:36.501Z</time>
      </trkpt>
      <trkpt lat="50.49935" lon="3.45106">
        <ele>17.001162</ele>
        <time>2021-07-22T19:01:57.234Z</time>
      </trkpt>
      <trkpt lat="50.49943" lon="3.45125">
        <ele>17.049794</ele>
        <time>2021-07-22T19:01:59.781Z</time>
      </trkpt>
      <trkpt lat="50.49958" lon="3.45159">
        <ele>17.134666</ele>
        <time>2021-07-22T19:02:03.902Z</time>
      </trkpt>
      <trkpt lat="50.49974" lon="3.45177">
        <ele>17.199878</ele>
        <time>2021-07-22T19:02:07.056Z</time>
      </trkpt>
      <trkpt lat="50.49999" lon="3.45188">
        <ele>17.281479</ele>
        <time>2021-07-22T19:02:10.698Z</time>
      </trkpt>
      <trkpt lat="50.50005" lon="3.45189">
        <ele>17.302201</ele>
        <time>2021-07-22T19:02:11.733Z</time>
      </trkpt>
      <trkpt lat="50.50044" lon="3.45199">
        <ele>17.431155</ele>
        <time>2021-07-22T19:02:17.889Z</time>
      </trkpt>
      <trkpt lat="50.50051" lon="3.45202">
        <ele>17.454022</ele>
        <time>2021-07-22T19:02:18.943Z</time>
      </trkpt>
      <trkpt lat="50.50052" lon="3.45203">
        <ele>17.459431</ele>
        <time>2021-07-22T19:02:19.198Z</time>
      </trkpt>
      <trkpt lat="50.50084" lon="3.45223">
        <ele>17.474473</ele>
        <time>2021-07-22T19:02:24.457Z</time>
      </trkpt>
      <trkpt lat="50.50092" lon="3.45227">
        <ele>17.466909</ele>
        <time>2021-07-22T19:02:25.671Z</time>
      </trkpt>
      <trkpt lat="50.5013" lon="3.45249">
        <ele>17.431082</ele>
        <time>2021-07-22T19:02:31.158Z</time>
      </trkpt>
      <trkpt lat="50.50142" lon="3.45258">
        <ele>17.419281</ele>
        <time>2021-07-22T19:02:33.048Z</time>
      </trkpt>
      <trkpt lat="50.50193" lon="3.45294">
        <ele>17.369158</ele>
        <time>2021-07-22T19:02:40.602Z</time>
      </trkpt>
      <trkpt lat="50.50229" lon="3.45322">
        <ele>17.338653</ele>
        <time>2021-07-22T19:02:46.323Z</time>
      </trkpt>
      <trkpt lat="50.5031" lon="3.45386">
        <ele>17.666483</ele>
        <time>2021-07-22T19:03:02.546Z</time>
      </trkpt>
      <trkpt lat="50.50341" lon="3.45413">
        <ele>17.794281</ele>
        <time>2021-07-22T19:03:08.299Z</time>
      </trkpt>
      <trkpt lat="50.50355" lon="3.45425">
        <ele>17.851985</ele>
        <time>2021-07-22T19:03:10.744Z</time>
      </trkpt>
      <trkpt lat="50.50407" lon="3.45459">
        <ele>17.982987</ele>
        <time>2021-07-22T19:03:19.394Z</time>
      </trkpt>
      <trkpt lat="50.50388" lon="3.45566">
        <ele>17.982987</ele>
        <time>2021-07-22T19:03:33.992Z</time>
      </trkpt>
      <trkpt lat="50.50388" lon="3.45566">
        <ele>17.982987</ele>
        <time>2021-07-22T19:03:33.994Z</time>
      </trkpt>
    </trkseg>
  </trk>
</gpx>